PWSweather.com
Personal Weather Stations
Station Observations
WOODBURYWX
Lighthouse Rd, Woodbury, Woodbury, CT 06798

Lighthouse Rd, WoodburyWoodbury, CT 06798

Lat: 41.553333, Lon: -73.224167

Elevation: 437

Station Type: Ambient Weather WS-1090

Latest ConditionsUpdated 3:50:00 PM EDT Friday, Sep 19, 2014
Currently Today's Max Today's Min Today's Average
Temperature 61.7°F16.5°C 64.8°F18.2°C 45.1°F7.3°C 53.0°F11.7°C
Dew Point 36.5°F2.5°C 54.0°F12.2°C 35.9°F2.2°C 42.7°F5.9°C
Winds 1.3 mph E2.1 kmh E 4.3 mph NE6.9 kmh NE - 1.9 mph 3.1 kmh
Wind Gusts 2.4 mph3.9 kmh 6.4 mph10.3 kmh - -
Humidity 39% 93% 37% 70%
Pressure 30.36 in1028.1 mb 30.38 in1028.8 mb 30.13 in1020.3 mb -
Hour Temp Dew Point Humidity Winds Wind Gusts Pressure Precip Precip Rate Daily Precip Total
03:50 PM 61.7°F16.5°C 36.5°F2.5°C 39% 1.3 mph E2.1 kmh E 2.4 mph3.9 kmh 30.36 in1028.1 mb 0.00 in0.0 mm 0.00 in/hr0.0 mm/hr 0.00 in0.0 mm
03:49 PM 61.9°F16.6°C 36.7°F2.6°C 39% 1.4 mph ESE2.3 kmh ESE 2.4 mph3.9 kmh 30.36 in1028.1 mb 0.00 in0.0 mm 0.00 in/hr0.0 mm/hr 0.00 in0.0 mm
03:48 PM 61.5°F16.4°C 36.3°F2.4°C 39% 1.4 mph SE2.3 kmh SE 2.4 mph3.9 kmh 30.36 in1028.1 mb 0.00 in0.0 mm 0.00 in/hr0.0 mm/hr 0.00 in0.0 mm
03:47 PM 61.7°F16.5°C 35.9°F2.2°C 38% 1.5 mph SE2.4 kmh SE 2.4 mph3.9 kmh 30.36 in1028.1 mb 0.00 in0.0 mm 0.00 in/hr0.0 mm/hr 0.00 in0.0 mm
03:46 PM 62.4°F16.9°C 36.5°F2.5°C 38% 1.6 mph SSE2.6 kmh SSE 2.4 mph3.9 kmh 30.36 in1028.1 mb 0.00 in0.0 mm 0.00 in/hr0.0 mm/hr 0.00 in0.0 mm
03:45 PM 63.0°F17.2°C 36.3°F2.4°C 37% 1.7 mph SSE2.7 kmh SSE 2.4 mph3.9 kmh 30.36 in1028.1 mb 0.00 in0.0 mm 0.00 in/hr0.0 mm/hr 0.00 in0.0 mm
03:44 PM 63.3°F17.4°C 37.3°F2.9°C 38% 1.9 mph SSE3.1 kmh SSE 3.2 mph5.1 kmh 30.36 in1028.1 mb 0.00 in0.0 mm 0.00 in/hr0.0 mm/hr 0.00 in0.0 mm
03:43 PM 64.8°F18.2°C 39.2°F4.0°C 39% 2.0 mph SSE3.2 kmh SSE 3.2 mph5.1 kmh 30.37 in1028.4 mb 0.00 in0.0 mm 0.00 in/hr0.0 mm/hr 0.00 in0.0 mm
03:42 PM 63.9°F17.7°C 38.4°F3.6°C 39% 2.3 mph S3.7 kmh S 4.0 mph6.4 kmh 30.36 in1028.1 mb 0.00 in0.0 mm 0.00 in/hr0.0 mm/hr 0.00 in0.0 mm
03:41 PM 63.0°F17.2°C 38.9°F3.8°C 41% 2.5 mph S4.0 kmh S 4.0 mph6.4 kmh 30.36 in1028.1 mb 0.00 in0.0 mm 0.00 in/hr0.0 mm/hr 0.00 in0.0 mm
03:40 PM 63.3°F17.4°C 39.2°F4.0°C 41% 2.3 mph S3.7 kmh S 4.0 mph6.4 kmh 30.37 in1028.4 mb 0.00 in0.0 mm 0.00 in/hr0.0 mm/hr 0.00 in0.0 mm
03:39 PM 63.5°F17.5°C 39.4°F4.1°C 41% 2.2 mph S3.5 kmh S 4.0 mph6.4 kmh 30.36 in1028.1 mb 0.00 in0.0 mm 0.00 in/hr0.0 mm/hr 0.00 in0.0 mm
03:38 PM 62.6°F17.0°C 38.6°F3.7°C 41% 2.2 mph SSE3.5 kmh SSE 4.0 mph6.4 kmh 30.36 in1028.1 mb 0.00 in0.0 mm 0.00 in/hr0.0 mm/hr 0.00 in0.0 mm
03:37 PM 61.9°F16.6°C 38.6°F3.7°C 42% 2.2 mph SSE3.5 kmh SSE 4.0 mph6.4 kmh 30.36 in1028.1 mb 0.00 in0.0 mm 0.00 in/hr0.0 mm/hr 0.00 in0.0 mm
03:36 PM 61.5°F16.4°C 38.2°F3.4°C 42% 2.2 mph SE3.5 kmh SE 4.0 mph6.4 kmh 30.36 in1028.1 mb 0.00 in0.0 mm 0.00 in/hr0.0 mm/hr 0.00 in0.0 mm
03:35 PM 61.5°F16.4°C 39.4°F4.1°C 44% 2.2 mph E3.5 kmh E 4.0 mph6.4 kmh 30.36 in1028.1 mb 0.00 in0.0 mm 0.00 in/hr0.0 mm/hr 0.00 in0.0 mm
03:34 PM 62.4°F16.9°C 39.6°F4.2°C 43% 1.9 mph SE3.1 kmh SE 4.0 mph6.4 kmh 30.36 in1028.1 mb 0.00 in0.0 mm 0.00 in/hr0.0 mm/hr 0.00 in0.0 mm
03:33 PM 62.8°F17.1°C 38.1°F3.4°C 40% 1.8 mph NE2.9 kmh NE 4.0 mph6.4 kmh 30.36 in1028.1 mb 0.00 in0.0 mm 0.00 in/hr0.0 mm/hr 0.00 in0.0 mm
03:32 PM 62.2°F16.8°C 37.6°F3.1°C 40% 1.6 mph NNE2.6 kmh NNE 3.2 mph5.1 kmh 30.36 in1028.1 mb 0.00 in0.0 mm 0.00 in/hr0.0 mm/hr 0.00 in0.0 mm
03:31 PM 62.1°F16.7°C 37.5°F3.1°C 40% 1.6 mph NNE2.6 kmh NNE 2.4 mph3.9 kmh 30.36 in1028.1 mb 0.00 in0.0 mm 0.00 in/hr0.0 mm/hr 0.00 in0.0 mm
03:30 PM 61.9°F16.6°C 37.3°F2.9°C 40% 1.8 mph NNE2.9 kmh NNE 2.4 mph3.9 kmh 30.37 in1028.4 mb 0.00 in0.0 mm 0.00 in/hr0.0 mm/hr 0.00 in0.0 mm
03:29 PM 61.9°F16.6°C 37.3°F2.9°C 40% 1.8 mph NE2.9 kmh NE 2.4 mph3.9 kmh 30.36 in1028.1 mb 0.00 in0.0 mm 0.00 in/hr0.0 mm/hr 0.00 in0.0 mm
03:28 PM 61.5°F16.4°C 37.0°F2.8°C 40% 1.6 mph NE2.6 kmh NE 2.4 mph3.9 kmh 30.36 in1028.1 mb 0.00 in0.0 mm 0.00 in/hr0.0 mm/hr 0.00 in0.0 mm
03:27 PM 61.2°F16.2°C 37.3°F2.9°C 41% 1.5 mph NE2.4 kmh NE 2.4 mph3.9 kmh 30.37 in1028.4 mb 0.00 in0.0 mm 0.00 in/hr0.0 mm/hr 0.00 in0.0 mm
03:26 PM 61.3°F16.3°C 37.5°F3.1°C 41% 1.5 mph E2.4 kmh E 2.4 mph3.9 kmh 30.37 in1028.4 mb 0.00 in0.0 mm 0.00 in/hr0.0 mm/hr 0.00 in0.0 mm
03:25 PM 62.8°F17.1°C 38.7°F3.7°C 41% 1.5 mph NE2.4 kmh NE 2.4 mph3.9 kmh 30.36 in1028.1 mb 0.00 in0.0 mm 0.00 in/hr0.0 mm/hr 0.00 in0.0 mm
03:24 PM 62.1°F16.7°C 38.7°F3.7°C 42% 1.7 mph NNE2.7 kmh NNE 2.4 mph3.9 kmh 30.36 in1028.1 mb 0.00 in0.0 mm 0.00 in/hr0.0 mm/hr 0.00 in0.0 mm
03:23 PM 62.1°F16.7°C 39.3°F4.1°C 43% 1.6 mph NE2.6 kmh NE 2.4 mph3.9 kmh 30.37 in1028.4 mb 0.00 in0.0 mm 0.00 in/hr0.0 mm/hr 0.00 in0.0 mm
03:22 PM 62.1°F16.7°C 39.3°F4.1°C 43% 1.5 mph NE2.4 kmh NE 2.4 mph3.9 kmh 30.37 in1028.4 mb 0.00 in0.0 mm 0.00 in/hr0.0 mm/hr 0.00 in0.0 mm
03:21 PM 61.5°F16.4°C 38.8°F3.8°C 43% 1.5 mph N2.4 kmh N 2.4 mph3.9 kmh 30.37 in1028.4 mb 0.00 in0.0 mm 0.00 in/hr0.0 mm/hr 0.00 in0.0 mm
03:20 PM 61.3°F16.3°C 38.7°F3.7°C 43% 1.4 mph N2.3 kmh N 2.4 mph3.9 kmh 30.37 in1028.4 mb 0.00 in0.0 mm 0.00 in/hr0.0 mm/hr 0.00 in0.0 mm
03:19 PM 61.3°F16.3°C 38.1°F3.4°C 42% 1.5 mph N2.4 kmh N 2.4 mph3.9 kmh 30.37 in1028.4 mb 0.00 in0.0 mm 0.00 in/hr0.0 mm/hr 0.00 in0.0 mm
03:18 PM 61.5°F16.4°C 38.2°F3.4°C 42% 1.6 mph N2.6 kmh N 2.4 mph3.9 kmh 30.37 in1028.4 mb 0.00 in0.0 mm 0.00 in/hr0.0 mm/hr 0.00 in0.0 mm
03:17 PM 61.0°F16.1°C 38.9°F3.8°C 44% 1.5 mph NNE2.4 kmh NNE 2.4 mph3.9 kmh 30.37 in1028.4 mb 0.00 in0.0 mm 0.00 in/hr0.0 mm/hr 0.00 in0.0 mm
03:16 PM 61.3°F16.3°C 39.8°F4.3°C 45% 1.4 mph NNE2.3 kmh NNE 2.4 mph3.9 kmh 30.37 in1028.4 mb 0.00 in0.0 mm 0.00 in/hr0.0 mm/hr 0.00 in0.0 mm
03:15 PM 61.3°F16.3°C 40.4°F4.7°C 46% 1.2 mph NNE1.9 kmh NNE 2.4 mph3.9 kmh 30.37 in1028.4 mb 0.00 in0.0 mm 0.00 in/hr0.0 mm/hr 0.00 in0.0 mm
03:14 PM 61.5°F16.4°C 40.0°F4.4°C 45% 1.0 mph NE1.6 kmh NE 2.4 mph3.9 kmh 30.36 in1028.1 mb 0.00 in0.0 mm 0.00 in/hr0.0 mm/hr 0.00 in0.0 mm
03:13 PM 60.8°F16.0°C 39.3°F4.1°C 45% 0.9 mph NE1.4 kmh NE 2.4 mph3.9 kmh 30.37 in1028.4 mb 0.00 in0.0 mm 0.00 in/hr0.0 mm/hr 0.00 in0.0 mm
03:12 PM 61.0°F16.1°C 38.9°F3.8°C 44% 0.8 mph NE1.3 kmh NE 2.4 mph3.9 kmh 30.36 in1028.1 mb 0.00 in0.0 mm 0.00 in/hr0.0 mm/hr 0.00 in0.0 mm
03:11 PM 61.0°F16.1°C 38.3°F3.5°C 43% 0.6 mph E1.0 kmh E 2.4 mph3.9 kmh 30.37 in1028.4 mb 0.00 in0.0 mm 0.00 in/hr0.0 mm/hr 0.00 in0.0 mm
03:10 PM 60.6°F15.9°C 38.0°F3.3°C 43% 0.5 mph SE0.8 kmh SE 1.6 mph2.6 kmh 30.36 in1028.1 mb 0.00 in0.0 mm 0.00 in/hr0.0 mm/hr 0.00 in0.0 mm
03:09 PM 61.0°F16.1°C 37.1°F2.8°C 41% 0.6 mph S1.0 kmh S 3.2 mph5.1 kmh 30.37 in1028.4 mb 0.00 in0.0 mm 0.00 in/hr0.0 mm/hr 0.00 in0.0 mm
03:08 PM 61.3°F16.3°C 38.1°F3.4°C 42% 0.6 mph S1.0 kmh S 3.2 mph5.1 kmh 30.38 in1028.8 mb 0.00 in0.0 mm 0.00 in/hr0.0 mm/hr 0.00 in0.0 mm
03:07 PM 62.4°F16.9°C 39.0°F3.9°C 42% 0.7 mph S1.1 kmh S 3.2 mph5.1 kmh 30.37 in1028.4 mb 0.00 in0.0 mm 0.00 in/hr0.0 mm/hr 0.00 in0.0 mm
03:06 PM 62.2°F16.8°C 38.9°F3.8°C 42% 0.9 mph S1.4 kmh S 3.2 mph5.1 kmh 30.37 in1028.4 mb 0.00 in0.0 mm 0.00 in/hr0.0 mm/hr 0.00 in0.0 mm
03:05 PM 62.1°F16.7°C 38.1°F3.4°C 41% 1.0 mph S1.6 kmh S 3.2 mph5.1 kmh 30.37 in1028.4 mb 0.00 in0.0 mm 0.00 in/hr0.0 mm/hr 0.00 in0.0 mm
03:04 PM 61.9°F16.6°C 38.6°F3.7°C 42% 1.2 mph SSE1.9 kmh SSE 3.2 mph5.1 kmh 30.38 in1028.8 mb 0.00 in0.0 mm 0.00 in/hr0.0 mm/hr 0.00 in0.0 mm
03:03 PM 62.6°F17.0°C 39.2°F4.0°C 42% 1.5 mph SE2.4 kmh SE 3.2 mph5.1 kmh 30.37 in1028.4 mb 0.00 in0.0 mm 0.00 in/hr0.0 mm/hr 0.00 in0.0 mm
03:02 PM 63.5°F17.5°C 40.6°F4.8°C 43% 1.8 mph E2.9 kmh E 3.2 mph5.1 kmh 30.38 in1028.8 mb 0.00 in0.0 mm 0.00 in/hr0.0 mm/hr 0.00 in0.0 mm
03:01 PM 62.2°F16.8°C 40.1°F4.5°C 44% 2.0 mph E3.2 kmh E 3.2 mph5.1 kmh 30.38 in1028.8 mb 0.00 in0.0 mm 0.00 in/hr0.0 mm/hr 0.00 in0.0 mm
03:00 PM 61.3°F16.3°C 39.3°F4.1°C 44% 2.1 mph E3.4 kmh E 3.2 mph5.1 kmh 30.37 in1028.4 mb 0.00 in0.0 mm 0.00 in/hr0.0 mm/hr 0.00 in0.0 mm
02:59 PM 61.0°F16.1°C 38.3°F3.5°C 43% 2.1 mph E3.4 kmh E 3.2 mph5.1 kmh 30.38 in1028.8 mb 0.00 in0.0 mm 0.00 in/hr0.0 mm/hr 0.00 in0.0 mm
02:58 PM 60.4°F15.8°C 37.9°F3.3°C 43% 2.1 mph NE3.4 kmh NE 3.2 mph5.1 kmh 30.37 in1028.4 mb 0.00 in0.0 mm 0.00 in/hr0.0 mm/hr 0.00 in0.0 mm
02:57 PM 60.6°F15.9°C 38.0°F3.3°C 43% 2.2 mph NE3.5 kmh NE 3.2 mph5.1 kmh 30.37 in1028.4 mb 0.00 in0.0 mm 0.00 in/hr0.0 mm/hr 0.00 in0.0 mm
02:56 PM 60.1°F15.6°C 37.5°F3.1°C 43% 2.2 mph NE3.5 kmh NE 3.2 mph5.1 kmh 30.37 in1028.4 mb 0.00 in0.0 mm 0.00 in/hr0.0 mm/hr 0.00 in0.0 mm
02:55 PM 59.9°F15.5°C 37.4°F3.0°C 43% 2.3 mph NE3.7 kmh NE 3.2 mph5.1 kmh 30.36 in1028.1 mb 0.00 in0.0 mm 0.00 in/hr0.0 mm/hr 0.00 in0.0 mm
02:54 PM 60.3°F15.7°C 37.7°F3.2°C 43% 2.3 mph NE3.7 kmh NE 3.2 mph5.1 kmh 30.37 in1028.4 mb 0.00 in0.0 mm 0.00 in/hr0.0 mm/hr 0.00 in0.0 mm
02:53 PM 60.3°F15.7°C 38.3°F3.5°C 44% 2.4 mph NE3.9 kmh NE 3.2 mph5.1 kmh 30.36 in1028.1 mb 0.00 in0.0 mm 0.00 in/hr0.0 mm/hr 0.00 in0.0 mm
02:52 PM 59.5°F15.3°C 37.0°F2.8°C 43% 2.2 mph NE3.5 kmh NE 3.2 mph5.1 kmh 30.36 in1028.1 mb 0.00 in0.0 mm 0.00 in/hr0.0 mm/hr 0.00 in0.0 mm
02:51 PM 59.7°F15.4°C 37.8°F3.2°C 44% 2.3 mph NE3.7 kmh NE 3.2 mph5.1 kmh 30.37 in1028.4 mb 0.00 in0.0 mm 0.00 in/hr0.0 mm/hr 0.00 in0.0 mm
02:50 PM 59.7°F15.4°C 37.8°F3.2°C 44% 2.3 mph NE3.7 kmh NE 3.2 mph5.1 kmh 30.37 in1028.4 mb 0.00 in0.0 mm 0.00 in/hr0.0 mm/hr 0.00 in0.0 mm
02:49 PM 60.8°F16.0°C 38.8°F3.8°C 44% 2.4 mph N3.9 kmh N 3.2 mph5.1 kmh 30.36 in1028.1 mb 0.00 in0.0 mm 0.00 in/hr0.0 mm/hr 0.00 in0.0 mm
02:48 PM 60.4°F15.8°C 39.0°F3.9°C 45% 2.3 mph N3.7 kmh N 3.2 mph5.1 kmh 30.37 in1028.4 mb 0.00 in0.0 mm 0.00 in/hr0.0 mm/hr 0.00 in0.0 mm
02:47 PM 60.4°F15.8°C 39.0°F3.9°C 45% 2.1 mph N3.4 kmh N 3.2 mph5.1 kmh 30.37 in1028.4 mb 0.00 in0.0 mm 0.00 in/hr0.0 mm/hr 0.00 in0.0 mm
02:46 PM 60.4°F15.8°C 39.0°F3.9°C 45% 2.0 mph N3.2 kmh N 3.2 mph5.1 kmh 30.36 in1028.1 mb 0.00 in0.0 mm 0.00 in/hr0.0 mm/hr 0.00 in0.0 mm
02:45 PM 60.6°F15.9°C 38.6°F3.7°C 44% 1.9 mph NNW3.1 kmh NNW 3.2 mph5.1 kmh 30.37 in1028.4 mb 0.00 in0.0 mm 0.00 in/hr0.0 mm/hr 0.00 in0.0 mm
02:44 PM 60.3°F15.7°C 37.7°F3.2°C 43% 1.9 mph NNW3.1 kmh NNW 3.2 mph5.1 kmh 30.36 in1028.1 mb 0.00 in0.0 mm 0.00 in/hr0.0 mm/hr 0.00 in0.0 mm
02:43 PM 60.6°F15.9°C 38.0°F3.3°C 43% 1.9 mph NNW3.1 kmh NNW 3.2 mph5.1 kmh 30.36 in1028.1 mb 0.00 in0.0 mm 0.00 in/hr0.0 mm/hr 0.00 in0.0 mm
02:42 PM 61.0°F16.1°C 38.3°F3.5°C 43% 2.0 mph N3.2 kmh N 3.2 mph5.1 kmh 30.37 in1028.4 mb 0.00 in0.0 mm 0.00 in/hr0.0 mm/hr 0.00 in0.0 mm
02:41 PM 60.8°F16.0°C 38.2°F3.4°C 43% 2.2 mph N3.5 kmh N 3.2 mph5.1 kmh 30.37 in1028.4 mb 0.00 in0.0 mm 0.00 in/hr0.0 mm/hr 0.00 in0.0 mm
02:40 PM 60.3°F15.7°C 38.3°F3.5°C 44% 2.2 mph N3.5 kmh N 3.2 mph5.1 kmh 30.36 in1028.1 mb 0.00 in0.0 mm 0.00 in/hr0.0 mm/hr 0.00 in0.0 mm
02:39 PM 60.4°F15.8°C 39.0°F3.9°C 45% 2.2 mph N3.5 kmh N 3.2 mph5.1 kmh 30.36 in1028.1 mb 0.00 in0.0 mm 0.00 in/hr0.0 mm/hr 0.00 in0.0 mm
02:38 PM 60.3°F15.7°C 38.3°F3.5°C 44% 2.2 mph N3.5 kmh N 3.2 mph5.1 kmh 30.37 in1028.4 mb 0.00 in0.0 mm 0.00 in/hr0.0 mm/hr 0.00 in0.0 mm
02:37 PM 60.1°F15.6°C 38.1°F3.4°C 44% 2.5 mph NNE4.0 kmh NNE 4.8 mph7.7 kmh 30.36 in1028.1 mb 0.00 in0.0 mm 0.00 in/hr0.0 mm/hr 0.00 in0.0 mm
02:36 PM 59.7°F15.4°C 37.8°F3.2°C 44% 2.9 mph NNE4.7 kmh NNE 4.8 mph7.7 kmh 30.36 in1028.1 mb 0.00 in0.0 mm 0.00 in/hr0.0 mm/hr 0.00 in0.0 mm
02:35 PM 59.7°F15.4°C 38.4°F3.6°C 45% 3.0 mph NE4.8 kmh NE 4.8 mph7.7 kmh 30.37 in1028.4 mb 0.00 in0.0 mm 0.00 in/hr0.0 mm/hr 0.00 in0.0 mm
02:34 PM 59.5°F15.3°C 38.2°F3.4°C 45% 2.8 mph NE4.5 kmh NE 4.8 mph7.7 kmh 30.36 in1028.1 mb 0.00 in0.0 mm 0.00 in/hr0.0 mm/hr 0.00 in0.0 mm
02:33 PM 59.7°F15.4°C 38.4°F3.6°C 45% 2.7 mph NE4.3 kmh NE 4.8 mph7.7 kmh 30.36 in1028.1 mb 0.00 in0.0 mm 0.00 in/hr0.0 mm/hr 0.00 in0.0 mm
02:32 PM 60.3°F15.7°C 38.8°F3.8°C 45% 2.6 mph NE4.2 kmh NE 4.8 mph7.7 kmh 30.37 in1028.4 mb 0.00 in0.0 mm 0.00 in/hr0.0 mm/hr 0.00 in0.0 mm
02:31 PM 60.3°F15.7°C 38.8°F3.8°C 45% 2.5 mph NE4.0 kmh NE 4.8 mph7.7 kmh 30.36 in1028.1 mb 0.00 in0.0 mm 0.00 in/hr0.0 mm/hr 0.00 in0.0 mm
02:30 PM 60.1°F15.6°C 39.2°F4.0°C 46% 2.3 mph NE3.7 kmh NE 4.8 mph7.7 kmh 30.36 in1028.1 mb 0.00 in0.0 mm 0.00 in/hr0.0 mm/hr 0.00 in0.0 mm
02:29 PM 59.7°F15.4°C 38.9°F3.8°C 46% 2.3 mph ENE3.7 kmh ENE 4.8 mph7.7 kmh 30.36 in1028.1 mb 0.00 in0.0 mm 0.00 in/hr0.0 mm/hr 0.00 in0.0 mm
02:28 PM 59.5°F15.3°C 38.2°F3.4°C 45% 2.3 mph E3.7 kmh E 4.8 mph7.7 kmh 30.36 in1028.1 mb 0.00 in0.0 mm 0.00 in/hr0.0 mm/hr 0.00 in0.0 mm
02:27 PM 59.7°F15.4°C 38.9°F3.8°C 46% 2.1 mph E3.4 kmh E 4.8 mph7.7 kmh 30.36 in1028.1 mb 0.00 in0.0 mm 0.00 in/hr0.0 mm/hr 0.00 in0.0 mm
02:26 PM 60.3°F15.7°C 40.0°F4.4°C 47% 1.9 mph E3.1 kmh E 4.8 mph7.7 kmh 30.36 in1028.1 mb 0.00 in0.0 mm 0.00 in/hr0.0 mm/hr 0.00 in0.0 mm
02:25 PM 60.8°F16.0°C 40.5°F4.7°C 47% 1.9 mph ESE3.1 kmh ESE 3.2 mph5.1 kmh 30.36 in1028.1 mb 0.00 in0.0 mm 0.00 in/hr0.0 mm/hr 0.00 in0.0 mm
02:24 PM 60.3°F15.7°C 40.5°F4.7°C 48% 2.1 mph ESE3.4 kmh ESE 3.2 mph5.1 kmh 30.37 in1028.4 mb 0.00 in0.0 mm 0.00 in/hr0.0 mm/hr 0.00 in0.0 mm
02:23 PM 60.1°F15.6°C 41.4°F5.2°C 50% 2.1 mph ESE3.4 kmh ESE 3.2 mph5.1 kmh 30.36 in1028.1 mb 0.00 in0.0 mm 0.00 in/hr0.0 mm/hr 0.00 in0.0 mm
02:22 PM 60.1°F15.6°C 40.9°F4.9°C 49% 2.2 mph ESE3.5 kmh ESE 3.2 mph5.1 kmh 30.36 in1028.1 mb 0.00 in0.0 mm 0.00 in/hr0.0 mm/hr 0.00 in0.0 mm
02:21 PM 60.3°F15.7°C 41.0°F5.0°C 49% 2.3 mph ESE3.7 kmh ESE 3.2 mph5.1 kmh 30.37 in1028.4 mb 0.00 in0.0 mm 0.00 in/hr0.0 mm/hr 0.00 in0.0 mm
02:20 PM 59.7°F15.4°C 39.5°F4.2°C 47% 2.2 mph SE3.5 kmh SE 3.2 mph5.1 kmh 30.36 in1028.1 mb 0.00 in0.0 mm 0.00 in/hr0.0 mm/hr 0.00 in0.0 mm
02:19 PM 59.9°F15.5°C 39.6°F4.2°C 47% 2.0 mph ESE3.2 kmh ESE 3.2 mph5.1 kmh 30.36 in1028.1 mb 0.00 in0.0 mm 0.00 in/hr0.0 mm/hr 0.00 in0.0 mm
02:18 PM 60.3°F15.7°C 40.5°F4.7°C 48% 1.8 mph SE2.9 kmh SE 3.2 mph5.1 kmh 30.36 in1028.1 mb 0.00 in0.0 mm 0.00 in/hr0.0 mm/hr 0.00 in0.0 mm
02:17 PM 60.8°F16.0°C 41.0°F5.0°C 48% 1.8 mph ESE2.9 kmh ESE 3.2 mph5.1 kmh 30.36 in1028.1 mb 0.00 in0.0 mm 0.00 in/hr0.0 mm/hr 0.00 in0.0 mm
02:16 PM 59.7°F15.4°C 38.9°F3.8°C 46% 1.8 mph ESE2.9 kmh ESE 4.0 mph6.4 kmh 30.37 in1028.4 mb 0.00 in0.0 mm 0.00 in/hr0.0 mm/hr 0.00 in0.0 mm
02:15 PM 59.5°F15.3°C 38.2°F3.4°C 45% 1.9 mph ESE3.1 kmh ESE 4.0 mph6.4 kmh 30.36 in1028.1 mb 0.00 in0.0 mm 0.00 in/hr0.0 mm/hr 0.00 in0.0 mm
02:14 PM 59.5°F15.3°C 38.8°F3.8°C 46% 1.8 mph ESE2.9 kmh ESE 4.0 mph6.4 kmh 30.37 in1028.4 mb 0.00 in0.0 mm 0.00 in/hr0.0 mm/hr 0.00 in0.0 mm
02:13 PM 59.7°F15.4°C 38.9°F3.8°C 46% 1.8 mph ESE2.9 kmh ESE 4.0 mph6.4 kmh 30.37 in1028.4 mb 0.00 in0.0 mm 0.00 in/hr0.0 mm/hr 0.00 in0.0 mm
02:12 PM 59.7°F15.4°C 38.9°F3.8°C 46% 1.7 mph ESE2.7 kmh ESE 4.0 mph6.4 kmh 30.37 in1028.4 mb 0.00 in0.0 mm 0.00 in/hr0.0 mm/hr 0.00 in0.0 mm
02:11 PM 59.9°F15.5°C 38.5°F3.6°C 45% 1.7 mph NNW2.7 kmh NNW 4.0 mph6.4 kmh 30.38 in1028.8 mb 0.00 in0.0 mm 0.00 in/hr0.0 mm/hr 0.00 in0.0 mm
02:10 PM 60.1°F15.6°C 38.7°F3.7°C 45% 1.9 mph NNW3.1 kmh NNW 4.0 mph6.4 kmh 30.37 in1028.4 mb 0.00 in0.0 mm 0.00 in/hr0.0 mm/hr 0.00 in0.0 mm
02:09 PM 60.3°F15.7°C 38.8°F3.8°C 45% 2.1 mph NNW3.4 kmh NNW 4.0 mph6.4 kmh 30.37 in1028.4 mb 0.00 in0.0 mm 0.00 in/hr0.0 mm/hr 0.00 in0.0 mm
02:08 PM 59.7°F15.4°C 38.4°F3.6°C 45% 2.5 mph N4.0 kmh N 4.0 mph6.4 kmh 30.37 in1028.4 mb 0.00 in0.0 mm 0.00 in/hr0.0 mm/hr 0.00 in0.0 mm
02:07 PM 59.0°F15.0°C 37.1°F2.8°C 44% 2.6 mph N4.2 kmh N 4.0 mph6.4 kmh 30.38 in1028.8 mb 0.00 in0.0 mm 0.00 in/hr0.0 mm/hr 0.00 in0.0 mm
02:06 PM 59.5°F15.3°C 38.2°F3.4°C 45% 2.6 mph NNE4.2 kmh NNE 4.0 mph6.4 kmh 30.37 in1028.4 mb 0.00 in0.0 mm 0.00 in/hr0.0 mm/hr 0.00 in0.0 mm
02:05 PM 59.5°F15.3°C 38.2°F3.4°C 45% 2.6 mph NE4.2 kmh NE 4.0 mph6.4 kmh 30.38 in1028.8 mb 0.00 in0.0 mm 0.00 in/hr0.0 mm/hr 0.00 in0.0 mm
02:04 PM 59.2°F15.1°C 37.9°F3.3°C 45% 2.7 mph NNE4.3 kmh NNE 4.0 mph6.4 kmh 30.37 in1028.4 mb 0.00 in0.0 mm 0.00 in/hr0.0 mm/hr 0.00 in0.0 mm
02:03 PM 59.4°F15.2°C 38.6°F3.7°C 46% 2.8 mph NNE4.5 kmh NNE 4.0 mph6.4 kmh 30.38 in1028.8 mb 0.00 in0.0 mm 0.00 in/hr0.0 mm/hr 0.00 in0.0 mm
02:02 PM 59.5°F15.3°C 39.3°F4.1°C 47% 2.6 mph NE4.2 kmh NE 4.0 mph6.4 kmh 30.37 in1028.4 mb 0.00 in0.0 mm 0.00 in/hr0.0 mm/hr 0.00 in0.0 mm
02:01 PM 59.9°F15.5°C 40.2°F4.6°C 48% 2.5 mph NE4.0 kmh NE 4.0 mph6.4 kmh 30.38 in1028.8 mb 0.00 in0.0 mm 0.00 in/hr0.0 mm/hr 0.00 in0.0 mm
02:00 PM 60.1°F15.6°C 40.9°F4.9°C 49% 2.6 mph NE4.2 kmh NE 4.0 mph6.4 kmh 30.38 in1028.8 mb 0.00 in0.0 mm 0.00 in/hr0.0 mm/hr 0.00 in0.0 mm
01:59 PM 59.7°F15.4°C 40.5°F4.7°C 49% 2.5 mph ENE4.0 kmh ENE 4.0 mph6.4 kmh 30.37 in1028.4 mb 0.00 in0.0 mm 0.00 in/hr0.0 mm/hr 0.00 in0.0 mm
01:58 PM 59.7°F15.4°C 40.0°F4.4°C 48% 2.4 mph NE3.9 kmh NE 4.0 mph6.4 kmh 30.37 in1028.4 mb 0.00 in0.0 mm 0.00 in/hr0.0 mm/hr 0.00 in0.0 mm
01:57 PM 59.5°F15.3°C 39.3°F4.1°C 47% 2.2 mph NE3.5 kmh NE 4.0 mph6.4 kmh 30.37 in1028.4 mb 0.00 in0.0 mm 0.00 in/hr0.0 mm/hr 0.00 in0.0 mm
01:56 PM 59.9°F15.5°C 39.6°F4.2°C 47% 2.2 mph NE3.5 kmh NE 4.0 mph6.4 kmh 30.37 in1028.4 mb 0.00 in0.0 mm 0.00 in/hr0.0 mm/hr 0.00 in0.0 mm
01:55 PM 59.5°F15.3°C 39.3°F4.1°C 47% 2.1 mph NNE3.4 kmh NNE 3.2 mph5.1 kmh 30.38 in1028.8 mb 0.00 in0.0 mm 0.00 in/hr0.0 mm/hr 0.00 in0.0 mm
01:54 PM 59.5°F15.3°C 39.3°F4.1°C 47% 2.1 mph NNE3.4 kmh NNE 3.2 mph5.1 kmh 30.37 in1028.4 mb 0.00 in0.0 mm 0.00 in/hr0.0 mm/hr 0.00 in0.0 mm
01:53 PM 59.4°F15.2°C 38.6°F3.7°C 46% 2.1 mph NNE3.4 kmh NNE 3.2 mph5.1 kmh 30.38 in1028.8 mb 0.00 in0.0 mm 0.00 in/hr0.0 mm/hr 0.00 in0.0 mm
01:52 PM 59.2°F15.1°C 38.4°F3.6°C 46% 2.3 mph N3.7 kmh N 4.0 mph6.4 kmh 30.37 in1028.4 mb 0.00 in0.0 mm 0.00 in/hr0.0 mm/hr 0.00 in0.0 mm
01:51 PM 59.9°F15.5°C 39.6°F4.2°C 47% 2.6 mph N4.2 kmh N 4.0 mph6.4 kmh 30.37 in1028.4 mb 0.00 in0.0 mm 0.00 in/hr0.0 mm/hr 0.00 in0.0 mm
01:50 PM 59.9°F15.5°C 39.6°F4.2°C 47% 2.6 mph NNE4.2 kmh NNE 4.0 mph6.4 kmh 30.37 in1028.4 mb 0.00 in0.0 mm 0.00 in/hr0.0 mm/hr 0.00 in0.0 mm
01:49 PM 60.8°F16.0°C 41.0°F5.0°C 48% 2.6 mph NNE4.2 kmh NNE 4.0 mph6.4 kmh 30.37 in1028.4 mb 0.00 in0.0 mm 0.00 in/hr0.0 mm/hr 0.00 in0.0 mm
01:48 PM 61.0°F16.1°C 41.7°F5.4°C 49% 2.6 mph NE4.2 kmh NE 4.0 mph6.4 kmh 30.36 in1028.1 mb 0.00 in0.0 mm 0.00 in/hr0.0 mm/hr 0.00 in0.0 mm
01:47 PM 60.1°F15.6°C 41.4°F5.2°C 50% 2.7 mph NE4.3 kmh NE 4.0 mph6.4 kmh 30.37 in1028.4 mb 0.00 in0.0 mm 0.00 in/hr0.0 mm/hr 0.00 in0.0 mm
01:46 PM 59.5°F15.3°C 40.9°F4.9°C 50% 2.6 mph NE4.2 kmh NE 4.0 mph6.4 kmh 30.37 in1028.4 mb 0.00 in0.0 mm 0.00 in/hr0.0 mm/hr 0.00 in0.0 mm
01:45 PM 59.5°F15.3°C 40.9°F4.9°C 50% 2.6 mph ENE4.2 kmh ENE 4.0 mph6.4 kmh 30.36 in1028.1 mb 0.00 in0.0 mm 0.00 in/hr0.0 mm/hr 0.00 in0.0 mm
01:44 PM 59.5°F15.3°C 40.4°F4.7°C 49% 2.7 mph E4.3 kmh E 4.8 mph7.7 kmh 30.37 in1028.4 mb 0.00 in0.0 mm 0.00 in/hr0.0 mm/hr 0.00 in0.0 mm
01:43 PM 59.7°F15.4°C 40.5°F4.7°C 49% 3.0 mph SE4.8 kmh SE 4.8 mph7.7 kmh 30.37 in1028.4 mb 0.00 in0.0 mm 0.00 in/hr0.0 mm/hr 0.00 in0.0 mm
01:42 PM 59.7°F15.4°C 40.5°F4.7°C 49% 3.0 mph SE4.8 kmh SE 4.8 mph7.7 kmh 30.37 in1028.4 mb 0.00 in0.0 mm 0.00 in/hr0.0 mm/hr 0.00 in0.0 mm
01:41 PM 59.0°F15.0°C 39.4°F4.1°C 48% 2.9 mph SE4.7 kmh SE 4.8 mph7.7 kmh 30.37 in1028.4 mb 0.00 in0.0 mm 0.00 in/hr0.0 mm/hr 0.00 in0.0 mm
01:40 PM 59.0°F15.0°C 38.8°F3.8°C 47% 3.0 mph SE4.8 kmh SE 4.8 mph7.7 kmh 30.37 in1028.4 mb 0.00 in0.0 mm 0.00 in/hr0.0 mm/hr 0.00 in0.0 mm
01:39 PM 58.3°F14.6°C 38.7°F3.7°C 48% 3.2 mph SE5.1 kmh SE 4.8 mph7.7 kmh 30.37 in1028.4 mb 0.00 in0.0 mm 0.00 in/hr0.0 mm/hr 0.00 in0.0 mm
01:38 PM 59.0°F15.0°C 38.8°F3.8°C 47% 3.4 mph ESE5.5 kmh ESE 4.8 mph7.7 kmh 30.37 in1028.4 mb 0.00 in0.0 mm 0.00 in/hr0.0 mm/hr 0.00 in0.0 mm
01:37 PM 58.3°F14.6°C 38.7°F3.7°C 48% 3.6 mph ESE5.8 kmh ESE 4.8 mph7.7 kmh 30.37 in1028.4 mb 0.00 in0.0 mm 0.00 in/hr0.0 mm/hr 0.00 in0.0 mm
01:36 PM 57.6°F14.2°C 38.0°F3.3°C 48% 3.7 mph ESE6.0 kmh ESE 4.8 mph7.7 kmh 30.37 in1028.4 mb 0.00 in0.0 mm 0.00 in/hr0.0 mm/hr 0.00 in0.0 mm
01:35 PM 57.6°F14.2°C 38.0°F3.3°C 48% 3.6 mph E5.8 kmh E 4.8 mph7.7 kmh 30.37 in1028.4 mb 0.00 in0.0 mm 0.00 in/hr0.0 mm/hr 0.00 in0.0 mm
01:34 PM 57.9°F14.4°C 38.9°F3.8°C 49% 3.6 mph E5.8 kmh E 4.8 mph7.7 kmh 30.37 in1028.4 mb 0.00 in0.0 mm 0.00 in/hr0.0 mm/hr 0.00 in0.0 mm
01:33 PM 58.5°F14.7°C 39.9°F4.4°C 50% 3.7 mph E6.0 kmh E 5.6 mph9.0 kmh 30.37 in1028.4 mb 0.00 in0.0 mm 0.00 in/hr0.0 mm/hr 0.00 in0.0 mm
01:32 PM 58.8°F14.9°C 40.7°F4.8°C 51% 3.6 mph ESE5.8 kmh ESE 5.6 mph9.0 kmh 30.38 in1028.8 mb 0.00 in0.0 mm 0.00 in/hr0.0 mm/hr 0.00 in0.0 mm
01:31 PM 59.0°F15.0°C 40.4°F4.7°C 50% 3.5 mph ESE5.6 kmh ESE 5.6 mph9.0 kmh 30.37 in1028.4 mb 0.00 in0.0 mm 0.00 in/hr0.0 mm/hr 0.00 in0.0 mm
01:30 PM 59.0°F15.0°C 40.4°F4.7°C 50% 3.3 mph SE5.3 kmh SE 5.6 mph9.0 kmh 30.37 in1028.4 mb 0.00 in0.0 mm 0.00 in/hr0.0 mm/hr 0.00 in0.0 mm
01:29 PM 58.3°F14.6°C 40.2°F4.6°C 51% 3.2 mph SE5.1 kmh SE 5.6 mph9.0 kmh 30.37 in1028.4 mb 0.00 in0.0 mm 0.00 in/hr0.0 mm/hr 0.00 in0.0 mm
01:28 PM 58.6°F14.8°C 40.6°F4.8°C 51% 3.1 mph SSE5.0 kmh SSE 5.6 mph9.0 kmh 30.37 in1028.4 mb 0.00 in0.0 mm 0.00 in/hr0.0 mm/hr 0.00 in0.0 mm
01:27 PM 59.5°F15.3°C 40.9°F4.9°C 50% 3.2 mph S5.1 kmh S 5.6 mph9.0 kmh 30.37 in1028.4 mb 0.00 in0.0 mm 0.00 in/hr0.0 mm/hr 0.00 in0.0 mm
01:26 PM 59.4°F15.2°C 40.7°F4.8°C 50% 3.2 mph S5.1 kmh S 5.6 mph9.0 kmh 30.37 in1028.4 mb 0.00 in0.0 mm 0.00 in/hr0.0 mm/hr 0.00 in0.0 mm
01:25 PM 58.3°F14.6°C 40.2°F4.6°C 51% 3.4 mph S5.5 kmh S 5.6 mph9.0 kmh 30.37 in1028.4 mb 0.00 in0.0 mm 0.00 in/hr0.0 mm/hr 0.00 in0.0 mm
01:24 PM 58.8°F14.9°C 40.7°F4.8°C 51% 3.3 mph SSE5.3 kmh SSE 5.6 mph9.0 kmh 30.36 in1028.1 mb 0.00 in0.0 mm 0.00 in/hr0.0 mm/hr 0.00 in0.0 mm
01:23 PM 58.5°F14.7°C 40.4°F4.7°C 51% 3.1 mph SE5.0 kmh SE 4.8 mph7.7 kmh 30.37 in1028.4 mb 0.00 in0.0 mm 0.00 in/hr0.0 mm/hr 0.00 in0.0 mm
01:22 PM 58.3°F14.6°C 39.7°F4.3°C 50% 3.2 mph SE5.1 kmh SE 4.8 mph7.7 kmh 30.37 in1028.4 mb 0.00 in0.0 mm 0.00 in/hr0.0 mm/hr 0.00 in0.0 mm
01:21 PM 58.8°F14.9°C 40.2°F4.6°C 50% 3.2 mph ESE5.1 kmh ESE 4.8 mph7.7 kmh 30.37 in1028.4 mb 0.00 in0.0 mm 0.00 in/hr0.0 mm/hr 0.00 in0.0 mm
01:20 PM 58.3°F14.6°C 39.2°F4.0°C 49% 3.4 mph E5.5 kmh E 4.8 mph7.7 kmh 30.37 in1028.4 mb 0.00 in0.0 mm 0.00 in/hr0.0 mm/hr 0.00 in0.0 mm
01:19 PM 57.9°F14.4°C 38.9°F3.8°C 49% 3.4 mph E5.5 kmh E 4.8 mph7.7 kmh 30.37 in1028.4 mb 0.00 in0.0 mm 0.00 in/hr0.0 mm/hr 0.00 in0.0 mm
01:18 PM 57.9°F14.4°C 39.4°F4.1°C 50% 3.4 mph E5.5 kmh E 4.8 mph7.7 kmh 30.37 in1028.4 mb 0.00 in0.0 mm 0.00 in/hr0.0 mm/hr 0.00 in0.0 mm
01:17 PM 57.7°F14.3°C 38.7°F3.7°C 49% 3.2 mph ENE5.1 kmh ENE 4.0 mph6.4 kmh 30.38 in1028.8 mb 0.00 in0.0 mm 0.00 in/hr0.0 mm/hr 0.00 in0.0 mm
01:16 PM 58.5°F14.7°C 39.9°F4.4°C 50% 3.2 mph ENE5.1 kmh ENE 4.0 mph6.4 kmh 30.37 in1028.4 mb 0.00 in0.0 mm 0.00 in/hr0.0 mm/hr 0.00 in0.0 mm
01:15 PM 58.8°F14.9°C 40.2°F4.6°C 50% 3.1 mph ENE5.0 kmh ENE 4.0 mph6.4 kmh 30.37 in1028.4 mb 0.00 in0.0 mm 0.00 in/hr0.0 mm/hr 0.00 in0.0 mm
01:14 PM 59.0°F15.0°C 39.9°F4.4°C 49% 3.1 mph ENE5.0 kmh ENE 4.0 mph6.4 kmh 30.37 in1028.4 mb 0.00 in0.0 mm 0.00 in/hr0.0 mm/hr 0.00 in0.0 mm
01:13 PM 59.2°F15.1°C 40.0°F4.4°C 49% 3.1 mph E5.0 kmh E 4.0 mph6.4 kmh 30.37 in1028.4 mb 0.00 in0.0 mm 0.00 in/hr0.0 mm/hr 0.00 in0.0 mm
01:12 PM 59.0°F15.0°C 39.9°F4.4°C 49% 3.1 mph E5.0 kmh E 4.0 mph6.4 kmh 30.37 in1028.4 mb 0.00 in0.0 mm 0.00 in/hr0.0 mm/hr 0.00 in0.0 mm
01:11 PM 58.6°F14.8°C 39.5°F4.2°C 49% 2.9 mph ENE4.7 kmh ENE 4.0 mph6.4 kmh 30.37 in1028.4 mb 0.00 in0.0 mm 0.00 in/hr0.0 mm/hr 0.00 in0.0 mm
01:10 PM 58.3°F14.6°C 39.2°F4.0°C 49% 2.8 mph ENE4.5 kmh ENE 4.0 mph6.4 kmh 30.37 in1028.4 mb 0.00 in0.0 mm 0.00 in/hr0.0 mm/hr 0.00 in0.0 mm
01:09 PM 57.9°F14.4°C 38.9°F3.8°C 49% 2.8 mph ENE4.5 kmh ENE 4.0 mph6.4 kmh 30.38 in1028.8 mb 0.00 in0.0 mm 0.00 in/hr0.0 mm/hr 0.00 in0.0 mm
01:08 PM 57.7°F14.3°C 38.7°F3.7°C 49% 2.7 mph NE4.3 kmh NE 4.0 mph6.4 kmh 30.37 in1028.4 mb 0.00 in0.0 mm 0.00 in/hr0.0 mm/hr 0.00 in0.0 mm
01:07 PM 57.2°F14.0°C 38.2°F3.4°C 49% 2.8 mph NE4.5 kmh NE 4.0 mph6.4 kmh 30.37 in1028.4 mb 0.00 in0.0 mm 0.00 in/hr0.0 mm/hr 0.00 in0.0 mm
01:06 PM 58.1°F14.5°C 39.6°F4.2°C 50% 2.7 mph NE4.3 kmh NE 4.0 mph6.4 kmh 30.37 in1028.4 mb 0.00 in0.0 mm 0.00 in/hr0.0 mm/hr 0.00 in0.0 mm
01:05 PM 58.6°F14.8°C 40.6°F4.8°C 51% 2.8 mph NE4.5 kmh NE 3.2 mph5.1 kmh 30.37 in1028.4 mb 0.00 in0.0 mm 0.00 in/hr0.0 mm/hr 0.00 in0.0 mm
01:04 PM 59.2°F15.1°C 40.6°F4.8°C 50% 2.7 mph NE4.3 kmh NE 3.2 mph5.1 kmh 30.38 in1028.8 mb 0.00 in0.0 mm 0.00 in/hr0.0 mm/hr 0.00 in0.0 mm
01:03 PM 58.6°F14.8°C 40.6°F4.8°C 51% 2.7 mph ENE4.3 kmh ENE 3.2 mph5.1 kmh 30.37 in1028.4 mb 0.00 in0.0 mm 0.00 in/hr0.0 mm/hr 0.00 in0.0 mm
01:02 PM 58.1°F14.5°C 40.1°F4.5°C 51% 2.7 mph E4.3 kmh E 4.0 mph6.4 kmh 30.38 in1028.8 mb 0.00 in0.0 mm 0.00 in/hr0.0 mm/hr 0.00 in0.0 mm
01:01 PM 58.3°F14.6°C 40.2°F4.6°C 51% 2.9 mph ESE4.7 kmh ESE 4.0 mph6.4 kmh 30.37 in1028.4 mb 0.00 in0.0 mm 0.00 in/hr0.0 mm/hr 0.00 in0.0 mm
01:00 PM 58.5°F14.7°C 40.9°F4.9°C 52% 2.9 mph ESE4.7 kmh ESE 4.0 mph6.4 kmh 30.37 in1028.4 mb 0.00 in0.0 mm 0.00 in/hr0.0 mm/hr 0.00 in0.0 mm
12:59 PM 57.9°F14.4°C 39.9°F4.4°C 51% 2.9 mph ESE4.7 kmh ESE 4.0 mph6.4 kmh 30.37 in1028.4 mb 0.00 in0.0 mm 0.00 in/hr0.0 mm/hr 0.00 in0.0 mm
12:58 PM 57.6°F14.2°C 39.6°F4.2°C 51% 3.0 mph ESE4.8 kmh ESE 4.0 mph6.4 kmh 30.37 in1028.4 mb 0.00 in0.0 mm 0.00 in/hr0.0 mm/hr 0.00 in0.0 mm
12:57 PM 57.6°F14.2°C 39.6°F4.2°C 51% 3.0 mph ESE4.8 kmh ESE 4.0 mph6.4 kmh 30.37 in1028.4 mb 0.00 in0.0 mm 0.00 in/hr0.0 mm/hr 0.00 in0.0 mm
12:56 PM 57.6°F14.2°C 39.6°F4.2°C 51% 3.0 mph ENE4.8 kmh ENE 4.0 mph6.4 kmh 30.37 in1028.4 mb 0.00 in0.0 mm 0.00 in/hr0.0 mm/hr 0.00 in0.0 mm
12:55 PM 58.1°F14.5°C 40.6°F4.8°C 52% 2.9 mph NE4.7 kmh NE 4.0 mph6.4 kmh 30.37 in1028.4 mb 0.00 in0.0 mm 0.00 in/hr0.0 mm/hr 0.00 in0.0 mm
12:54 PM 57.9°F14.4°C 40.4°F4.7°C 52% 2.9 mph NNE4.7 kmh NNE 4.0 mph6.4 kmh 30.38 in1028.8 mb 0.00 in0.0 mm 0.00 in/hr0.0 mm/hr 0.00 in0.0 mm
12:53 PM 57.2°F14.0°C 39.2°F4.0°C 51% 2.9 mph N4.7 kmh N 4.0 mph6.4 kmh 30.37 in1028.4 mb 0.00 in0.0 mm 0.00 in/hr0.0 mm/hr 0.00 in0.0 mm
12:52 PM 57.7°F14.3°C 39.7°F4.3°C 51% 2.8 mph N4.5 kmh N 4.0 mph6.4 kmh 30.37 in1028.4 mb 0.00 in0.0 mm 0.00 in/hr0.0 mm/hr 0.00 in0.0 mm
12:51 PM 57.0°F13.9°C 39.6°F4.2°C 52% 2.7 mph N4.3 kmh N 3.2 mph5.1 kmh 30.37 in1028.4 mb 0.00 in0.0 mm 0.00 in/hr0.0 mm/hr 0.00 in0.0 mm
12:50 PM 56.5°F13.6°C 39.1°F3.9°C 52% 2.9 mph N4.7 kmh N 4.0 mph6.4 kmh 30.37 in1028.4 mb 0.00 in0.0 mm 0.00 in/hr0.0 mm/hr 0.00 in0.0 mm
12:49 PM 56.8°F13.8°C 39.4°F4.1°C 52% 2.6 mph N4.2 kmh N 4.0 mph6.4 kmh 30.37 in1028.4 mb 0.00 in0.0 mm 0.00 in/hr0.0 mm/hr 0.00 in0.0 mm
12:48 PM 56.8°F13.8°C 39.4°F4.1°C 52% 2.5 mph N4.0 kmh N 4.0 mph6.4 kmh 30.37 in1028.4 mb 0.00 in0.0 mm 0.00 in/hr0.0 mm/hr 0.00 in0.0 mm
12:47 PM 57.0°F13.9°C 39.1°F3.9°C 51% 2.5 mph N4.0 kmh N 4.0 mph6.4 kmh 30.37 in1028.4 mb 0.00 in0.0 mm 0.00 in/hr0.0 mm/hr 0.00 in0.0 mm
12:46 PM 57.2°F14.0°C 39.2°F4.0°C 51% 2.6 mph N4.2 kmh N 4.8 mph7.7 kmh 30.37 in1028.4 mb 0.00 in0.0 mm 0.00 in/hr0.0 mm/hr 0.00 in0.0 mm
12:45 PM 57.6°F14.2°C 39.6°F4.2°C 51% 2.8 mph NE4.5 kmh NE 4.8 mph7.7 kmh 30.37 in1028.4 mb 0.00 in0.0 mm 0.00 in/hr0.0 mm/hr 0.00 in0.0 mm
12:44 PM 57.6°F14.2°C 39.6°F4.2°C 51% 3.0 mph NE4.8 kmh NE 4.8 mph7.7 kmh 30.37 in1028.4 mb 0.00 in0.0 mm 0.00 in/hr0.0 mm/hr 0.00 in0.0 mm
12:43 PM 57.6°F14.2°C 40.1°F4.5°C 52% 3.0 mph ENE4.8 kmh ENE 4.8 mph7.7 kmh 30.37 in1028.4 mb 0.00 in0.0 mm 0.00 in/hr0.0 mm/hr 0.00 in0.0 mm
12:42 PM 57.2°F14.0°C 39.2°F4.0°C 51% 3.2 mph ENE5.1 kmh ENE 4.8 mph7.7 kmh 30.37 in1028.4 mb 0.00 in0.0 mm 0.00 in/hr0.0 mm/hr 0.00 in0.0 mm
12:41 PM 57.6°F14.2°C 39.6°F4.2°C 51% 3.1 mph ENE5.0 kmh ENE 4.8 mph7.7 kmh 30.37 in1028.4 mb 0.00 in0.0 mm 0.00 in/hr0.0 mm/hr 0.00 in0.0 mm
12:40 PM 57.4°F14.1°C 39.4°F4.1°C 51% 3.1 mph ENE5.0 kmh ENE 4.8 mph7.7 kmh 30.37 in1028.4 mb 0.00 in0.0 mm 0.00 in/hr0.0 mm/hr 0.00 in0.0 mm
12:39 PM 57.2°F14.0°C 39.7°F4.3°C 52% 3.2 mph ENE5.1 kmh ENE 4.8 mph7.7 kmh 30.37 in1028.4 mb 0.00 in0.0 mm 0.00 in/hr0.0 mm/hr 0.00 in0.0 mm
12:38 PM 55.9°F13.3°C 38.6°F3.7°C 52% 3.2 mph E5.1 kmh E 4.8 mph7.7 kmh 30.37 in1028.4 mb 0.00 in0.0 mm 0.00 in/hr0.0 mm/hr 0.00 in0.0 mm
12:37 PM 55.8°F13.2°C 38.4°F3.6°C 52% 3.1 mph E5.0 kmh E 4.8 mph7.7 kmh 30.37 in1028.4 mb 0.00 in0.0 mm 0.00 in/hr0.0 mm/hr 0.00 in0.0 mm
12:36 PM 55.9°F13.3°C 38.6°F3.7°C 52% 2.9 mph E4.7 kmh E 4.8 mph7.7 kmh 30.37 in1028.4 mb 0.00 in0.0 mm 0.00 in/hr0.0 mm/hr 0.00 in0.0 mm
12:35 PM 56.5°F13.6°C 39.1°F3.9°C 52% 2.7 mph E4.3 kmh E 4.0 mph6.4 kmh 30.37 in1028.4 mb 0.00 in0.0 mm 0.00 in/hr0.0 mm/hr 0.00 in0.0 mm
12:34 PM 57.2°F14.0°C 39.2°F4.0°C 51% 2.6 mph E4.2 kmh E 4.0 mph6.4 kmh 30.37 in1028.4 mb 0.00 in0.0 mm 0.00 in/hr0.0 mm/hr 0.00 in0.0 mm
12:33 PM 58.1°F14.5°C 40.1°F4.5°C 51% 2.4 mph ENE3.9 kmh ENE 4.0 mph6.4 kmh 30.37 in1028.4 mb 0.00 in0.0 mm 0.00 in/hr0.0 mm/hr 0.00 in0.0 mm
12:32 PM 57.6°F14.2°C 39.6°F4.2°C 51% 2.5 mph NE4.0 kmh NE 4.8 mph7.7 kmh 30.37 in1028.4 mb 0.00 in0.0 mm 0.00 in/hr0.0 mm/hr 0.00 in0.0 mm
12:31 PM 57.6°F14.2°C 39.6°F4.2°C 51% 2.6 mph NE4.2 kmh NE 4.8 mph7.7 kmh 30.37 in1028.4 mb 0.00 in0.0 mm 0.00 in/hr0.0 mm/hr 0.00 in0.0 mm
12:30 PM 57.2°F14.0°C 39.2°F4.0°C 51% 2.7 mph ENE4.3 kmh ENE 4.8 mph7.7 kmh 30.37 in1028.4 mb 0.00 in0.0 mm 0.00 in/hr0.0 mm/hr 0.00 in0.0 mm
12:29 PM 56.5°F13.6°C 38.6°F3.7°C 51% 2.7 mph ENE4.3 kmh ENE 4.8 mph7.7 kmh 30.37 in1028.4 mb 0.00 in0.0 mm 0.00 in/hr0.0 mm/hr 0.00 in0.0 mm
12:28 PM 56.3°F13.5°C 38.9°F3.8°C 52% 2.6 mph NE4.2 kmh NE 4.8 mph7.7 kmh 30.37 in1028.4 mb 0.00 in0.0 mm 0.00 in/hr0.0 mm/hr 0.00 in0.0 mm
12:27 PM 57.2°F14.0°C 39.2°F4.0°C 51% 2.8 mph NE4.5 kmh NE 4.8 mph7.7 kmh 30.37 in1028.4 mb 0.00 in0.0 mm 0.00 in/hr0.0 mm/hr 0.00 in0.0 mm
12:26 PM 57.0°F13.9°C 39.6°F4.2°C 52% 3.0 mph NE4.8 kmh NE 4.8 mph7.7 kmh 30.38 in1028.8 mb 0.00 in0.0 mm 0.00 in/hr0.0 mm/hr 0.00 in0.0 mm
12:25 PM 58.1°F14.5°C 40.1°F4.5°C 51% 3.0 mph NE4.8 kmh NE 4.8 mph7.7 kmh 30.37 in1028.4 mb 0.00 in0.0 mm 0.00 in/hr0.0 mm/hr 0.00 in0.0 mm
12:24 PM 57.9°F14.4°C 40.4°F4.7°C 52% 2.8 mph NNE4.5 kmh NNE 4.8 mph7.7 kmh 30.37 in1028.4 mb 0.00 in0.0 mm 0.00 in/hr0.0 mm/hr 0.00 in0.0 mm
12:23 PM 57.9°F14.4°C 40.4°F4.7°C 52% 3.1 mph NNE5.0 kmh NNE 4.8 mph7.7 kmh 30.37 in1028.4 mb 0.00 in0.0 mm 0.00 in/hr0.0 mm/hr 0.00 in0.0 mm
12:22 PM 57.7°F14.3°C 40.7°F4.8°C 53% 3.1 mph NNE5.0 kmh NNE 4.8 mph7.7 kmh 30.37 in1028.4 mb 0.00 in0.0 mm 0.00 in/hr0.0 mm/hr 0.00 in0.0 mm
12:21 PM 57.7°F14.3°C 40.2°F4.6°C 52% 3.0 mph NNE4.8 kmh NNE 4.0 mph6.4 kmh 30.37 in1028.4 mb 0.00 in0.0 mm 0.00 in/hr0.0 mm/hr 0.00 in0.0 mm
12:20 PM 57.6°F14.2°C 40.1°F4.5°C 52% 2.9 mph NNE4.7 kmh NNE 4.0 mph6.4 kmh 30.36 in1028.1 mb 0.00 in0.0 mm 0.00 in/hr0.0 mm/hr 0.00 in0.0 mm
12:19 PM 57.0°F13.9°C 40.1°F4.5°C 53% 3.0 mph NNE4.8 kmh NNE 4.0 mph6.4 kmh 30.37 in1028.4 mb 0.00 in0.0 mm 0.00 in/hr0.0 mm/hr 0.00 in0.0 mm
12:18 PM 56.8°F13.8°C 39.9°F4.4°C 53% 3.3 mph NE5.3 kmh NE 4.8 mph7.7 kmh 30.37 in1028.4 mb 0.00 in0.0 mm 0.00 in/hr0.0 mm/hr 0.00 in0.0 mm
12:17 PM 56.3°F13.5°C 38.9°F3.8°C 52% 3.1 mph NE5.0 kmh NE 4.8 mph7.7 kmh 30.37 in1028.4 mb 0.00 in0.0 mm 0.00 in/hr0.0 mm/hr 0.00 in0.0 mm
12:16 PM 57.2°F14.0°C 39.7°F4.3°C 52% 2.8 mph NE4.5 kmh NE 4.8 mph7.7 kmh 30.37 in1028.4 mb 0.00 in0.0 mm 0.00 in/hr0.0 mm/hr 0.00 in0.0 mm
12:15 PM 57.0°F13.9°C 40.1°F4.5°C 53% 2.7 mph NE4.3 kmh NE 4.8 mph7.7 kmh 30.37 in1028.4 mb 0.00 in0.0 mm 0.00 in/hr0.0 mm/hr 0.00 in0.0 mm
12:14 PM 57.2°F14.0°C 39.7°F4.3°C 52% 2.8 mph NE4.5 kmh NE 4.8 mph7.7 kmh 30.37 in1028.4 mb 0.00 in0.0 mm 0.00 in/hr0.0 mm/hr 0.00 in0.0 mm
12:13 PM 57.4°F14.1°C 39.9°F4.4°C 52% 2.7 mph NE4.3 kmh NE 4.8 mph7.7 kmh 30.37 in1028.4 mb 0.00 in0.0 mm 0.00 in/hr0.0 mm/hr 0.00 in0.0 mm
12:12 PM 56.7°F13.7°C 39.7°F4.3°C 53% 2.7 mph NE4.3 kmh NE 4.8 mph7.7 kmh 30.37 in1028.4 mb 0.00 in0.0 mm 0.00 in/hr0.0 mm/hr 0.00 in0.0 mm
12:11 PM 56.3°F13.5°C 39.4°F4.1°C 53% 2.7 mph NE4.3 kmh NE 4.8 mph7.7 kmh 30.36 in1028.1 mb 0.00 in0.0 mm 0.00 in/hr0.0 mm/hr 0.00 in0.0 mm
12:10 PM 55.8°F13.2°C 38.4°F3.6°C 52% 2.8 mph NE4.5 kmh NE 4.8 mph7.7 kmh 30.37 in1028.4 mb 0.00 in0.0 mm 0.00 in/hr0.0 mm/hr 0.00 in0.0 mm
12:09 PM 57.6°F14.2°C 40.6°F4.8°C 53% 2.8 mph NE4.5 kmh NE 4.8 mph7.7 kmh 30.37 in1028.4 mb 0.00 in0.0 mm 0.00 in/hr0.0 mm/hr 0.00 in0.0 mm
12:08 PM 57.4°F14.1°C 40.4°F4.7°C 53% 2.7 mph NNE4.3 kmh NNE 4.0 mph6.4 kmh 30.37 in1028.4 mb 0.00 in0.0 mm 0.00 in/hr0.0 mm/hr 0.00 in0.0 mm
12:07 PM 56.8°F13.8°C 39.9°F4.4°C 53% 2.9 mph N4.7 kmh N 4.0 mph6.4 kmh 30.37 in1028.4 mb 0.00 in0.0 mm 0.00 in/hr0.0 mm/hr 0.00 in0.0 mm
12:06 PM 56.8°F13.8°C 39.9°F4.4°C 53% 3.1 mph NNE5.0 kmh NNE 4.0 mph6.4 kmh 30.37 in1028.4 mb 0.00 in0.0 mm 0.00 in/hr0.0 mm/hr 0.00 in0.0 mm
12:05 PM 56.3°F13.5°C 38.9°F3.8°C 52% 3.3 mph NE5.3 kmh NE 4.8 mph7.7 kmh 30.37 in1028.4 mb 0.00 in0.0 mm 0.00 in/hr0.0 mm/hr 0.00 in0.0 mm
12:04 PM 56.3°F13.5°C 38.9°F3.8°C 52% 3.4 mph NE5.5 kmh NE 4.8 mph7.7 kmh 30.37 in1028.4 mb 0.00 in0.0 mm 0.00 in/hr0.0 mm/hr 0.00 in0.0 mm
12:03 PM 56.7°F13.7°C 39.7°F4.3°C 53% 3.4 mph NE5.5 kmh NE 4.8 mph7.7 kmh 30.36 in1028.1 mb 0.00 in0.0 mm 0.00 in/hr0.0 mm/hr 0.00 in0.0 mm
12:02 PM 56.3°F13.5°C 39.4°F4.1°C 53% 3.4 mph NE5.5 kmh NE 4.8 mph7.7 kmh 30.37 in1028.4 mb 0.00 in0.0 mm 0.00 in/hr0.0 mm/hr 0.00 in0.0 mm
12:01 PM 56.3°F13.5°C 39.4°F4.1°C 53% 3.4 mph NE5.5 kmh NE 4.8 mph7.7 kmh 30.37 in1028.4 mb 0.00 in0.0 mm 0.00 in/hr0.0 mm/hr 0.00 in0.0 mm
12:00 PM 55.9°F13.3°C 39.1°F3.9°C 53% 3.5 mph NNE5.6 kmh NNE 4.8 mph7.7 kmh 30.36 in1028.1 mb 0.00 in0.0 mm 0.00 in/hr0.0 mm/hr 0.00 in0.0 mm
11:59 AM 55.9°F13.3°C 38.6°F3.7°C 52% 3.7 mph NE6.0 kmh NE 4.8 mph7.7 kmh 30.37 in1028.4 mb 0.00 in0.0 mm 0.00 in/hr0.0 mm/hr 0.00 in0.0 mm
11:58 AM 55.8°F13.2°C 38.4°F3.6°C 52% 3.7 mph NE6.0 kmh NE 4.8 mph7.7 kmh 30.36 in1028.1 mb 0.00 in0.0 mm 0.00 in/hr0.0 mm/hr 0.00 in0.0 mm
11:57 AM 55.4°F13.0°C 38.1°F3.4°C 52% 3.6 mph ENE5.8 kmh ENE 4.8 mph7.7 kmh 30.37 in1028.4 mb 0.00 in0.0 mm 0.00 in/hr0.0 mm/hr 0.00 in0.0 mm
11:56 AM 55.8°F13.2°C 38.4°F3.6°C 52% 3.6 mph ENE5.8 kmh ENE 4.8 mph7.7 kmh 30.37 in1028.4 mb 0.00 in0.0 mm 0.00 in/hr0.0 mm/hr 0.00 in0.0 mm
11:55 AM 55.9°F13.3°C 39.1°F3.9°C 53% 3.5 mph NE5.6 kmh NE 4.8 mph7.7 kmh 30.37 in1028.4 mb 0.00 in0.0 mm 0.00 in/hr0.0 mm/hr 0.00 in0.0 mm
11:54 AM 56.7°F13.7°C 39.7°F4.3°C 53% 3.4 mph NE5.5 kmh NE 4.8 mph7.7 kmh 30.37 in1028.4 mb 0.00 in0.0 mm 0.00 in/hr0.0 mm/hr 0.00 in0.0 mm
11:53 AM 55.9°F13.3°C 39.1°F3.9°C 53% 3.5 mph ENE5.6 kmh ENE 4.8 mph7.7 kmh 30.37 in1028.4 mb 0.00 in0.0 mm 0.00 in/hr0.0 mm/hr 0.00 in0.0 mm
11:52 AM 55.6°F13.1°C 38.2°F3.4°C 52% 3.5 mph E5.6 kmh E 4.8 mph7.7 kmh 30.37 in1028.4 mb 0.00 in0.0 mm 0.00 in/hr0.0 mm/hr 0.00 in0.0 mm
11:51 AM 55.6°F13.1°C 38.7°F3.7°C 53% 3.6 mph E5.8 kmh E 4.8 mph7.7 kmh 30.37 in1028.4 mb 0.00 in0.0 mm 0.00 in/hr0.0 mm/hr 0.00 in0.0 mm
11:50 AM 55.4°F13.0°C 38.6°F3.7°C 53% 3.6 mph E5.8 kmh E 4.8 mph7.7 kmh 30.37 in1028.4 mb 0.00 in0.0 mm 0.00 in/hr0.0 mm/hr 0.00 in0.0 mm
11:49 AM 55.6°F13.1°C 38.7°F3.7°C 53% 3.4 mph ENE5.5 kmh ENE 4.0 mph6.4 kmh 30.37 in1028.4 mb 0.00 in0.0 mm 0.00 in/hr0.0 mm/hr 0.00 in0.0 mm
11:48 AM 55.9°F13.3°C 39.1°F3.9°C 53% 3.4 mph ENE5.5 kmh ENE 4.0 mph6.4 kmh 30.37 in1028.4 mb 0.00 in0.0 mm 0.00 in/hr0.0 mm/hr 0.00 in0.0 mm
11:47 AM 56.1°F13.4°C 39.2°F4.0°C 53% 3.4 mph NE5.5 kmh NE 4.0 mph6.4 kmh 30.37 in1028.4 mb 0.00 in0.0 mm 0.00 in/hr0.0 mm/hr 0.00 in0.0 mm
11:46 AM 56.1°F13.4°C 39.2°F4.0°C 53% 3.4 mph ENE5.5 kmh ENE 4.0 mph6.4 kmh 30.37 in1028.4 mb 0.00 in0.0 mm 0.00 in/hr0.0 mm/hr 0.00 in0.0 mm
11:45 AM 55.4°F13.0°C 38.6°F3.7°C 53% 3.5 mph ENE5.6 kmh ENE 4.0 mph6.4 kmh 30.36 in1028.1 mb 0.00 in0.0 mm 0.00 in/hr0.0 mm/hr 0.00 in0.0 mm
11:44 AM 55.4°F13.0°C 39.0°F3.9°C 54% 3.5 mph ENE5.6 kmh ENE 4.0 mph6.4 kmh 30.37 in1028.4 mb 0.00 in0.0 mm 0.00 in/hr0.0 mm/hr 0.00 in0.0 mm
11:43 AM 55.4°F13.0°C 39.0°F3.9°C 54% 3.4 mph ENE5.5 kmh ENE 4.0 mph6.4 kmh 30.37 in1028.4 mb 0.00 in0.0 mm 0.00 in/hr0.0 mm/hr 0.00 in0.0 mm
11:42 AM 55.4°F13.0°C 39.0°F3.9°C 54% 3.1 mph ENE5.0 kmh ENE 4.0 mph6.4 kmh 30.37 in1028.4 mb 0.00 in0.0 mm 0.00 in/hr0.0 mm/hr 0.00 in0.0 mm
11:41 AM 55.6°F13.1°C 39.2°F4.0°C 54% 2.9 mph ENE4.7 kmh ENE 4.0 mph6.4 kmh 30.37 in1028.4 mb 0.00 in0.0 mm 0.00 in/hr0.0 mm/hr 0.00 in0.0 mm
11:40 AM 55.4°F13.0°C 39.0°F3.9°C 54% 2.8 mph ENE4.5 kmh ENE 4.0 mph6.4 kmh 30.38 in1028.8 mb 0.00 in0.0 mm 0.00 in/hr0.0 mm/hr 0.00 in0.0 mm
11:39 AM 54.7°F12.6°C 37.9°F3.3°C 53% 3.0 mph ENE4.8 kmh ENE 6.4 mph10.3 kmh 30.37 in1028.4 mb 0.00 in0.0 mm 0.00 in/hr0.0 mm/hr 0.00 in0.0 mm
11:38 AM 54.7°F12.6°C 38.4°F3.6°C 54% 3.1 mph ENE5.0 kmh ENE 6.4 mph10.3 kmh 30.37 in1028.4 mb 0.00 in0.0 mm 0.00 in/hr0.0 mm/hr 0.00 in0.0 mm
11:37 AM 54.9°F12.7°C 38.5°F3.6°C 54% 3.0 mph ENE4.8 kmh ENE 6.4 mph10.3 kmh 30.37 in1028.4 mb 0.00 in0.0 mm 0.00 in/hr0.0 mm/hr 0.00 in0.0 mm
11:36 AM 55.6°F13.1°C 39.2°F4.0°C 54% 2.9 mph ENE4.7 kmh ENE 6.4 mph10.3 kmh 30.37 in1028.4 mb 0.00 in0.0 mm 0.00 in/hr0.0 mm/hr 0.00 in0.0 mm
11:35 AM 55.9°F13.3°C 39.5°F4.2°C 54% 2.8 mph NE4.5 kmh NE 6.4 mph10.3 kmh 30.37 in1028.4 mb 0.00 in0.0 mm 0.00 in/hr0.0 mm/hr 0.00 in0.0 mm
11:34 AM 55.6°F13.1°C 39.2°F4.0°C 54% 3.0 mph NE4.8 kmh NE 6.4 mph10.3 kmh 30.37 in1028.4 mb 0.00 in0.0 mm 0.00 in/hr0.0 mm/hr 0.00 in0.0 mm
11:33 AM 55.2°F12.9°C 38.4°F3.6°C 53% 3.1 mph NE5.0 kmh NE 6.4 mph10.3 kmh 30.37 in1028.4 mb 0.00 in0.0 mm 0.00 in/hr0.0 mm/hr 0.00 in0.0 mm
11:32 AM 55.0°F12.8°C 38.7°F3.7°C 54% 3.5 mph NE5.6 kmh NE 6.4 mph10.3 kmh 30.37 in1028.4 mb 0.00 in0.0 mm 0.00 in/hr0.0 mm/hr 0.00 in0.0 mm
11:31 AM 54.9°F12.7°C 38.5°F3.6°C 54% 3.7 mph NE6.0 kmh NE 6.4 mph10.3 kmh 30.38 in1028.8 mb 0.00 in0.0 mm 0.00 in/hr0.0 mm/hr 0.00 in0.0 mm
11:30 AM 54.9°F12.7°C 38.5°F3.6°C 54% 3.7 mph NE6.0 kmh NE 6.4 mph10.3 kmh 30.38 in1028.8 mb 0.00 in0.0 mm 0.00 in/hr0.0 mm/hr 0.00 in0.0 mm
11:29 AM 55.2°F12.9°C 39.3°F4.1°C 55% 3.5 mph NE5.6 kmh NE 6.4 mph10.3 kmh 30.38 in1028.8 mb 0.00 in0.0 mm 0.00 in/hr0.0 mm/hr 0.00 in0.0 mm
11:28 AM 55.9°F13.3°C 40.0°F4.4°C 55% 3.3 mph NE5.3 kmh NE 4.8 mph7.7 kmh 30.37 in1028.4 mb 0.00 in0.0 mm 0.00 in/hr0.0 mm/hr 0.00 in0.0 mm
11:27 AM 55.6°F13.1°C 39.7°F4.3°C 55% 3.4 mph NE5.5 kmh NE 4.8 mph7.7 kmh 30.38 in1028.8 mb 0.00 in0.0 mm 0.00 in/hr0.0 mm/hr 0.00 in0.0 mm
11:26 AM 55.2°F12.9°C 39.3°F4.1°C 55% 3.3 mph NE5.3 kmh NE 4.8 mph7.7 kmh 30.37 in1028.4 mb 0.00 in0.0 mm 0.00 in/hr0.0 mm/hr 0.00 in0.0 mm
11:25 AM 55.4°F13.0°C 39.5°F4.2°C 55% 3.2 mph NE5.1 kmh NE 4.8 mph7.7 kmh 30.37 in1028.4 mb 0.00 in0.0 mm 0.00 in/hr0.0 mm/hr 0.00 in0.0 mm
11:24 AM 54.7°F12.6°C 38.4°F3.6°C 54% 3.0 mph NE4.8 kmh NE 4.8 mph7.7 kmh 30.37 in1028.4 mb 0.00 in0.0 mm 0.00 in/hr0.0 mm/hr 0.00 in0.0 mm
11:23 AM 54.3°F12.4°C 38.0°F3.3°C 54% 2.8 mph NE4.5 kmh NE 4.8 mph7.7 kmh 30.37 in1028.4 mb 0.00 in0.0 mm 0.00 in/hr0.0 mm/hr 0.00 in0.0 mm
11:22 AM 55.6°F13.1°C 39.7°F4.3°C 55% 2.8 mph NE4.5 kmh NE 4.8 mph7.7 kmh 30.38 in1028.8 mb 0.00 in0.0 mm 0.00 in/hr0.0 mm/hr 0.00 in0.0 mm
11:21 AM 55.4°F13.0°C 39.0°F3.9°C 54% 2.7 mph NE4.3 kmh NE 4.0 mph6.4 kmh 30.38 in1028.8 mb 0.00 in0.0 mm 0.00 in/hr0.0 mm/hr 0.00 in0.0 mm
11:20 AM 55.2°F12.9°C 38.9°F3.8°C 54% 2.7 mph NNE4.3 kmh NNE 4.0 mph6.4 kmh 30.37 in1028.4 mb 0.00 in0.0 mm 0.00 in/hr0.0 mm/hr 0.00 in0.0 mm
11:19 AM 55.8°F13.2°C 39.4°F4.1°C 54% 2.6 mph NNE4.2 kmh NNE 4.0 mph6.4 kmh 30.37 in1028.4 mb 0.00 in0.0 mm 0.00 in/hr0.0 mm/hr 0.00 in0.0 mm
11:18 AM 55.6°F13.1°C 39.2°F4.0°C 54% 2.5 mph NE4.0 kmh NE 4.0 mph6.4 kmh 30.37 in1028.4 mb 0.00 in0.0 mm 0.00 in/hr0.0 mm/hr 0.00 in0.0 mm
11:17 AM 55.4°F13.0°C 39.0°F3.9°C 54% 2.4 mph NE3.9 kmh NE 4.0 mph6.4 kmh 30.37 in1028.4 mb 0.00 in0.0 mm 0.00 in/hr0.0 mm/hr 0.00 in0.0 mm
11:16 AM 55.0°F12.8°C 38.7°F3.7°C 54% 2.5 mph NE4.0 kmh NE 4.0 mph6.4 kmh 30.37 in1028.4 mb 0.00 in0.0 mm 0.00 in/hr0.0 mm/hr 0.00 in0.0 mm
11:15 AM 54.7°F12.6°C 37.9°F3.3°C 53% 2.6 mph NE4.2 kmh NE 4.0 mph6.4 kmh 30.37 in1028.4 mb 0.00 in0.0 mm 0.00 in/hr0.0 mm/hr 0.00 in0.0 mm
11:14 AM 54.9°F12.7°C 38.1°F3.4°C 53% 2.7 mph NE4.3 kmh NE 4.0 mph6.4 kmh 30.37 in1028.4 mb 0.00 in0.0 mm 0.00 in/hr0.0 mm/hr 0.00 in0.0 mm
11:13 AM 54.9°F12.7°C 38.5°F3.6°C 54% 2.7 mph NE4.3 kmh NE 4.0 mph6.4 kmh 30.37 in1028.4 mb 0.00 in0.0 mm 0.00 in/hr0.0 mm/hr 0.00 in0.0 mm
11:12 AM 55.4°F13.0°C 39.5°F4.2°C 55% 2.6 mph NE4.2 kmh NE 4.0 mph6.4 kmh 30.37 in1028.4 mb 0.00 in0.0 mm 0.00 in/hr0.0 mm/hr 0.00 in0.0 mm
11:11 AM 55.4°F13.0°C 39.5°F4.2°C 55% 2.6 mph NE4.2 kmh NE 4.0 mph6.4 kmh 30.37 in1028.4 mb 0.00 in0.0 mm 0.00 in/hr0.0 mm/hr 0.00 in0.0 mm
11:10 AM 55.6°F13.1°C 39.7°F4.3°C 55% 2.6 mph ENE4.2 kmh ENE 4.0 mph6.4 kmh 30.37 in1028.4 mb 0.00 in0.0 mm 0.00 in/hr0.0 mm/hr 0.00 in0.0 mm
11:09 AM 55.0°F12.8°C 39.6°F4.2°C 56% 2.9 mph E4.7 kmh E 4.8 mph7.7 kmh 30.37 in1028.4 mb 0.00 in0.0 mm 0.00 in/hr0.0 mm/hr 0.00 in0.0 mm
11:08 AM 55.4°F13.0°C 40.0°F4.4°C 56% 3.1 mph E5.0 kmh E 4.8 mph7.7 kmh 30.37 in1028.4 mb 0.00 in0.0 mm 0.00 in/hr0.0 mm/hr 0.00 in0.0 mm
11:07 AM 55.4°F13.0°C 40.0°F4.4°C 56% 3.1 mph E5.0 kmh E 4.8 mph7.7 kmh 30.37 in1028.4 mb 0.00 in0.0 mm 0.00 in/hr0.0 mm/hr 0.00 in0.0 mm
11:06 AM 55.4°F13.0°C 40.0°F4.4°C 56% 3.1 mph E5.0 kmh E 4.8 mph7.7 kmh 30.38 in1028.8 mb 0.00 in0.0 mm 0.00 in/hr0.0 mm/hr 0.00 in0.0 mm
11:05 AM 54.9°F12.7°C 39.0°F3.9°C 55% 3.1 mph E5.0 kmh E 4.8 mph7.7 kmh 30.37 in1028.4 mb 0.00 in0.0 mm 0.00 in/hr0.0 mm/hr 0.00 in0.0 mm
11:04 AM 54.3°F12.4°C 38.5°F3.6°C 55% 3.1 mph E5.0 kmh E 4.8 mph7.7 kmh 30.37 in1028.4 mb 0.00 in0.0 mm 0.00 in/hr0.0 mm/hr 0.00 in0.0 mm
11:03 AM 54.0°F12.2°C 38.2°F3.4°C 55% 3.2 mph E5.1 kmh E 4.8 mph7.7 kmh 30.37 in1028.4 mb 0.00 in0.0 mm 0.00 in/hr0.0 mm/hr 0.00 in0.0 mm
11:02 AM 54.0°F12.2°C 38.2°F3.4°C 55% 3.3 mph E5.3 kmh E 4.8 mph7.7 kmh 30.37 in1028.4 mb 0.00 in0.0 mm 0.00 in/hr0.0 mm/hr 0.00 in0.0 mm
11:01 AM 54.0°F12.2°C 38.2°F3.4°C 55% 3.3 mph ENE5.3 kmh ENE 4.8 mph7.7 kmh 30.37 in1028.4 mb 0.00 in0.0 mm 0.00 in/hr0.0 mm/hr 0.00 in0.0 mm
11:00 AM 53.6°F12.0°C 37.4°F3.0°C 54% 3.3 mph ENE5.3 kmh ENE 4.8 mph7.7 kmh 30.37 in1028.4 mb 0.00 in0.0 mm 0.00 in/hr0.0 mm/hr 0.00 in0.0 mm
10:59 AM 53.6°F12.0°C 37.4°F3.0°C 54% 3.2 mph ENE5.1 kmh ENE 4.8 mph7.7 kmh 30.37 in1028.4 mb 0.00 in0.0 mm 0.00 in/hr0.0 mm/hr 0.00 in0.0 mm
10:58 AM 53.6°F12.0°C 37.4°F3.0°C 54% 3.0 mph ENE4.8 kmh ENE 4.0 mph6.4 kmh 30.38 in1028.8 mb 0.00 in0.0 mm 0.00 in/hr0.0 mm/hr 0.00 in0.0 mm
10:57 AM 53.6°F12.0°C 37.4°F3.0°C 54% 3.1 mph ENE5.0 kmh ENE 4.0 mph6.4 kmh 30.38 in1028.8 mb 0.00 in0.0 mm 0.00 in/hr0.0 mm/hr 0.00 in0.0 mm
10:56 AM 54.0°F12.2°C 37.7°F3.2°C 54% 3.2 mph ENE5.1 kmh ENE 4.0 mph6.4 kmh 30.38 in1028.8 mb 0.00 in0.0 mm 0.00 in/hr0.0 mm/hr 0.00 in0.0 mm
10:55 AM 53.6°F12.0°C 37.8°F3.2°C 55% 3.1 mph NE5.0 kmh NE 4.0 mph6.4 kmh 30.38 in1028.8 mb 0.00 in0.0 mm 0.00 in/hr0.0 mm/hr 0.00 in0.0 mm
10:54 AM 54.0°F12.2°C 38.2°F3.4°C 55% 3.1 mph NE5.0 kmh NE 4.0 mph6.4 kmh 30.38 in1028.8 mb 0.00 in0.0 mm 0.00 in/hr0.0 mm/hr 0.00 in0.0 mm
10:53 AM 54.5°F12.5°C 39.1°F3.9°C 56% 3.0 mph NE4.8 kmh NE 4.0 mph6.4 kmh 30.38 in1028.8 mb 0.00 in0.0 mm 0.00 in/hr0.0 mm/hr 0.00 in0.0 mm
10:52 AM 53.6°F12.0°C 37.8°F3.2°C 55% 3.1 mph NE5.0 kmh NE 4.0 mph6.4 kmh 30.38 in1028.8 mb 0.00 in0.0 mm 0.00 in/hr0.0 mm/hr 0.00 in0.0 mm
10:51 AM 53.6°F12.0°C 37.4°F3.0°C 54% 3.1 mph NE5.0 kmh NE 4.0 mph6.4 kmh 30.37 in1028.4 mb 0.00 in0.0 mm 0.00 in/hr0.0 mm/hr 0.00 in0.0 mm
10:50 AM 53.4°F11.9°C 37.7°F3.2°C 55% 3.2 mph NE5.1 kmh NE 4.8 mph7.7 kmh 30.37 in1028.4 mb 0.00 in0.0 mm 0.00 in/hr0.0 mm/hr 0.00 in0.0 mm
10:49 AM 53.8°F12.1°C 38.0°F3.3°C 55% 3.3 mph NE5.3 kmh NE 4.8 mph7.7 kmh 30.37 in1028.4 mb 0.00 in0.0 mm 0.00 in/hr0.0 mm/hr 0.00 in0.0 mm
10:48 AM 53.6°F12.0°C 37.8°F3.2°C 55% 3.6 mph NE5.8 kmh NE 5.6 mph9.0 kmh 30.38 in1028.8 mb 0.00 in0.0 mm 0.00 in/hr0.0 mm/hr 0.00 in0.0 mm
10:47 AM 53.8°F12.1°C 38.0°F3.3°C 55% 3.7 mph ENE6.0 kmh ENE 5.6 mph9.0 kmh 30.37 in1028.4 mb 0.00 in0.0 mm 0.00 in/hr0.0 mm/hr 0.00 in0.0 mm
10:46 AM 53.8°F12.1°C 38.5°F3.6°C 56% 3.9 mph ENE6.3 kmh ENE 5.6 mph9.0 kmh 30.37 in1028.4 mb 0.00 in0.0 mm 0.00 in/hr0.0 mm/hr 0.00 in0.0 mm
10:45 AM 53.2°F11.8°C 38.0°F3.3°C 56% 4.0 mph ENE6.4 kmh ENE 5.6 mph9.0 kmh 30.37 in1028.4 mb 0.00 in0.0 mm 0.00 in/hr0.0 mm/hr 0.00 in0.0 mm
10:44 AM 53.2°F11.8°C 38.0°F3.3°C 56% 4.1 mph ENE6.6 kmh ENE 5.6 mph9.0 kmh 30.37 in1028.4 mb 0.00 in0.0 mm 0.00 in/hr0.0 mm/hr 0.00 in0.0 mm
10:43 AM 52.7°F11.5°C 37.0°F2.8°C 55% 4.1 mph ENE6.6 kmh ENE 5.6 mph9.0 kmh 30.38 in1028.8 mb 0.00 in0.0 mm 0.00 in/hr0.0 mm/hr 0.00 in0.0 mm
10:42 AM 52.5°F11.4°C 36.8°F2.7°C 55% 4.1 mph ENE6.6 kmh ENE 5.6 mph9.0 kmh 30.37 in1028.4 mb 0.00 in0.0 mm 0.00 in/hr0.0 mm/hr 0.00 in0.0 mm
10:41 AM 52.5°F11.4°C 36.8°F2.7°C 55% 4.2 mph ENE6.8 kmh ENE 5.6 mph9.0 kmh 30.37 in1028.4 mb 0.00 in0.0 mm 0.00 in/hr0.0 mm/hr 0.00 in0.0 mm
10:40 AM 52.5°F11.4°C 36.8°F2.7°C 55% 4.2 mph ENE6.8 kmh ENE 5.6 mph9.0 kmh 30.37 in1028.4 mb 0.00 in0.0 mm 0.00 in/hr0.0 mm/hr 0.00 in0.0 mm
10:39 AM 52.7°F11.5°C 37.0°F2.8°C 55% 4.2 mph NE6.8 kmh NE 5.6 mph9.0 kmh 30.37 in1028.4 mb 0.00 in0.0 mm 0.00 in/hr0.0 mm/hr 0.00 in0.0 mm
10:38 AM 52.5°F11.4°C 36.8°F2.7°C 55% 4.3 mph NE6.9 kmh NE 5.6 mph9.0 kmh 30.37 in1028.4 mb 0.00 in0.0 mm 0.00 in/hr0.0 mm/hr 0.00 in0.0 mm
10:37 AM 52.7°F11.5°C 37.0°F2.8°C 55% 4.1 mph NE6.6 kmh NE 5.6 mph9.0 kmh 30.37 in1028.4 mb 0.00 in0.0 mm 0.00 in/hr0.0 mm/hr 0.00 in0.0 mm
10:36 AM 53.1°F11.7°C 37.3°F2.9°C 55% 3.9 mph NE6.3 kmh NE 5.6 mph9.0 kmh 30.37 in1028.4 mb 0.00 in0.0 mm 0.00 in/hr0.0 mm/hr 0.00 in0.0 mm
10:35 AM 53.2°F11.8°C 37.5°F3.1°C 55% 4.0 mph NE6.4 kmh NE 5.6 mph9.0 kmh 30.37 in1028.4 mb 0.00 in0.0 mm 0.00 in/hr0.0 mm/hr 0.00 in0.0 mm
10:34 AM 53.1°F11.7°C 37.8°F3.2°C 56% 3.9 mph NE6.3 kmh NE 5.6 mph9.0 kmh 30.37 in1028.4 mb 0.00 in0.0 mm 0.00 in/hr0.0 mm/hr 0.00 in0.0 mm
10:33 AM 53.2°F11.8°C 38.4°F3.6°C 57% 3.8 mph NE6.1 kmh NE 5.6 mph9.0 kmh 30.37 in1028.4 mb 0.00 in0.0 mm 0.00 in/hr0.0 mm/hr 0.00 in0.0 mm
10:32 AM 53.1°F11.7°C 38.2°F3.4°C 57% 3.8 mph NE6.1 kmh NE 5.6 mph9.0 kmh 30.37 in1028.4 mb 0.00 in0.0 mm 0.00 in/hr0.0 mm/hr 0.00 in0.0 mm
10:31 AM 53.1°F11.7°C 38.2°F3.4°C 57% 3.6 mph NE5.8 kmh NE 5.6 mph9.0 kmh 30.37 in1028.4 mb 0.00 in0.0 mm 0.00 in/hr0.0 mm/hr 0.00 in0.0 mm
10:30 AM 52.9°F11.6°C 38.1°F3.4°C 57% 3.5 mph NE5.6 kmh NE 5.6 mph9.0 kmh 30.38 in1028.8 mb 0.00 in0.0 mm 0.00 in/hr0.0 mm/hr 0.00 in0.0 mm
10:29 AM 53.2°F11.8°C 38.4°F3.6°C 57% 3.4 mph NE5.5 kmh NE 5.6 mph9.0 kmh 30.37 in1028.4 mb 0.00 in0.0 mm 0.00 in/hr0.0 mm/hr 0.00 in0.0 mm
10:28 AM 52.7°F11.5°C 37.5°F3.1°C 56% 3.1 mph NE5.0 kmh NE 4.8 mph7.7 kmh 30.37 in1028.4 mb 0.00 in0.0 mm 0.00 in/hr0.0 mm/hr 0.00 in0.0 mm
10:27 AM 52.5°F11.4°C 37.3°F2.9°C 56% 3.3 mph NE5.3 kmh NE 4.8 mph7.7 kmh 30.37 in1028.4 mb 0.00 in0.0 mm 0.00 in/hr0.0 mm/hr 0.00 in0.0 mm
10:26 AM 52.5°F11.4°C 37.7°F3.2°C 57% 3.3 mph NE5.3 kmh NE 4.8 mph7.7 kmh 30.37 in1028.4 mb 0.00 in0.0 mm 0.00 in/hr0.0 mm/hr 0.00 in0.0 mm
10:25 AM 53.2°F11.8°C 38.9°F3.8°C 58% 3.3 mph NNE5.3 kmh NNE 4.0 mph6.4 kmh 30.37 in1028.4 mb 0.00 in0.0 mm 0.00 in/hr0.0 mm/hr 0.00 in0.0 mm
10:24 AM 53.2°F11.8°C 39.3°F4.1°C 59% 3.3 mph N5.3 kmh N 4.0 mph6.4 kmh 30.36 in1028.1 mb 0.00 in0.0 mm 0.00 in/hr0.0 mm/hr 0.00 in0.0 mm
10:23 AM 53.1°F11.7°C 38.7°F3.7°C 58% 3.5 mph N5.6 kmh N 4.8 mph7.7 kmh 30.37 in1028.4 mb 0.00 in0.0 mm 0.00 in/hr0.0 mm/hr 0.00 in0.0 mm
10:22 AM 52.9°F11.6°C 38.1°F3.4°C 57% 3.5 mph N5.6 kmh N 4.8 mph7.7 kmh 30.37 in1028.4 mb 0.00 in0.0 mm 0.00 in/hr0.0 mm/hr 0.00 in0.0 mm
10:21 AM 52.7°F11.5°C 38.3°F3.5°C 58% 3.5 mph N5.6 kmh N 4.8 mph7.7 kmh 30.37 in1028.4 mb 0.00 in0.0 mm 0.00 in/hr0.0 mm/hr 0.00 in0.0 mm
10:20 AM 53.1°F11.7°C 39.1°F3.9°C 59% 3.5 mph NNE5.6 kmh NNE 4.8 mph7.7 kmh 30.37 in1028.4 mb 0.00 in0.0 mm 0.00 in/hr0.0 mm/hr 0.00 in0.0 mm
10:19 AM 53.2°F11.8°C 39.3°F4.1°C 59% 3.5 mph N5.6 kmh N 4.8 mph7.7 kmh 30.37 in1028.4 mb 0.00 in0.0 mm 0.00 in/hr0.0 mm/hr 0.00 in0.0 mm
10:18 AM 53.2°F11.8°C 39.3°F4.1°C 59% 3.5 mph N5.6 kmh N 4.8 mph7.7 kmh 30.37 in1028.4 mb 0.00 in0.0 mm 0.00 in/hr0.0 mm/hr 0.00 in0.0 mm
10:17 AM 53.4°F11.9°C 39.5°F4.2°C 59% 3.3 mph N5.3 kmh N 4.8 mph7.7 kmh 30.37 in1028.4 mb 0.00 in0.0 mm 0.00 in/hr0.0 mm/hr 0.00 in0.0 mm
10:16 AM 53.4°F11.9°C 39.5°F4.2°C 59% 3.2 mph NNE5.1 kmh NNE 4.8 mph7.7 kmh 30.37 in1028.4 mb 0.00 in0.0 mm 0.00 in/hr0.0 mm/hr 0.00 in0.0 mm
10:15 AM 53.2°F11.8°C 39.3°F4.1°C 59% 3.0 mph NNE4.8 kmh NNE 4.8 mph7.7 kmh 30.37 in1028.4 mb 0.00 in0.0 mm 0.00 in/hr0.0 mm/hr 0.00 in0.0 mm
10:14 AM 53.2°F11.8°C 39.3°F4.1°C 59% 3.0 mph NNE4.8 kmh NNE 4.8 mph7.7 kmh 30.38 in1028.8 mb 0.00 in0.0 mm 0.00 in/hr0.0 mm/hr 0.00 in0.0 mm
10:13 AM 53.2°F11.8°C 39.3°F4.1°C 59% 2.9 mph NNE4.7 kmh NNE 4.0 mph6.4 kmh 30.38 in1028.8 mb 0.00 in0.0 mm 0.00 in/hr0.0 mm/hr 0.00 in0.0 mm
10:12 AM 53.2°F11.8°C 39.3°F4.1°C 59% 3.0 mph NNE4.8 kmh NNE 4.0 mph6.4 kmh 30.37 in1028.4 mb 0.00 in0.0 mm 0.00 in/hr0.0 mm/hr 0.00 in0.0 mm
10:11 AM 53.1°F11.7°C 39.1°F3.9°C 59% 3.0 mph NE4.8 kmh NE 4.0 mph6.4 kmh 30.37 in1028.4 mb 0.00 in0.0 mm 0.00 in/hr0.0 mm/hr 0.00 in0.0 mm
10:10 AM 53.1°F11.7°C 39.6°F4.2°C 60% 3.0 mph NE4.8 kmh NE 4.0 mph6.4 kmh 30.37 in1028.4 mb 0.00 in0.0 mm 0.00 in/hr0.0 mm/hr 0.00 in0.0 mm
10:09 AM 53.2°F11.8°C 39.3°F4.1°C 59% 3.1 mph NE5.0 kmh NE 4.0 mph6.4 kmh 30.37 in1028.4 mb 0.00 in0.0 mm 0.00 in/hr0.0 mm/hr 0.00 in0.0 mm
10:08 AM 52.9°F11.6°C 39.0°F3.9°C 59% 3.1 mph NE5.0 kmh NE 4.0 mph6.4 kmh 30.37 in1028.4 mb 0.00 in0.0 mm 0.00 in/hr0.0 mm/hr 0.00 in0.0 mm
10:07 AM 53.2°F11.8°C 39.7°F4.3°C 60% 3.2 mph NE5.1 kmh NE 4.0 mph6.4 kmh 30.37 in1028.4 mb 0.00 in0.0 mm 0.00 in/hr0.0 mm/hr 0.00 in0.0 mm
10:06 AM 53.1°F11.7°C 39.1°F3.9°C 59% 3.3 mph NE5.3 kmh NE 4.0 mph6.4 kmh 30.37 in1028.4 mb 0.00 in0.0 mm 0.00 in/hr0.0 mm/hr 0.00 in0.0 mm
10:05 AM 52.7°F11.5°C 38.3°F3.5°C 58% 3.3 mph NE5.3 kmh NE 4.0 mph6.4 kmh 30.37 in1028.4 mb 0.00 in0.0 mm 0.00 in/hr0.0 mm/hr 0.00 in0.0 mm
10:04 AM 52.5°F11.4°C 37.7°F3.2°C 57% 3.3 mph NE5.3 kmh NE 4.0 mph6.4 kmh 30.38 in1028.8 mb 0.00 in0.0 mm 0.00 in/hr0.0 mm/hr 0.00 in0.0 mm
10:03 AM 52.3°F11.3°C 38.0°F3.3°C 58% 3.3 mph NE5.3 kmh NE 4.0 mph6.4 kmh 30.37 in1028.4 mb 0.00 in0.0 mm 0.00 in/hr0.0 mm/hr 0.00 in0.0 mm
10:02 AM 52.3°F11.3°C 38.0°F3.3°C 58% 3.2 mph NE5.1 kmh NE 4.0 mph6.4 kmh 30.37 in1028.4 mb 0.00 in0.0 mm 0.00 in/hr0.0 mm/hr 0.00 in0.0 mm
10:01 AM 52.7°F11.5°C 38.8°F3.8°C 59% 3.1 mph NNE5.0 kmh NNE 4.0 mph6.4 kmh 30.37 in1028.4 mb 0.00 in0.0 mm 0.00 in/hr0.0 mm/hr 0.00 in0.0 mm
10:00 AM 52.9°F11.6°C 39.0°F3.9°C 59% 3.2 mph NNE5.1 kmh NNE 4.8 mph7.7 kmh 30.38 in1028.8 mb 0.00 in0.0 mm 0.00 in/hr0.0 mm/hr 0.00 in0.0 mm
09:59 AM 52.9°F11.6°C 39.4°F4.1°C 60% 3.2 mph NNE5.1 kmh NNE 4.8 mph7.7 kmh 30.37 in1028.4 mb 0.00 in0.0 mm 0.00 in/hr0.0 mm/hr 0.00 in0.0 mm
09:58 AM 52.9°F11.6°C 39.4°F4.1°C 60% 3.2 mph NNE5.1 kmh NNE 4.8 mph7.7 kmh 30.37 in1028.4 mb 0.00 in0.0 mm 0.00 in/hr0.0 mm/hr 0.00 in0.0 mm
09:57 AM 52.7°F11.5°C 39.2°F4.0°C 60% 3.2 mph NNE5.1 kmh NNE 4.8 mph7.7 kmh 30.37 in1028.4 mb 0.00 in0.0 mm 0.00 in/hr0.0 mm/hr 0.00 in0.0 mm
09:56 AM 52.7°F11.5°C 39.2°F4.0°C 60% 3.2 mph NE5.1 kmh NE 4.8 mph7.7 kmh 30.37 in1028.4 mb 0.00 in0.0 mm 0.00 in/hr0.0 mm/hr 0.00 in0.0 mm
09:55 AM 52.5°F11.4°C 39.0°F3.9°C 60% 3.2 mph NE5.1 kmh NE 4.8 mph7.7 kmh 30.37 in1028.4 mb 0.00 in0.0 mm 0.00 in/hr0.0 mm/hr 0.00 in0.0 mm
09:54 AM 52.7°F11.5°C 39.2°F4.0°C 60% 3.1 mph NE5.0 kmh NE 4.8 mph7.7 kmh 30.37 in1028.4 mb 0.00 in0.0 mm 0.00 in/hr0.0 mm/hr 0.00 in0.0 mm
09:53 AM 52.5°F11.4°C 39.0°F3.9°C 60% 3.1 mph NE5.0 kmh NE 4.8 mph7.7 kmh 30.37 in1028.4 mb 0.00 in0.0 mm 0.00 in/hr0.0 mm/hr 0.00 in0.0 mm
09:52 AM 52.5°F11.4°C 39.0°F3.9°C 60% 3.2 mph NNE5.1 kmh NNE 4.8 mph7.7 kmh 30.37 in1028.4 mb 0.00 in0.0 mm 0.00 in/hr0.0 mm/hr 0.00 in0.0 mm
09:51 AM 52.5°F11.4°C 39.0°F3.9°C 60% 3.3 mph NNE5.3 kmh NNE 4.8 mph7.7 kmh 30.37 in1028.4 mb 0.00 in0.0 mm 0.00 in/hr0.0 mm/hr 0.00 in0.0 mm
09:50 AM 52.2°F11.2°C 38.7°F3.7°C 60% 3.2 mph NNE5.1 kmh NNE 4.8 mph7.7 kmh 30.36 in1028.1 mb 0.00 in0.0 mm 0.00 in/hr0.0 mm/hr 0.00 in0.0 mm
09:49 AM 52.3°F11.3°C 38.9°F3.8°C 60% 3.1 mph N5.0 kmh N 4.0 mph6.4 kmh 30.36 in1028.1 mb 0.00 in0.0 mm 0.00 in/hr0.0 mm/hr 0.00 in0.0 mm
09:48 AM 52.2°F11.2°C 38.7°F3.7°C 60% 3.2 mph N5.1 kmh N 4.0 mph6.4 kmh 30.36 in1028.1 mb 0.00 in0.0 mm 0.00 in/hr0.0 mm/hr 0.00 in0.0 mm
09:47 AM 52.3°F11.3°C 38.9°F3.8°C 60% 3.3 mph N5.3 kmh N 4.0 mph6.4 kmh 30.37 in1028.4 mb 0.00 in0.0 mm 0.00 in/hr0.0 mm/hr 0.00 in0.0 mm
09:46 AM 52.2°F11.2°C 38.7°F3.7°C 60% 3.3 mph N5.3 kmh N 4.0 mph6.4 kmh 30.37 in1028.4 mb 0.00 in0.0 mm 0.00 in/hr0.0 mm/hr 0.00 in0.0 mm
09:45 AM 52.2°F11.2°C 38.7°F3.7°C 60% 3.3 mph N5.3 kmh N 4.0 mph6.4 kmh 30.37 in1028.4 mb 0.00 in0.0 mm 0.00 in/hr0.0 mm/hr 0.00 in0.0 mm
09:44 AM 52.2°F11.2°C 38.7°F3.7°C 60% 3.3 mph N5.3 kmh N 4.0 mph6.4 kmh 30.37 in1028.4 mb 0.00 in0.0 mm 0.00 in/hr0.0 mm/hr 0.00 in0.0 mm
09:43 AM 52.0°F11.1°C 38.5°F3.6°C 60% 3.3 mph N5.3 kmh N 4.0 mph6.4 kmh 30.37 in1028.4 mb 0.00 in0.0 mm 0.00 in/hr0.0 mm/hr 0.00 in0.0 mm
09:42 AM 52.0°F11.1°C 38.5°F3.6°C 60% 3.1 mph N5.0 kmh N 4.0 mph6.4 kmh 30.37 in1028.4 mb 0.00 in0.0 mm 0.00 in/hr0.0 mm/hr 0.00 in0.0 mm
09:41 AM 52.2°F11.2°C 39.1°F3.9°C 61% 3.1 mph N5.0 kmh N 4.8 mph7.7 kmh 30.36 in1028.1 mb 0.00 in0.0 mm 0.00 in/hr0.0 mm/hr 0.00 in0.0 mm
09:40 AM 52.0°F11.1°C 39.0°F3.9°C 61% 3.2 mph N5.1 kmh N 4.8 mph7.7 kmh 30.37 in1028.4 mb 0.00 in0.0 mm 0.00 in/hr0.0 mm/hr 0.00 in0.0 mm
09:39 AM 52.0°F11.1°C 39.0°F3.9°C 61% 3.2 mph N5.1 kmh N 4.8 mph7.7 kmh 30.36 in1028.1 mb 0.00 in0.0 mm 0.00 in/hr0.0 mm/hr 0.00 in0.0 mm
09:38 AM 51.8°F11.0°C 38.8°F3.8°C 61% 3.2 mph N5.1 kmh N 4.8 mph7.7 kmh 30.36 in1028.1 mb 0.00 in0.0 mm 0.00 in/hr0.0 mm/hr 0.00 in0.0 mm
09:37 AM 52.2°F11.2°C 39.5°F4.2°C 62% 3.2 mph NNE5.1 kmh NNE 4.8 mph7.7 kmh 30.36 in1028.1 mb 0.00 in0.0 mm 0.00 in/hr0.0 mm/hr 0.00 in0.0 mm
09:36 AM 52.0°F11.1°C 39.0°F3.9°C 61% 3.2 mph NNE5.1 kmh NNE 4.8 mph7.7 kmh 30.36 in1028.1 mb 0.00 in0.0 mm 0.00 in/hr0.0 mm/hr 0.00 in0.0 mm
09:35 AM 51.8°F11.0°C 38.8°F3.8°C 61% 3.3 mph NNE5.3 kmh NNE 4.8 mph7.7 kmh 30.36 in1028.1 mb 0.00 in0.0 mm 0.00 in/hr0.0 mm/hr 0.00 in0.0 mm
09:34 AM 51.6°F10.9°C 39.0°F3.9°C 62% 3.4 mph NE5.5 kmh NE 4.8 mph7.7 kmh 30.36 in1028.1 mb 0.00 in0.0 mm 0.00 in/hr0.0 mm/hr 0.00 in0.0 mm
09:33 AM 51.3°F10.7°C 38.7°F3.7°C 62% 3.5 mph NE5.6 kmh NE 4.8 mph7.7 kmh 30.36 in1028.1 mb 0.00 in0.0 mm 0.00 in/hr0.0 mm/hr 0.00 in0.0 mm
09:32 AM 51.4°F10.8°C 38.9°F3.8°C 62% 3.4 mph NE5.5 kmh NE 4.8 mph7.7 kmh 30.36 in1028.1 mb 0.00 in0.0 mm 0.00 in/hr0.0 mm/hr 0.00 in0.0 mm
09:31 AM 51.4°F10.8°C 38.9°F3.8°C 62% 3.3 mph NNE5.3 kmh NNE 4.8 mph7.7 kmh 30.36 in1028.1 mb 0.00 in0.0 mm 0.00 in/hr0.0 mm/hr 0.00 in0.0 mm
09:30 AM 51.4°F10.8°C 38.9°F3.8°C 62% 3.2 mph NNE5.1 kmh NNE 4.0 mph6.4 kmh 30.36 in1028.1 mb 0.00 in0.0 mm 0.00 in/hr0.0 mm/hr 0.00 in0.0 mm
09:29 AM 51.3°F10.7°C 39.1°F3.9°C 63% 3.2 mph NNE5.1 kmh NNE 4.0 mph6.4 kmh 30.36 in1028.1 mb 0.00 in0.0 mm 0.00 in/hr0.0 mm/hr 0.00 in0.0 mm
09:28 AM 51.3°F10.7°C 39.1°F3.9°C 63% 3.1 mph NNE5.0 kmh NNE 4.0 mph6.4 kmh 30.36 in1028.1 mb 0.00 in0.0 mm 0.00 in/hr0.0 mm/hr 0.00 in0.0 mm
09:27 AM 51.1°F10.6°C 38.9°F3.8°C 63% 3.0 mph NNE4.8 kmh NNE 4.0 mph6.4 kmh 30.36 in1028.1 mb 0.00 in0.0 mm 0.00 in/hr0.0 mm/hr 0.00 in0.0 mm
09:26 AM 51.1°F10.6°C 39.3°F4.1°C 64% 2.9 mph NNE4.7 kmh NNE 4.0 mph6.4 kmh 30.36 in1028.1 mb 0.00 in0.0 mm 0.00 in/hr0.0 mm/hr 0.00 in0.0 mm
09:25 AM 51.3°F10.7°C 39.5°F4.2°C 64% 2.8 mph N4.5 kmh N 4.0 mph6.4 kmh 30.36 in1028.1 mb 0.00 in0.0 mm 0.00 in/hr0.0 mm/hr 0.00 in0.0 mm
09:24 AM 51.3°F10.7°C 39.9°F4.4°C 65% 2.8 mph N4.5 kmh N 4.0 mph6.4 kmh 30.36 in1028.1 mb 0.00 in0.0 mm 0.00 in/hr0.0 mm/hr 0.00 in0.0 mm
09:23 AM 51.3°F10.7°C 39.9°F4.4°C 65% 2.8 mph N4.5 kmh N 4.0 mph6.4 kmh 30.36 in1028.1 mb 0.00 in0.0 mm 0.00 in/hr0.0 mm/hr 0.00 in0.0 mm
09:22 AM 51.3°F10.7°C 40.3°F4.6°C 66% 2.8 mph N4.5 kmh N 4.0 mph6.4 kmh 30.36 in1028.1 mb 0.00 in0.0 mm 0.00 in/hr0.0 mm/hr 0.00 in0.0 mm
09:21 AM 51.4°F10.8°C 40.9°F4.9°C 67% 2.9 mph N4.7 kmh N 4.0 mph6.4 kmh 30.36 in1028.1 mb 0.00 in0.0 mm 0.00 in/hr0.0 mm/hr 0.00 in0.0 mm
09:20 AM 51.4°F10.8°C 40.9°F4.9°C 67% 3.0 mph N4.8 kmh N 4.0 mph6.4 kmh 30.37 in1028.4 mb 0.00 in0.0 mm 0.00 in/hr0.0 mm/hr 0.00 in0.0 mm
09:19 AM 51.3°F10.7°C 40.7°F4.8°C 67% 2.9 mph N4.7 kmh N 4.0 mph6.4 kmh 30.36 in1028.1 mb 0.00 in0.0 mm 0.00 in/hr0.0 mm/hr 0.00 in0.0 mm
09:18 AM 50.9°F10.5°C 40.0°F4.4°C 66% 3.1 mph N5.0 kmh N 4.8 mph7.7 kmh 30.37 in1028.4 mb 0.00 in0.0 mm 0.00 in/hr0.0 mm/hr 0.00 in0.0 mm
09:17 AM 50.9°F10.5°C 40.0°F4.4°C 66% 3.3 mph N5.3 kmh N 4.8 mph7.7 kmh 30.36 in1028.1 mb 0.00 in0.0 mm 0.00 in/hr0.0 mm/hr 0.00 in0.0 mm
09:16 AM 50.9°F10.5°C 40.0°F4.4°C 66% 3.4 mph N5.5 kmh N 4.8 mph7.7 kmh 30.36 in1028.1 mb 0.00 in0.0 mm 0.00 in/hr0.0 mm/hr 0.00 in0.0 mm
09:15 AM 50.7°F10.4°C 39.8°F4.3°C 66% 3.6 mph N5.8 kmh N 4.8 mph7.7 kmh 30.36 in1028.1 mb 0.00 in0.0 mm 0.00 in/hr0.0 mm/hr 0.00 in0.0 mm
09:14 AM 50.5°F10.3°C 39.2°F4.0°C 65% 3.6 mph N5.8 kmh N 4.8 mph7.7 kmh 30.36 in1028.1 mb 0.00 in0.0 mm 0.00 in/hr0.0 mm/hr 0.00 in0.0 mm
09:13 AM 50.7°F10.4°C 39.8°F4.3°C 66% 3.7 mph N6.0 kmh N 4.8 mph7.7 kmh 30.36 in1028.1 mb 0.00 in0.0 mm 0.00 in/hr0.0 mm/hr 0.00 in0.0 mm
09:12 AM 50.7°F10.4°C 39.4°F4.1°C 65% 3.8 mph N6.1 kmh N 4.8 mph7.7 kmh 30.36 in1028.1 mb 0.00 in0.0 mm 0.00 in/hr0.0 mm/hr 0.00 in0.0 mm
09:11 AM 50.7°F10.4°C 39.8°F4.3°C 66% 3.9 mph N6.3 kmh N 4.8 mph7.7 kmh 30.36 in1028.1 mb 0.00 in0.0 mm 0.00 in/hr0.0 mm/hr 0.00 in0.0 mm
09:10 AM 50.7°F10.4°C 39.8°F4.3°C 66% 3.8 mph N6.1 kmh N 4.8 mph7.7 kmh 30.36 in1028.1 mb 0.00 in0.0 mm 0.00 in/hr0.0 mm/hr 0.00 in0.0 mm
09:09 AM 50.5°F10.3°C 40.0°F4.4°C 67% 3.8 mph N6.1 kmh N 4.8 mph7.7 kmh 30.36 in1028.1 mb 0.00 in0.0 mm 0.00 in/hr0.0 mm/hr 0.00 in0.0 mm
09:08 AM 50.7°F10.4°C 40.6°F4.8°C 68% 3.8 mph N6.1 kmh N 4.8 mph7.7 kmh 30.36 in1028.1 mb 0.00 in0.0 mm 0.00 in/hr0.0 mm/hr 0.00 in0.0 mm
09:07 AM 50.5°F10.3°C 40.4°F4.7°C 68% 3.7 mph N6.0 kmh N 4.8 mph7.7 kmh 30.36 in1028.1 mb 0.00 in0.0 mm 0.00 in/hr0.0 mm/hr 0.00 in0.0 mm
09:06 AM 50.5°F10.3°C 40.8°F4.9°C 69% 3.5 mph N5.6 kmh N 4.8 mph7.7 kmh 30.35 in1027.8 mb 0.00 in0.0 mm 0.00 in/hr0.0 mm/hr 0.00 in0.0 mm
09:05 AM 50.5°F10.3°C 41.1°F5.1°C 70% 3.3 mph N5.3 kmh N 4.8 mph7.7 kmh 30.36 in1028.1 mb 0.00 in0.0 mm 0.00 in/hr0.0 mm/hr 0.00 in0.0 mm
09:04 AM 50.5°F10.3°C 41.1°F5.1°C 70% 3.1 mph N5.0 kmh N 4.8 mph7.7 kmh 30.36 in1028.1 mb 0.00 in0.0 mm 0.00 in/hr0.0 mm/hr 0.00 in0.0 mm
09:03 AM 50.5°F10.3°C 41.1°F5.1°C 70% 2.9 mph N4.7 kmh N 4.8 mph7.7 kmh 30.35 in1027.8 mb 0.00 in0.0 mm 0.00 in/hr0.0 mm/hr 0.00 in0.0 mm
09:02 AM 50.4°F10.2°C 41.0°F5.0°C 70% 2.9 mph N4.7 kmh N 4.8 mph7.7 kmh 30.35 in1027.8 mb 0.00 in0.0 mm 0.00 in/hr0.0 mm/hr 0.00 in0.0 mm
09:01 AM 50.5°F10.3°C 41.5°F5.3°C 71% 2.7 mph N4.3 kmh N 4.0 mph6.4 kmh 30.36 in1028.1 mb 0.00 in0.0 mm 0.00 in/hr0.0 mm/hr 0.00 in0.0 mm
09:00 AM 50.7°F10.4°C 41.7°F5.4°C 71% 2.7 mph N4.3 kmh N 4.0 mph6.4 kmh 30.35 in1027.8 mb 0.00 in0.0 mm 0.00 in/hr0.0 mm/hr 0.00 in0.0 mm
08:59 AM 50.5°F10.3°C 41.5°F5.3°C 71% 2.7 mph N4.3 kmh N 4.0 mph6.4 kmh 30.35 in1027.8 mb 0.00 in0.0 mm 0.00 in/hr0.0 mm/hr 0.00 in0.0 mm
08:58 AM 50.4°F10.2°C 41.0°F5.0°C 70% 2.5 mph N4.0 kmh N 4.0 mph6.4 kmh 30.35 in1027.8 mb 0.00 in0.0 mm 0.00 in/hr0.0 mm/hr 0.00 in0.0 mm
08:57 AM 50.4°F10.2°C 41.0°F5.0°C 70% 2.5 mph N4.0 kmh N 3.2 mph5.1 kmh 30.35 in1027.8 mb 0.00 in0.0 mm 0.00 in/hr0.0 mm/hr 0.00 in0.0 mm
08:56 AM 50.4°F10.2°C 41.0°F5.0°C 70% 2.6 mph N4.2 kmh N 3.2 mph5.1 kmh 30.35 in1027.8 mb 0.00 in0.0 mm 0.00 in/hr0.0 mm/hr 0.00 in0.0 mm
08:55 AM 50.2°F10.1°C 40.8°F4.9°C 70% 2.6 mph N4.2 kmh N 3.2 mph5.1 kmh 30.35 in1027.8 mb 0.00 in0.0 mm 0.00 in/hr0.0 mm/hr 0.00 in0.0 mm
08:54 AM 50.2°F10.1°C 40.8°F4.9°C 70% 2.7 mph N4.3 kmh N 3.2 mph5.1 kmh 30.35 in1027.8 mb 0.00 in0.0 mm 0.00 in/hr0.0 mm/hr 0.00 in0.0 mm
08:53 AM 50.0°F10.0°C 40.6°F4.8°C 70% 2.7 mph N4.3 kmh N 3.2 mph5.1 kmh 30.35 in1027.8 mb 0.00 in0.0 mm 0.00 in/hr0.0 mm/hr 0.00 in0.0 mm
08:52 AM 50.0°F10.0°C 40.6°F4.8°C 70% 2.7 mph NNE4.3 kmh NNE 3.2 mph5.1 kmh 30.35 in1027.8 mb 0.00 in0.0 mm 0.00 in/hr0.0 mm/hr 0.00 in0.0 mm
08:51 AM 50.2°F10.1°C 40.8°F4.9°C 70% 2.7 mph NNE4.3 kmh NNE 3.2 mph5.1 kmh 30.35 in1027.8 mb 0.00 in0.0 mm 0.00 in/hr0.0 mm/hr 0.00 in0.0 mm
08:50 AM 50.2°F10.1°C 41.1°F5.1°C 71% 2.6 mph NNE4.2 kmh NNE 3.2 mph5.1 kmh 30.34 in1027.4 mb 0.00 in0.0 mm 0.00 in/hr0.0 mm/hr 0.00 in0.0 mm
08:49 AM 50.2°F10.1°C 40.8°F4.9°C 70% 2.5 mph NNE4.0 kmh NNE 3.2 mph5.1 kmh 30.35 in1027.8 mb 0.00 in0.0 mm 0.00 in/hr0.0 mm/hr 0.00 in0.0 mm
08:48 AM 50.4°F10.2°C 41.3°F5.2°C 71% 2.6 mph NE4.2 kmh NE 4.0 mph6.4 kmh 30.35 in1027.8 mb 0.00 in0.0 mm 0.00 in/hr0.0 mm/hr 0.00 in0.0 mm
08:47 AM 50.2°F10.1°C 41.1°F5.1°C 71% 2.7 mph NE4.3 kmh NE 4.0 mph6.4 kmh 30.34 in1027.4 mb 0.00 in0.0 mm 0.00 in/hr0.0 mm/hr 0.00 in0.0 mm
08:46 AM 50.0°F10.0°C 41.0°F5.0°C 71% 2.7 mph NE4.3 kmh NE 4.0 mph6.4 kmh 30.34 in1027.4 mb 0.00 in0.0 mm 0.00 in/hr0.0 mm/hr 0.00 in0.0 mm
08:45 AM 50.0°F10.0°C 41.0°F5.0°C 71% 2.7 mph NE4.3 kmh NE 4.0 mph6.4 kmh 30.34 in1027.4 mb 0.00 in0.0 mm 0.00 in/hr0.0 mm/hr 0.00 in0.0 mm
08:44 AM 50.0°F10.0°C 41.0°F5.0°C 71% 2.8 mph NE4.5 kmh NE 4.0 mph6.4 kmh 30.34 in1027.4 mb 0.00 in0.0 mm 0.00 in/hr0.0 mm/hr 0.00 in0.0 mm
08:43 AM 49.8°F9.9°C 41.2°F5.1°C 72% 2.7 mph NNE4.3 kmh NNE 4.0 mph6.4 kmh 30.34 in1027.4 mb 0.00 in0.0 mm 0.00 in/hr0.0 mm/hr 0.00 in0.0 mm
08:42 AM 49.8°F9.9°C 40.8°F4.9°C 71% 2.7 mph NNE4.3 kmh NNE 4.0 mph6.4 kmh 30.34 in1027.4 mb 0.00 in0.0 mm 0.00 in/hr0.0 mm/hr 0.00 in0.0 mm
08:41 AM 49.3°F9.6°C 40.3°F4.6°C 71% 2.7 mph NNE4.3 kmh NNE 4.0 mph6.4 kmh 30.34 in1027.4 mb 0.00 in0.0 mm 0.00 in/hr0.0 mm/hr 0.00 in0.0 mm
08:40 AM 49.3°F9.6°C 40.3°F4.6°C 71% 2.7 mph NNE4.3 kmh NNE 4.0 mph6.4 kmh 30.34 in1027.4 mb 0.00 in0.0 mm 0.00 in/hr0.0 mm/hr 0.00 in0.0 mm
08:39 AM 49.1°F9.5°C 40.1°F4.5°C 71% 2.7 mph NNE4.3 kmh NNE 4.0 mph6.4 kmh 30.34 in1027.4 mb 0.00 in0.0 mm 0.00 in/hr0.0 mm/hr 0.00 in0.0 mm
08:38 AM 49.1°F9.5°C 40.5°F4.7°C 72% 2.6 mph N4.2 kmh N 4.0 mph6.4 kmh 30.34 in1027.4 mb 0.00 in0.0 mm 0.00 in/hr0.0 mm/hr 0.00 in0.0 mm
08:37 AM 49.1°F9.5°C 40.5°F4.7°C 72% 2.5 mph N4.0 kmh N 3.2 mph5.1 kmh 30.34 in1027.4 mb 0.00 in0.0 mm 0.00 in/hr0.0 mm/hr 0.00 in0.0 mm
08:36 AM 49.1°F9.5°C 40.5°F4.7°C 72% 2.5 mph N4.0 kmh N 3.2 mph5.1 kmh 30.34 in1027.4 mb 0.00 in0.0 mm 0.00 in/hr0.0 mm/hr 0.00 in0.0 mm
08:35 AM 49.1°F9.5°C 40.5°F4.7°C 72% 2.5 mph N4.0 kmh N 3.2 mph5.1 kmh 30.34 in1027.4 mb 0.00 in0.0 mm 0.00 in/hr0.0 mm/hr 0.00 in0.0 mm
08:34 AM 49.1°F9.5°C 40.5°F4.7°C 72% 2.5 mph N4.0 kmh N 3.2 mph5.1 kmh 30.34 in1027.4 mb 0.00 in0.0 mm 0.00 in/hr0.0 mm/hr 0.00 in0.0 mm
08:33 AM 48.9°F9.4°C 40.3°F4.6°C 72% 2.6 mph N4.2 kmh N 3.2 mph5.1 kmh 30.34 in1027.4 mb 0.00 in0.0 mm 0.00 in/hr0.0 mm/hr 0.00 in0.0 mm
08:32 AM 48.9°F9.4°C 40.7°F4.8°C 73% 2.7 mph N4.3 kmh N 3.2 mph5.1 kmh 30.34 in1027.4 mb 0.00 in0.0 mm 0.00 in/hr0.0 mm/hr 0.00 in0.0 mm
08:31 AM 48.7°F9.3°C 40.1°F4.5°C 72% 2.7 mph N4.3 kmh N 3.2 mph5.1 kmh 30.34 in1027.4 mb 0.00 in0.0 mm 0.00 in/hr0.0 mm/hr 0.00 in0.0 mm
08:30 AM 48.7°F9.3°C 40.1°F4.5°C 72% 2.7 mph N4.3 kmh N 3.2 mph5.1 kmh 30.34 in1027.4 mb 0.00 in0.0 mm 0.00 in/hr0.0 mm/hr 0.00 in0.0 mm
08:29 AM 48.7°F9.3°C 40.1°F4.5°C 72% 2.8 mph N4.5 kmh N 3.2 mph5.1 kmh 30.34 in1027.4 mb 0.00 in0.0 mm 0.00 in/hr0.0 mm/hr 0.00 in0.0 mm
08:28 AM 48.9°F9.4°C 40.7°F4.8°C 73% 2.9 mph N4.7 kmh N 3.2 mph5.1 kmh 30.33 in1027.1 mb 0.00 in0.0 mm 0.00 in/hr0.0 mm/hr 0.00 in0.0 mm
08:27 AM 48.9°F9.4°C 40.7°F4.8°C 73% 2.9 mph N4.7 kmh N 3.2 mph5.1 kmh 30.33 in1027.1 mb 0.00 in0.0 mm 0.00 in/hr0.0 mm/hr 0.00 in0.0 mm
08:26 AM 48.7°F9.3°C 40.1°F4.5°C 72% 2.9 mph N4.7 kmh N 3.2 mph5.1 kmh 30.34 in1027.4 mb 0.00 in0.0 mm 0.00 in/hr0.0 mm/hr 0.00 in0.0 mm
08:25 AM 48.7°F9.3°C 40.1°F4.5°C 72% 2.8 mph N4.5 kmh N 3.2 mph5.1 kmh 30.33 in1027.1 mb 0.00 in0.0 mm 0.00 in/hr0.0 mm/hr 0.00 in0.0 mm
08:24 AM 48.7°F9.3°C 40.1°F4.5°C 72% 2.8 mph N4.5 kmh N 3.2 mph5.1 kmh 30.33 in1027.1 mb 0.00 in0.0 mm 0.00 in/hr0.0 mm/hr 0.00 in0.0 mm
08:23 AM 48.6°F9.2°C 40.0°F4.4°C 72% 2.9 mph N4.7 kmh N 4.0 mph6.4 kmh 30.33 in1027.1 mb 0.00 in0.0 mm 0.00 in/hr0.0 mm/hr 0.00 in0.0 mm
08:22 AM 48.4°F9.1°C 40.1°F4.5°C 73% 2.9 mph N4.7 kmh N 4.0 mph6.4 kmh 30.33 in1027.1 mb 0.00 in0.0 mm 0.00 in/hr0.0 mm/hr 0.00 in0.0 mm
08:21 AM 48.4°F9.1°C 40.1°F4.5°C 73% 2.9 mph N4.7 kmh N 4.0 mph6.4 kmh 30.33 in1027.1 mb 0.00 in0.0 mm 0.00 in/hr0.0 mm/hr 0.00 in0.0 mm
08:20 AM 48.4°F9.1°C 40.1°F4.5°C 73% 3.0 mph N4.8 kmh N 4.0 mph6.4 kmh 30.33 in1027.1 mb 0.00 in0.0 mm 0.00 in/hr0.0 mm/hr 0.00 in0.0 mm
08:19 AM 48.2°F9.0°C 40.0°F4.4°C 73% 2.9 mph N4.7 kmh N 4.0 mph6.4 kmh 30.33 in1027.1 mb 0.00 in0.0 mm 0.00 in/hr0.0 mm/hr 0.00 in0.0 mm
08:18 AM 48.2°F9.0°C 40.0°F4.4°C 73% 2.6 mph N4.2 kmh N 4.0 mph6.4 kmh 30.33 in1027.1 mb 0.00 in0.0 mm 0.00 in/hr0.0 mm/hr 0.00 in0.0 mm
08:17 AM 48.2°F9.0°C 40.0°F4.4°C 73% 2.4 mph N3.9 kmh N 4.0 mph6.4 kmh 30.33 in1027.1 mb 0.00 in0.0 mm 0.00 in/hr0.0 mm/hr 0.00 in0.0 mm
08:16 AM 48.2°F9.0°C 40.0°F4.4°C 73% 2.3 mph N3.7 kmh N 4.0 mph6.4 kmh 30.33 in1027.1 mb 0.00 in0.0 mm 0.00 in/hr0.0 mm/hr 0.00 in0.0 mm
08:15 AM 48.0°F8.9°C 40.1°F4.5°C 74% 2.3 mph N3.7 kmh N 4.0 mph6.4 kmh 30.32 in1026.8 mb 0.00 in0.0 mm 0.00 in/hr0.0 mm/hr 0.00 in0.0 mm
08:14 AM 48.0°F8.9°C 40.5°F4.7°C 75% 2.2 mph N3.5 kmh N 4.0 mph6.4 kmh 30.33 in1027.1 mb 0.00 in0.0 mm 0.00 in/hr0.0 mm/hr 0.00 in0.0 mm
08:13 AM 48.2°F9.0°C 40.3°F4.6°C 74% 1.9 mph N3.1 kmh N 4.0 mph6.4 kmh 30.33 in1027.1 mb 0.00 in0.0 mm 0.00 in/hr0.0 mm/hr 0.00 in0.0 mm
08:12 AM 48.2°F9.0°C 40.3°F4.6°C 74% 1.8 mph N2.9 kmh N 4.0 mph6.4 kmh 30.33 in1027.1 mb 0.00 in0.0 mm 0.00 in/hr0.0 mm/hr 0.00 in0.0 mm
08:11 AM 48.4°F9.1°C 40.5°F4.7°C 74% 1.7 mph N2.7 kmh N 4.0 mph6.4 kmh 30.33 in1027.1 mb 0.00 in0.0 mm 0.00 in/hr0.0 mm/hr 0.00 in0.0 mm
08:10 AM 48.4°F9.1°C 40.5°F4.7°C 74% 1.6 mph N2.6 kmh N 4.0 mph6.4 kmh 30.33 in1027.1 mb 0.00 in0.0 mm 0.00 in/hr0.0 mm/hr 0.00 in0.0 mm
08:09 AM 48.4°F9.1°C 40.5°F4.7°C 74% 1.7 mph N2.7 kmh N 2.4 mph3.9 kmh 30.33 in1027.1 mb 0.00 in0.0 mm 0.00 in/hr0.0 mm/hr 0.00 in0.0 mm
08:08 AM 48.4°F9.1°C 40.5°F4.7°C 74% 1.8 mph N2.9 kmh N 2.4 mph3.9 kmh 30.33 in1027.1 mb 0.00 in0.0 mm 0.00 in/hr0.0 mm/hr 0.00 in0.0 mm
08:07 AM 48.2°F9.0°C 40.3°F4.6°C 74% 2.0 mph N3.2 kmh N 2.4 mph3.9 kmh 30.33 in1027.1 mb 0.00 in0.0 mm 0.00 in/hr0.0 mm/hr 0.00 in0.0 mm
08:06 AM 48.2°F9.0°C 40.7°F4.8°C 75% 2.0 mph N3.2 kmh N 2.4 mph3.9 kmh 30.33 in1027.1 mb 0.00 in0.0 mm 0.00 in/hr0.0 mm/hr 0.00 in0.0 mm
08:05 AM 48.2°F9.0°C 40.7°F4.8°C 75% 2.0 mph NNE3.2 kmh NNE 2.4 mph3.9 kmh 30.33 in1027.1 mb 0.00 in0.0 mm 0.00 in/hr0.0 mm/hr 0.00 in0.0 mm
08:04 AM 47.8°F8.8°C 41.6°F5.3°C 79% 2.0 mph NNE3.2 kmh NNE 2.4 mph3.9 kmh 30.33 in1027.1 mb 0.00 in0.0 mm 0.00 in/hr0.0 mm/hr 0.00 in0.0 mm
08:03 AM 47.8°F8.8°C 41.6°F5.3°C 79% 1.9 mph NNE3.1 kmh NNE 2.4 mph3.9 kmh 30.32 in1026.8 mb 0.00 in0.0 mm 0.00 in/hr0.0 mm/hr 0.00 in0.0 mm
08:02 AM 47.8°F8.8°C 41.6°F5.3°C 79% 1.9 mph NNE3.1 kmh NNE 2.4 mph3.9 kmh 30.32 in1026.8 mb 0.00 in0.0 mm 0.00 in/hr0.0 mm/hr 0.00 in0.0 mm
08:01 AM 47.8°F8.8°C 41.6°F5.3°C 79% 1.9 mph NE3.1 kmh NE 2.4 mph3.9 kmh 30.32 in1026.8 mb 0.00 in0.0 mm 0.00 in/hr0.0 mm/hr 0.00 in0.0 mm
08:00 AM 47.8°F8.8°C 41.6°F5.3°C 79% 1.7 mph NE2.7 kmh NE 2.4 mph3.9 kmh 30.32 in1026.8 mb 0.00 in0.0 mm 0.00 in/hr0.0 mm/hr 0.00 in0.0 mm
07:59 AM 47.8°F8.8°C 41.6°F5.3°C 79% 1.5 mph NE2.4 kmh NE 2.4 mph3.9 kmh 30.32 in1026.8 mb 0.00 in0.0 mm 0.00 in/hr0.0 mm/hr 0.00 in0.0 mm
07:58 AM 47.8°F8.8°C 41.6°F5.3°C 79% 1.4 mph NE2.3 kmh NE 2.4 mph3.9 kmh 30.32 in1026.8 mb 0.00 in0.0 mm 0.00 in/hr0.0 mm/hr 0.00 in0.0 mm
07:57 AM 47.7°F8.7°C 41.5°F5.3°C 79% 1.3 mph NE2.1 kmh NE 2.4 mph3.9 kmh 30.32 in1026.8 mb 0.00 in0.0 mm 0.00 in/hr0.0 mm/hr 0.00 in0.0 mm
07:56 AM 47.8°F8.8°C 41.3°F5.2°C 78% 1.2 mph NE1.9 kmh NE 2.4 mph3.9 kmh 30.32 in1026.8 mb 0.00 in0.0 mm 0.00 in/hr0.0 mm/hr 0.00 in0.0 mm
07:55 AM 47.7°F8.7°C 41.5°F5.3°C 79% 1.0 mph NE1.6 kmh NE 2.4 mph3.9 kmh 30.32 in1026.8 mb 0.00 in0.0 mm 0.00 in/hr0.0 mm/hr 0.00 in0.0 mm
07:54 AM 47.7°F8.7°C 41.8°F5.4°C 80% 1.0 mph NE1.6 kmh NE 2.4 mph3.9 kmh 30.32 in1026.8 mb 0.00 in0.0 mm 0.00 in/hr0.0 mm/hr 0.00 in0.0 mm
07:53 AM 47.5°F8.6°C 41.9°F5.5°C 81% 0.9 mph NE1.4 kmh NE 2.4 mph3.9 kmh 30.32 in1026.8 mb 0.00 in0.0 mm 0.00 in/hr0.0 mm/hr 0.00 in0.0 mm
07:52 AM 47.5°F8.6°C 42.3°F5.7°C 82% 0.7 mph NE1.1 kmh NE 2.4 mph3.9 kmh 30.32 in1026.8 mb 0.00 in0.0 mm 0.00 in/hr0.0 mm/hr 0.00 in0.0 mm
07:51 AM 47.3°F8.5°C 42.1°F5.6°C 82% 0.5 mph NE0.8 kmh NE 2.4 mph3.9 kmh 30.32 in1026.8 mb 0.00 in0.0 mm 0.00 in/hr0.0 mm/hr 0.00 in0.0 mm
07:50 AM 47.3°F8.5°C 42.1°F5.6°C 82% 0.4 mph ENE0.6 kmh ENE 3.2 mph5.1 kmh 30.32 in1026.8 mb 0.00 in0.0 mm 0.00 in/hr0.0 mm/hr 0.00 in0.0 mm
07:49 AM 47.1°F8.4°C 41.9°F5.5°C 82% 0.6 mph E1.0 kmh E 3.2 mph5.1 kmh 30.32 in1026.8 mb 0.00 in0.0 mm 0.00 in/hr0.0 mm/hr 0.00 in0.0 mm
07:48 AM 47.1°F8.4°C 42.2°F5.7°C 83% 0.6 mph E1.0 kmh E 3.2 mph5.1 kmh 30.32 in1026.8 mb 0.00 in0.0 mm 0.00 in/hr0.0 mm/hr 0.00 in0.0 mm
07:47 AM 46.9°F8.3°C 42.1°F5.6°C 83% 0.5 mph E0.8 kmh E 3.2 mph5.1 kmh 30.32 in1026.8 mb 0.00 in0.0 mm 0.00 in/hr0.0 mm/hr 0.00 in0.0 mm
07:46 AM 46.9°F8.3°C 42.1°F5.6°C 83% 0.5 mph E0.8 kmh E 3.2 mph5.1 kmh 30.32 in1026.8 mb 0.00 in0.0 mm 0.00 in/hr0.0 mm/hr 0.00 in0.0 mm
07:45 AM 46.9°F8.3°C 42.1°F5.6°C 83% 0.4 mph E0.6 kmh E 3.2 mph5.1 kmh 30.32 in1026.8 mb 0.00 in0.0 mm 0.00 in/hr0.0 mm/hr 0.00 in0.0 mm
07:44 AM 46.9°F8.3°C 42.1°F5.6°C 83% 0.3 mph E0.5 kmh E 3.2 mph5.1 kmh 30.32 in1026.8 mb 0.00 in0.0 mm 0.00 in/hr0.0 mm/hr 0.00 in0.0 mm
07:43 AM 46.9°F8.3°C 42.1°F5.6°C 83% 0.4 mph E0.6 kmh E 3.2 mph5.1 kmh 30.32 in1026.8 mb 0.00 in0.0 mm 0.00 in/hr0.0 mm/hr 0.00 in0.0 mm
07:42 AM 46.9°F8.3°C 42.1°F5.6°C 83% 0.4 mph E0.6 kmh E 3.2 mph5.1 kmh 30.32 in1026.8 mb 0.00 in0.0 mm 0.00 in/hr0.0 mm/hr 0.00 in0.0 mm
07:41 AM 46.8°F8.2°C 41.9°F5.5°C 83% 0.4 mph E0.6 kmh E 3.2 mph5.1 kmh 30.32 in1026.8 mb 0.00 in0.0 mm 0.00 in/hr0.0 mm/hr 0.00 in0.0 mm
07:40 AM 46.6°F8.1°C 41.4°F5.2°C 82% 0.4 mph ENE0.6 kmh ENE 3.2 mph5.1 kmh 30.32 in1026.8 mb 0.00 in0.0 mm 0.00 in/hr0.0 mm/hr 0.00 in0.0 mm
07:39 AM 46.6°F8.1°C 41.7°F5.4°C 83% 0.2 mph N0.3 kmh N 0.8 mph1.3 kmh 30.32 in1026.8 mb 0.00 in0.0 mm 0.00 in/hr0.0 mm/hr 0.00 in0.0 mm
07:38 AM 46.6°F8.1°C 41.7°F5.4°C 83% 0.1 mph N0.2 kmh N 0.8 mph1.3 kmh 30.32 in1026.8 mb 0.00 in0.0 mm 0.00 in/hr0.0 mm/hr 0.00 in0.0 mm
07:37 AM 46.4°F8.0°C 41.5°F5.3°C 83% 0.1 mph N0.2 kmh N 0.8 mph1.3 kmh 30.32 in1026.8 mb 0.00 in0.0 mm 0.00 in/hr0.0 mm/hr 0.00 in0.0 mm
07:36 AM 46.4°F8.0°C 41.5°F5.3°C 83% 0.1 mph N0.2 kmh N 0.8 mph1.3 kmh 30.32 in1026.8 mb 0.00 in0.0 mm 0.00 in/hr0.0 mm/hr 0.00 in0.0 mm
07:35 AM 46.2°F7.9°C 41.3°F5.2°C 83% 0.2 mph N0.3 kmh N 0.8 mph1.3 kmh 30.32 in1026.8 mb 0.00 in0.0 mm 0.00 in/hr0.0 mm/hr 0.00 in0.0 mm
07:34 AM 46.0°F7.8°C 41.2°F5.1°C 83% 0.3 mph N0.5 kmh N 1.6 mph2.6 kmh 30.32 in1026.8 mb 0.00 in0.0 mm 0.00 in/hr0.0 mm/hr 0.00 in0.0 mm
07:33 AM 46.0°F7.8°C 41.2°F5.1°C 83% 0.2 mph N0.3 kmh N 1.6 mph2.6 kmh 30.31 in1026.4 mb 0.00 in0.0 mm 0.00 in/hr0.0 mm/hr 0.00 in0.0 mm
07:32 AM 45.9°F7.7°C 41.0°F5.0°C 83% 0.3 mph N0.5 kmh N 1.6 mph2.6 kmh 30.32 in1026.8 mb 0.00 in0.0 mm 0.00 in/hr0.0 mm/hr 0.00 in0.0 mm
07:31 AM 45.9°F7.7°C 41.0°F5.0°C 83% 0.4 mph N0.6 kmh N 1.6 mph2.6 kmh 30.31 in1026.4 mb 0.00 in0.0 mm 0.00 in/hr0.0 mm/hr 0.00 in0.0 mm
07:30 AM 45.7°F7.6°C 40.8°F4.9°C 83% 0.4 mph N0.6 kmh N 1.6 mph2.6 kmh 30.31 in1026.4 mb 0.00 in0.0 mm 0.00 in/hr0.0 mm/hr 0.00 in0.0 mm
07:29 AM 45.7°F7.6°C 40.8°F4.9°C 83% 0.4 mph N0.6 kmh N 1.6 mph2.6 kmh 30.31 in1026.4 mb 0.00 in0.0 mm 0.00 in/hr0.0 mm/hr 0.00 in0.0 mm
07:28 AM 45.7°F7.6°C 40.8°F4.9°C 83% 0.4 mph N0.6 kmh N 1.6 mph2.6 kmh 30.32 in1026.8 mb 0.00 in0.0 mm 0.00 in/hr0.0 mm/hr 0.00 in0.0 mm
07:27 AM 45.7°F7.6°C 40.8°F4.9°C 83% 0.4 mph N0.6 kmh N 1.6 mph2.6 kmh 30.31 in1026.4 mb 0.00 in0.0 mm 0.00 in/hr0.0 mm/hr 0.00 in0.0 mm
07:26 AM 45.7°F7.6°C 40.8°F4.9°C 83% 0.4 mph N0.6 kmh N 1.6 mph2.6 kmh 30.31 in1026.4 mb 0.00 in0.0 mm 0.00 in/hr0.0 mm/hr 0.00 in0.0 mm
07:25 AM 45.9°F7.7°C 41.3°F5.2°C 84% 0.4 mph N0.6 kmh N 1.6 mph2.6 kmh 30.31 in1026.4 mb 0.00 in0.0 mm 0.00 in/hr0.0 mm/hr 0.00 in0.0 mm
07:24 AM 45.9°F7.7°C 41.3°F5.2°C 84% 0.2 mph N0.3 kmh N 1.6 mph2.6 kmh 30.32 in1026.8 mb 0.00 in0.0 mm 0.00 in/hr0.0 mm/hr 0.00 in0.0 mm
07:23 AM 45.9°F7.7°C 41.3°F5.2°C 84% 0.2 mph N0.3 kmh N 1.6 mph2.6 kmh 30.31 in1026.4 mb 0.00 in0.0 mm 0.00 in/hr0.0 mm/hr 0.00 in0.0 mm
07:22 AM 45.9°F7.7°C 41.3°F5.2°C 84% 0.2 mph N0.3 kmh N 1.6 mph2.6 kmh 30.31 in1026.4 mb 0.00 in0.0 mm 0.00 in/hr0.0 mm/hr 0.00 in0.0 mm
07:21 AM 45.9°F7.7°C 41.3°F5.2°C 84% Calm Calm -- 30.31 in1026.4 mb 0.00 in0.0 mm 0.00 in/hr0.0 mm/hr 0.00 in0.0 mm
07:20 AM 45.7°F7.6°C 41.1°F5.1°C 84% Calm Calm -- 30.31 in1026.4 mb 0.00 in0.0 mm 0.00 in/hr0.0 mm/hr 0.00 in0.0 mm
07:19 AM 45.7°F7.6°C 41.1°F5.1°C 84% Calm Calm -- 30.31 in1026.4 mb 0.00 in0.0 mm 0.00 in/hr0.0 mm/hr 0.00 in0.0 mm
07:18 AM 45.7°F7.6°C 41.1°F5.1°C 84% Calm Calm -- 30.30 in1026.1 mb 0.00 in0.0 mm 0.00 in/hr0.0 mm/hr 0.00 in0.0 mm
07:17 AM 45.5°F7.5°C 40.6°F4.8°C 83% Calm Calm -- 30.31 in1026.4 mb 0.00 in0.0 mm 0.00 in/hr0.0 mm/hr 0.00 in0.0 mm
07:16 AM 45.5°F7.5°C 40.6°F4.8°C 83% Calm Calm -- 30.31 in1026.4 mb 0.00 in0.0 mm 0.00 in/hr0.0 mm/hr 0.00 in0.0 mm
07:15 AM 45.7°F7.6°C 40.8°F4.9°C 83% Calm Calm -- 30.31 in1026.4 mb 0.00 in0.0 mm 0.00 in/hr0.0 mm/hr 0.00 in0.0 mm
07:14 AM 45.5°F7.5°C 40.6°F4.8°C 83% Calm Calm -- 30.31 in1026.4 mb 0.00 in0.0 mm 0.00 in/hr0.0 mm/hr 0.00 in0.0 mm
07:13 AM 45.5°F7.5°C 40.6°F4.8°C 83% Calm Calm -- 30.30 in1026.1 mb 0.00 in0.0 mm 0.00 in/hr0.0 mm/hr 0.00 in0.0 mm
07:12 AM 45.3°F7.4°C 40.8°F4.9°C 84% Calm Calm -- 30.30 in1026.1 mb 0.00 in0.0 mm 0.00 in/hr0.0 mm/hr 0.00 in0.0 mm
07:11 AM 45.3°F7.4°C 40.8°F4.9°C 84% Calm Calm -- 30.30 in1026.1 mb 0.00 in0.0 mm 0.00 in/hr0.0 mm/hr 0.00 in0.0 mm
07:10 AM 45.3°F7.4°C 40.8°F4.9°C 84% Calm Calm -- 30.30 in1026.1 mb 0.00 in0.0 mm 0.00 in/hr0.0 mm/hr 0.00 in0.0 mm
07:09 AM 45.3°F7.4°C 40.8°F4.9°C 84% Calm Calm -- 30.30 in1026.1 mb 0.00 in0.0 mm 0.00 in/hr0.0 mm/hr 0.00 in0.0 mm
07:08 AM 45.3°F7.4°C 40.5°F4.7°C 83% Calm Calm -- 30.30 in1026.1 mb 0.00 in0.0 mm 0.00 in/hr0.0 mm/hr 0.00 in0.0 mm
07:07 AM 45.3°F7.4°C 40.8°F4.9°C 84% Calm Calm -- 30.30 in1026.1 mb 0.00 in0.0 mm 0.00 in/hr0.0 mm/hr 0.00 in0.0 mm
07:06 AM 45.3°F7.4°C 40.5°F4.7°C 83% 0.1 mph N0.2 kmh N 1.6 mph2.6 kmh 30.30 in1026.1 mb 0.00 in0.0 mm 0.00 in/hr0.0 mm/hr 0.00 in0.0 mm
07:05 AM 45.3°F7.4°C 40.5°F4.7°C 83% 0.1 mph N0.2 kmh N 1.6 mph2.6 kmh 30.30 in1026.1 mb 0.00 in0.0 mm 0.00 in/hr0.0 mm/hr 0.00 in0.0 mm
07:04 AM 45.3°F7.4°C 40.5°F4.7°C 83% 0.1 mph N0.2 kmh N 1.6 mph2.6 kmh 30.30 in1026.1 mb 0.00 in0.0 mm 0.00 in/hr0.0 mm/hr 0.00 in0.0 mm
07:03 AM 45.1°F7.3°C 40.3°F4.6°C 83% 0.1 mph N0.2 kmh N 1.6 mph2.6 kmh 30.30 in1026.1 mb 0.00 in0.0 mm 0.00 in/hr0.0 mm/hr 0.00 in0.0 mm
07:02 AM 45.1°F7.3°C 40.3°F4.6°C 83% 0.1 mph N0.2 kmh N 1.6 mph2.6 kmh 30.30 in1026.1 mb 0.00 in0.0 mm 0.00 in/hr0.0 mm/hr 0.00 in0.0 mm
07:01 AM 45.1°F7.3°C 40.3°F4.6°C 83% 0.1 mph N0.2 kmh N 1.6 mph2.6 kmh 30.30 in1026.1 mb 0.00 in0.0 mm 0.00 in/hr0.0 mm/hr 0.00 in0.0 mm
07:00 AM 45.3°F7.4°C 40.5°F4.7°C 83% 0.1 mph N0.2 kmh N 1.6 mph2.6 kmh 30.30 in1026.1 mb 0.00 in0.0 mm 0.00 in/hr0.0 mm/hr 0.00 in0.0 mm
06:59 AM 45.3°F7.4°C 40.5°F4.7°C 83% 0.1 mph N0.2 kmh N 1.6 mph2.6 kmh 30.29 in1025.7 mb 0.00 in0.0 mm 0.00 in/hr0.0 mm/hr 0.00 in0.0 mm
06:58 AM 45.3°F7.4°C 40.5°F4.7°C 83% 0.1 mph N0.2 kmh N 1.6 mph2.6 kmh 30.30 in1026.1 mb 0.00 in0.0 mm 0.00 in/hr0.0 mm/hr 0.00 in0.0 mm
06:57 AM 45.5°F7.5°C 40.3°F4.6°C 82% 0.1 mph N0.2 kmh N 1.6 mph2.6 kmh 30.30 in1026.1 mb 0.00 in0.0 mm 0.00 in/hr0.0 mm/hr 0.00 in0.0 mm
06:56 AM 45.5°F7.5°C 40.3°F4.6°C 82% Calm Calm -- 30.29 in1025.7 mb 0.00 in0.0 mm 0.00 in/hr0.0 mm/hr 0.00 in0.0 mm
06:55 AM 45.5°F7.5°C 40.3°F4.6°C 82% Calm Calm -- 30.29 in1025.7 mb 0.00 in0.0 mm 0.00 in/hr0.0 mm/hr 0.00 in0.0 mm
06:54 AM 45.5°F7.5°C 40.3°F4.6°C 82% 0.2 mph N0.3 kmh N 2.4 mph3.9 kmh 30.30 in1026.1 mb 0.00 in0.0 mm 0.00 in/hr0.0 mm/hr 0.00 in0.0 mm
06:53 AM 45.7°F7.6°C 40.5°F4.7°C 82% 0.3 mph N0.5 kmh N 2.4 mph3.9 kmh 30.29 in1025.7 mb 0.00 in0.0 mm 0.00 in/hr0.0 mm/hr 0.00 in0.0 mm
06:52 AM 45.7°F7.6°C 40.5°F4.7°C 82% 0.4 mph N0.6 kmh N 2.4 mph3.9 kmh 30.29 in1025.7 mb 0.00 in0.0 mm 0.00 in/hr0.0 mm/hr 0.00 in0.0 mm
06:51 AM 45.7°F7.6°C 40.5°F4.7°C 82% 0.6 mph N1.0 kmh N 2.4 mph3.9 kmh 30.29 in1025.7 mb 0.00 in0.0 mm 0.00 in/hr0.0 mm/hr 0.00 in0.0 mm
06:50 AM 45.7°F7.6°C 40.5°F4.7°C 82% 0.7 mph N1.1 kmh N 2.4 mph3.9 kmh 30.29 in1025.7 mb 0.00 in0.0 mm 0.00 in/hr0.0 mm/hr 0.00 in0.0 mm
06:49 AM 45.7°F7.6°C 40.2°F4.6°C 81% 0.9 mph N1.4 kmh N 2.4 mph3.9 kmh 30.29 in1025.7 mb 0.00 in0.0 mm 0.00 in/hr0.0 mm/hr 0.00 in0.0 mm
06:48 AM 45.7°F7.6°C 40.2°F4.6°C 81% 0.9 mph N1.4 kmh N 2.4 mph3.9 kmh 30.28 in1025.4 mb 0.00 in0.0 mm 0.00 in/hr0.0 mm/hr 0.00 in0.0 mm
06:47 AM 45.9°F7.7°C 40.4°F4.7°C 81% 1.0 mph N1.6 kmh N 2.4 mph3.9 kmh 30.28 in1025.4 mb 0.00 in0.0 mm 0.00 in/hr0.0 mm/hr 0.00 in0.0 mm
06:46 AM 45.9°F7.7°C 40.4°F4.7°C 81% 1.2 mph N1.9 kmh N 2.4 mph3.9 kmh 30.28 in1025.4 mb 0.00 in0.0 mm 0.00 in/hr0.0 mm/hr 0.00 in0.0 mm
06:45 AM 45.9°F7.7°C 40.4°F4.7°C 81% 1.3 mph N2.1 kmh N 2.4 mph3.9 kmh 30.28 in1025.4 mb 0.00 in0.0 mm 0.00 in/hr0.0 mm/hr 0.00 in0.0 mm
06:44 AM 45.9°F7.7°C 40.4°F4.7°C 81% 1.2 mph N1.9 kmh N 1.6 mph2.6 kmh 30.28 in1025.4 mb 0.00 in0.0 mm 0.00 in/hr0.0 mm/hr 0.00 in0.0 mm
06:43 AM 45.9°F7.7°C 40.7°F4.8°C 82% 1.2 mph N1.9 kmh N 1.6 mph2.6 kmh 30.28 in1025.4 mb 0.00 in0.0 mm 0.00 in/hr0.0 mm/hr 0.00 in0.0 mm
06:42 AM 46.0°F7.8°C 40.9°F4.9°C 82% 1.1 mph N1.8 kmh N 1.6 mph2.6 kmh 30.29 in1025.7 mb 0.00 in0.0 mm 0.00 in/hr0.0 mm/hr 0.00 in0.0 mm
06:41 AM 45.9°F7.7°C 40.7°F4.8°C 82% 1.0 mph N1.6 kmh N 1.6 mph2.6 kmh 30.28 in1025.4 mb 0.00 in0.0 mm 0.00 in/hr0.0 mm/hr 0.00 in0.0 mm
06:40 AM 45.9°F7.7°C 40.7°F4.8°C 82% 0.9 mph N1.4 kmh N 1.6 mph2.6 kmh 30.28 in1025.4 mb 0.00 in0.0 mm 0.00 in/hr0.0 mm/hr 0.00 in0.0 mm
06:39 AM 45.9°F7.7°C 40.4°F4.7°C 81% 0.8 mph N1.3 kmh N 1.6 mph2.6 kmh 30.28 in1025.4 mb 0.00 in0.0 mm 0.00 in/hr0.0 mm/hr 0.00 in0.0 mm
06:38 AM 45.9°F7.7°C 40.4°F4.7°C 81% 0.7 mph N1.1 kmh N 1.6 mph2.6 kmh 30.28 in1025.4 mb 0.00 in0.0 mm 0.00 in/hr0.0 mm/hr 0.00 in0.0 mm
06:37 AM 45.9°F7.7°C 40.4°F4.7°C 81% 0.8 mph N1.3 kmh N 2.4 mph3.9 kmh 30.29 in1025.7 mb 0.00 in0.0 mm 0.00 in/hr0.0 mm/hr 0.00 in0.0 mm
06:36 AM 45.9°F7.7°C 40.4°F4.7°C 81% 0.8 mph NNW1.3 kmh NNW 2.4 mph3.9 kmh 30.28 in1025.4 mb 0.00 in0.0 mm 0.00 in/hr0.0 mm/hr 0.00 in0.0 mm
06:35 AM 45.9°F7.7°C 40.4°F4.7°C 81% 0.9 mph NW1.4 kmh NW 2.4 mph3.9 kmh 30.28 in1025.4 mb 0.00 in0.0 mm 0.00 in/hr0.0 mm/hr 0.00 in0.0 mm
06:34 AM 46.0°F7.8°C 40.5°F4.7°C 81% 0.9 mph NNW1.4 kmh NNW 2.4 mph3.9 kmh 30.28 in1025.4 mb 0.00 in0.0 mm 0.00 in/hr0.0 mm/hr 0.00 in0.0 mm
06:33 AM 46.0°F7.8°C 40.5°F4.7°C 81% 0.9 mph NNW1.4 kmh NNW 2.4 mph3.9 kmh 30.28 in1025.4 mb 0.00 in0.0 mm 0.00 in/hr0.0 mm/hr 0.00 in0.0 mm
06:32 AM 46.0°F7.8°C 40.5°F4.7°C 81% 1.0 mph NNW1.6 kmh NNW 2.4 mph3.9 kmh 30.28 in1025.4 mb 0.00 in0.0 mm 0.00 in/hr0.0 mm/hr 0.00 in0.0 mm
06:31 AM 46.0°F7.8°C 40.5°F4.7°C 81% 1.2 mph NW1.9 kmh NW 2.4 mph3.9 kmh 30.28 in1025.4 mb 0.00 in0.0 mm 0.00 in/hr0.0 mm/hr 0.00 in0.0 mm
06:30 AM 46.0°F7.8°C 40.5°F4.7°C 81% 1.4 mph NW2.3 kmh NW 2.4 mph3.9 kmh 30.28 in1025.4 mb 0.00 in0.0 mm 0.00 in/hr0.0 mm/hr 0.00 in0.0 mm
06:29 AM 46.0°F7.8°C 40.5°F4.7°C 81% 1.6 mph NW2.6 kmh NW 2.4 mph3.9 kmh 30.28 in1025.4 mb 0.00 in0.0 mm 0.00 in/hr0.0 mm/hr 0.00 in0.0 mm
06:28 AM 46.0°F7.8°C 40.5°F4.7°C 81% 1.8 mph NW2.9 kmh NW 2.4 mph3.9 kmh 30.28 in1025.4 mb 0.00 in0.0 mm 0.00 in/hr0.0 mm/hr 0.00 in0.0 mm
06:27 AM 46.0°F7.8°C 40.5°F4.7°C 81% 1.8 mph NW2.9 kmh NW 2.4 mph3.9 kmh 30.28 in1025.4 mb 0.00 in0.0 mm 0.00 in/hr0.0 mm/hr 0.00 in0.0 mm
06:26 AM 46.0°F7.8°C 40.5°F4.7°C 81% 1.5 mph NW2.4 kmh NW 2.4 mph3.9 kmh 30.28 in1025.4 mb 0.00 in0.0 mm 0.00 in/hr0.0 mm/hr 0.00 in0.0 mm
06:25 AM 46.0°F7.8°C 40.5°F4.7°C 81% 1.4 mph NW2.3 kmh NW 2.4 mph3.9 kmh 30.28 in1025.4 mb 0.00 in0.0 mm 0.00 in/hr0.0 mm/hr 0.00 in0.0 mm
06:24 AM 46.2°F7.9°C 40.7°F4.8°C 81% 1.3 mph NW2.1 kmh NW 2.4 mph3.9 kmh 30.28 in1025.4 mb 0.00 in0.0 mm 0.00 in/hr0.0 mm/hr 0.00 in0.0 mm
06:23 AM 46.2°F7.9°C 41.0°F5.0°C 82% 1.4 mph NW2.3 kmh NW 2.4 mph3.9 kmh 30.28 in1025.4 mb 0.00 in0.0 mm 0.00 in/hr0.0 mm/hr 0.00 in0.0 mm
06:22 AM 46.2°F7.9°C 41.0°F5.0°C 82% 1.4 mph NW2.3 kmh NW 2.4 mph3.9 kmh 30.27 in1025.1 mb 0.00 in0.0 mm 0.00 in/hr0.0 mm/hr 0.00 in0.0 mm
06:21 AM 46.2°F7.9°C 41.0°F5.0°C 82% 1.3 mph NNW2.1 kmh NNW 2.4 mph3.9 kmh 30.27 in1025.1 mb 0.00 in0.0 mm 0.00 in/hr0.0 mm/hr 0.00 in0.0 mm
06:20 AM 46.2°F7.9°C 41.0°F5.0°C 82% 1.2 mph N1.9 kmh N 2.4 mph3.9 kmh 30.27 in1025.1 mb 0.00 in0.0 mm 0.00 in/hr0.0 mm/hr 0.00 in0.0 mm
06:19 AM 46.2°F7.9°C 41.0°F5.0°C 82% 1.1 mph N1.8 kmh N 2.4 mph3.9 kmh 30.27 in1025.1 mb 0.00 in0.0 mm 0.00 in/hr0.0 mm/hr 0.00 in0.0 mm
06:18 AM 46.2°F7.9°C 41.0°F5.0°C 82% 1.2 mph N1.9 kmh N 2.4 mph3.9 kmh 30.27 in1025.1 mb 0.00 in0.0 mm 0.00 in/hr0.0 mm/hr 0.00 in0.0 mm
06:17 AM 46.2°F7.9°C 40.7°F4.8°C 81% 1.3 mph N2.1 kmh N 2.4 mph3.9 kmh 30.27 in1025.1 mb 0.00 in0.0 mm 0.00 in/hr0.0 mm/hr 0.00 in0.0 mm
06:16 AM 46.0°F7.8°C 40.5°F4.7°C 81% 1.6 mph N2.6 kmh N 2.4 mph3.9 kmh 30.27 in1025.1 mb 0.00 in0.0 mm 0.00 in/hr0.0 mm/hr 0.00 in0.0 mm
06:15 AM 46.0°F7.8°C 40.9°F4.9°C 82% 1.7 mph N2.7 kmh N 2.4 mph3.9 kmh 30.27 in1025.1 mb 0.00 in0.0 mm 0.00 in/hr0.0 mm/hr 0.00 in0.0 mm
06:14 AM 46.0°F7.8°C 40.9°F4.9°C 82% 1.9 mph N3.1 kmh N 2.4 mph3.9 kmh 30.27 in1025.1 mb 0.00 in0.0 mm 0.00 in/hr0.0 mm/hr 0.00 in0.0 mm
06:13 AM 46.2°F7.9°C 41.0°F5.0°C 82% 2.0 mph N3.2 kmh N 2.4 mph3.9 kmh 30.27 in1025.1 mb 0.00 in0.0 mm 0.00 in/hr0.0 mm/hr 0.00 in0.0 mm
06:12 AM 46.2°F7.9°C 41.0°F5.0°C 82% 2.1 mph N3.4 kmh N 2.4 mph3.9 kmh 30.27 in1025.1 mb 0.00 in0.0 mm 0.00 in/hr0.0 mm/hr 0.00 in0.0 mm
06:11 AM 46.2°F7.9°C 40.7°F4.8°C 81% 2.2 mph N3.5 kmh N 2.4 mph3.9 kmh 30.27 in1025.1 mb 0.00 in0.0 mm 0.00 in/hr0.0 mm/hr 0.00 in0.0 mm
06:10 AM 46.2°F7.9°C 40.7°F4.8°C 81% 2.3 mph N3.7 kmh N 2.4 mph3.9 kmh 30.27 in1025.1 mb 0.00 in0.0 mm 0.00 in/hr0.0 mm/hr 0.00 in0.0 mm
06:09 AM 46.4°F8.0°C 41.5°F5.3°C 83% 2.3 mph N3.7 kmh N 2.4 mph3.9 kmh 30.27 in1025.1 mb 0.00 in0.0 mm 0.00 in/hr0.0 mm/hr 0.00 in0.0 mm
06:08 AM 46.4°F8.0°C 41.5°F5.3°C 83% 2.3 mph N3.7 kmh N 2.4 mph3.9 kmh 30.27 in1025.1 mb 0.00 in0.0 mm 0.00 in/hr0.0 mm/hr 0.00 in0.0 mm
06:07 AM 46.6°F8.1°C 41.4°F5.2°C 82% 2.1 mph N3.4 kmh N 2.4 mph3.9 kmh 30.27 in1025.1 mb 0.00 in0.0 mm 0.00 in/hr0.0 mm/hr 0.00 in0.0 mm
06:06 AM 46.6°F8.1°C 41.4°F5.2°C 82% 1.8 mph N2.9 kmh N 2.4 mph3.9 kmh 30.27 in1025.1 mb 0.00 in0.0 mm 0.00 in/hr0.0 mm/hr 0.00 in0.0 mm
06:05 AM 46.6°F8.1°C 41.4°F5.2°C 82% 1.7 mph N2.7 kmh N 2.4 mph3.9 kmh 30.27 in1025.1 mb 0.00 in0.0 mm 0.00 in/hr0.0 mm/hr 0.00 in0.0 mm
06:04 AM 46.6°F8.1°C 41.4°F5.2°C 82% 1.4 mph N2.3 kmh N 2.4 mph3.9 kmh 30.27 in1025.1 mb 0.00 in0.0 mm 0.00 in/hr0.0 mm/hr 0.00 in0.0 mm
06:03 AM 46.6°F8.1°C 41.4°F5.2°C 82% 1.3 mph N2.1 kmh N 2.4 mph3.9 kmh 30.27 in1025.1 mb 0.00 in0.0 mm 0.00 in/hr0.0 mm/hr 0.00 in0.0 mm
06:02 AM 46.6°F8.1°C 41.4°F5.2°C 82% 1.1 mph N1.8 kmh N 2.4 mph3.9 kmh 30.27 in1025.1 mb 0.00 in0.0 mm 0.00 in/hr0.0 mm/hr 0.00 in0.0 mm
06:01 AM 46.6°F8.1°C 41.4°F5.2°C 82% 1.0 mph N1.6 kmh N 2.4 mph3.9 kmh 30.27 in1025.1 mb 0.00 in0.0 mm 0.00 in/hr0.0 mm/hr 0.00 in0.0 mm
06:00 AM 46.6°F8.1°C 41.4°F5.2°C 82% 0.8 mph N1.3 kmh N 2.4 mph3.9 kmh 30.27 in1025.1 mb 0.00 in0.0 mm 0.00 in/hr0.0 mm/hr 0.00 in0.0 mm
05:59 AM 46.6°F8.1°C 41.1°F5.1°C 81% 0.6 mph N1.0 kmh N 1.6 mph2.6 kmh 30.27 in1025.1 mb 0.00 in0.0 mm 0.00 in/hr0.0 mm/hr 0.00 in0.0 mm
05:58 AM 46.8°F8.2°C 41.2°F5.1°C 81% 0.6 mph N1.0 kmh N 1.6 mph2.6 kmh 30.27 in1025.1 mb 0.00 in0.0 mm 0.00 in/hr0.0 mm/hr 0.00 in0.0 mm
05:57 AM 46.6°F8.1°C 40.7°F4.8°C 80% 0.8 mph N1.3 kmh N 2.4 mph3.9 kmh 30.27 in1025.1 mb 0.00 in0.0 mm 0.00 in/hr0.0 mm/hr 0.00 in0.0 mm
05:56 AM 46.8°F8.2°C 40.9°F4.9°C 80% 1.0 mph N1.6 kmh N 2.4 mph3.9 kmh 30.27 in1025.1 mb 0.00 in0.0 mm 0.00 in/hr0.0 mm/hr 0.00 in0.0 mm
05:55 AM 46.8°F8.2°C 40.9°F4.9°C 80% 1.1 mph N1.8 kmh N 2.4 mph3.9 kmh 30.26 in1024.7 mb 0.00 in0.0 mm 0.00 in/hr0.0 mm/hr 0.00 in0.0 mm
05:54 AM 46.8°F8.2°C 40.9°F4.9°C 80% 1.1 mph N1.8 kmh N 2.4 mph3.9 kmh 30.27 in1025.1 mb 0.00 in0.0 mm 0.00 in/hr0.0 mm/hr 0.00 in0.0 mm
05:53 AM 46.9°F8.3°C 41.1°F5.1°C 80% 1.2 mph N1.9 kmh N 2.4 mph3.9 kmh 30.26 in1024.7 mb 0.00 in0.0 mm 0.00 in/hr0.0 mm/hr 0.00 in0.0 mm
05:52 AM 46.9°F8.3°C 40.8°F4.9°C 79% 1.3 mph NNW2.1 kmh NNW 2.4 mph3.9 kmh 30.26 in1024.7 mb 0.00 in0.0 mm 0.00 in/hr0.0 mm/hr 0.00 in0.0 mm
05:51 AM 46.9°F8.3°C 40.8°F4.9°C 79% 1.3 mph NNW2.1 kmh NNW 2.4 mph3.9 kmh 30.26 in1024.7 mb 0.00 in0.0 mm 0.00 in/hr0.0 mm/hr 0.00 in0.0 mm
05:50 AM 46.9°F8.3°C 40.8°F4.9°C 79% 1.2 mph NNW1.9 kmh NNW 2.4 mph3.9 kmh 30.27 in1025.1 mb 0.00 in0.0 mm 0.00 in/hr0.0 mm/hr 0.00 in0.0 mm
05:49 AM 46.9°F8.3°C 40.8°F4.9°C 79% 1.4 mph NNW2.3 kmh NNW 2.4 mph3.9 kmh 30.26 in1024.7 mb 0.00 in0.0 mm 0.00 in/hr0.0 mm/hr 0.00 in0.0 mm
05:48 AM 46.9°F8.3°C 40.8°F4.9°C 79% 1.4 mph NNW2.3 kmh NNW 2.4 mph3.9 kmh 30.26 in1024.7 mb 0.00 in0.0 mm 0.00 in/hr0.0 mm/hr 0.00 in0.0 mm
05:47 AM 46.9°F8.3°C 40.8°F4.9°C 79% 1.5 mph N2.4 kmh N 2.4 mph3.9 kmh 30.26 in1024.7 mb 0.00 in0.0 mm 0.00 in/hr0.0 mm/hr 0.00 in0.0 mm
05:46 AM 46.9°F8.3°C 40.8°F4.9°C 79% 1.5 mph N2.4 kmh N 2.4 mph3.9 kmh 30.25 in1024.4 mb 0.00 in0.0 mm 0.00 in/hr0.0 mm/hr 0.00 in0.0 mm
05:45 AM 47.1°F8.4°C 41.3°F5.2°C 80% 1.4 mph N2.3 kmh N 2.4 mph3.9 kmh 30.26 in1024.7 mb 0.00 in0.0 mm 0.00 in/hr0.0 mm/hr 0.00 in0.0 mm
05:44 AM 47.1°F8.4°C 40.9°F4.9°C 79% 1.6 mph N2.6 kmh N 2.4 mph3.9 kmh 30.26 in1024.7 mb 0.00 in0.0 mm 0.00 in/hr0.0 mm/hr 0.00 in0.0 mm
05:43 AM 46.9°F8.3°C 40.8°F4.9°C 79% 1.5 mph NNW2.4 kmh NNW 2.4 mph3.9 kmh 30.26 in1024.7 mb 0.00 in0.0 mm 0.00 in/hr0.0 mm/hr 0.00 in0.0 mm
05:42 AM 46.9°F8.3°C 40.8°F4.9°C 79% 1.4 mph N2.3 kmh N 2.4 mph3.9 kmh 30.26 in1024.7 mb 0.00 in0.0 mm 0.00 in/hr0.0 mm/hr 0.00 in0.0 mm
05:41 AM 46.9°F8.3°C 41.1°F5.1°C 80% 1.4 mph N2.3 kmh N 2.4 mph3.9 kmh 30.25 in1024.4 mb 0.00 in0.0 mm 0.00 in/hr0.0 mm/hr 0.00 in0.0 mm
05:40 AM 47.1°F8.4°C 41.3°F5.2°C 80% 1.6 mph N2.6 kmh N 2.4 mph3.9 kmh 30.26 in1024.7 mb 0.00 in0.0 mm 0.00 in/hr0.0 mm/hr 0.00 in0.0 mm
05:39 AM 47.1°F8.4°C 41.3°F5.2°C 80% 1.6 mph N2.6 kmh N 2.4 mph3.9 kmh 30.25 in1024.4 mb 0.00 in0.0 mm 0.00 in/hr0.0 mm/hr 0.00 in0.0 mm
05:38 AM 47.1°F8.4°C 41.3°F5.2°C 80% 1.5 mph N2.4 kmh N 2.4 mph3.9 kmh 30.25 in1024.4 mb 0.00 in0.0 mm 0.00 in/hr0.0 mm/hr 0.00 in0.0 mm
05:37 AM 47.1°F8.4°C 41.3°F5.2°C 80% 1.5 mph N2.4 kmh N 2.4 mph3.9 kmh 30.26 in1024.7 mb 0.00 in0.0 mm 0.00 in/hr0.0 mm/hr 0.00 in0.0 mm
05:36 AM 47.1°F8.4°C 40.9°F4.9°C 79% 1.5 mph N2.4 kmh N 2.4 mph3.9 kmh 30.26 in1024.7 mb 0.00 in0.0 mm 0.00 in/hr0.0 mm/hr 0.00 in0.0 mm
05:35 AM 46.9°F8.3°C 40.8°F4.9°C 79% 1.5 mph N2.4 kmh N 2.4 mph3.9 kmh 30.26 in1024.7 mb 0.00 in0.0 mm 0.00 in/hr0.0 mm/hr 0.00 in0.0 mm
05:34 AM 47.1°F8.4°C 40.9°F4.9°C 79% 1.5 mph N2.4 kmh N 2.4 mph3.9 kmh 30.25 in1024.4 mb 0.00 in0.0 mm 0.00 in/hr0.0 mm/hr 0.00 in0.0 mm
05:33 AM 47.1°F8.4°C 40.9°F4.9°C 79% 1.6 mph N2.6 kmh N 2.4 mph3.9 kmh 30.26 in1024.7 mb 0.00 in0.0 mm 0.00 in/hr0.0 mm/hr 0.00 in0.0 mm
05:32 AM 47.1°F8.4°C 40.9°F4.9°C 79% 1.7 mph N2.7 kmh N 2.4 mph3.9 kmh 30.26 in1024.7 mb 0.00 in0.0 mm 0.00 in/hr0.0 mm/hr 0.00 in0.0 mm
05:31 AM 47.3°F8.5°C 41.1°F5.1°C 79% 1.6 mph N2.6 kmh N 2.4 mph3.9 kmh 30.25 in1024.4 mb 0.00 in0.0 mm 0.00 in/hr0.0 mm/hr 0.00 in0.0 mm
05:30 AM 47.3°F8.5°C 41.4°F5.2°C 80% 1.5 mph N2.4 kmh N 2.4 mph3.9 kmh 30.26 in1024.7 mb 0.00 in0.0 mm 0.00 in/hr0.0 mm/hr 0.00 in0.0 mm
05:29 AM 47.3°F8.5°C 41.1°F5.1°C 79% 1.3 mph N2.1 kmh N 2.4 mph3.9 kmh 30.25 in1024.4 mb 0.00 in0.0 mm 0.00 in/hr0.0 mm/hr 0.00 in0.0 mm
05:28 AM 47.3°F8.5°C 41.1°F5.1°C 79% 1.2 mph N1.9 kmh N 2.4 mph3.9 kmh 30.25 in1024.4 mb 0.00 in0.0 mm 0.00 in/hr0.0 mm/hr 0.00 in0.0 mm
05:27 AM 47.3°F8.5°C 41.1°F5.1°C 79% 1.1 mph N1.8 kmh N 2.4 mph3.9 kmh 30.25 in1024.4 mb 0.00 in0.0 mm 0.00 in/hr0.0 mm/hr 0.00 in0.0 mm
05:26 AM 47.3°F8.5°C 40.8°F4.9°C 78% 1.0 mph N1.6 kmh N 2.4 mph3.9 kmh 30.25 in1024.4 mb 0.00 in0.0 mm 0.00 in/hr0.0 mm/hr 0.00 in0.0 mm
05:25 AM 47.3°F8.5°C 40.8°F4.9°C 78% 0.9 mph N1.4 kmh N 2.4 mph3.9 kmh 30.25 in1024.4 mb 0.00 in0.0 mm 0.00 in/hr0.0 mm/hr 0.00 in0.0 mm
05:24 AM 47.3°F8.5°C 40.8°F4.9°C 78% 0.8 mph N1.3 kmh N 2.4 mph3.9 kmh 30.25 in1024.4 mb 0.00 in0.0 mm 0.00 in/hr0.0 mm/hr 0.00 in0.0 mm
05:23 AM 47.3°F8.5°C 40.8°F4.9°C 78% 0.9 mph N1.4 kmh N 2.4 mph3.9 kmh 30.25 in1024.4 mb 0.00 in0.0 mm 0.00 in/hr0.0 mm/hr 0.00 in0.0 mm
05:22 AM 47.3°F8.5°C 40.8°F4.9°C 78% 0.9 mph N1.4 kmh N 2.4 mph3.9 kmh 30.25 in1024.4 mb 0.00 in0.0 mm 0.00 in/hr0.0 mm/hr 0.00 in0.0 mm
05:21 AM 47.5°F8.6°C 41.0°F5.0°C 78% 1.1 mph N1.8 kmh N 3.2 mph5.1 kmh 30.25 in1024.4 mb 0.00 in0.0 mm 0.00 in/hr0.0 mm/hr 0.00 in0.0 mm
05:20 AM 47.5°F8.6°C 41.0°F5.0°C 78% 1.3 mph N2.1 kmh N 3.2 mph5.1 kmh 30.25 in1024.4 mb 0.00 in0.0 mm 0.00 in/hr0.0 mm/hr 0.00 in0.0 mm
05:19 AM 47.5°F8.6°C 41.0°F5.0°C 78% 1.4 mph N2.3 kmh N 3.2 mph5.1 kmh 30.25 in1024.4 mb 0.00 in0.0 mm 0.00 in/hr0.0 mm/hr 0.00 in0.0 mm
05:18 AM 47.7°F8.7°C 41.5°F5.3°C 79% 1.5 mph N2.4 kmh N 3.2 mph5.1 kmh 30.25 in1024.4 mb 0.00 in0.0 mm 0.00 in/hr0.0 mm/hr 0.00 in0.0 mm
05:17 AM 47.7°F8.7°C 41.5°F5.3°C 79% 1.5 mph N2.4 kmh N 3.2 mph5.1 kmh 30.25 in1024.4 mb 0.00 in0.0 mm 0.00 in/hr0.0 mm/hr 0.00 in0.0 mm
05:16 AM 47.7°F8.7°C 41.1°F5.1°C 78% 1.7 mph N2.7 kmh N 3.2 mph5.1 kmh 30.25 in1024.4 mb 0.00 in0.0 mm 0.00 in/hr0.0 mm/hr 0.00 in0.0 mm
05:15 AM 47.7°F8.7°C 41.1°F5.1°C 78% 1.6 mph N2.6 kmh N 3.2 mph5.1 kmh 30.25 in1024.4 mb 0.00 in0.0 mm 0.00 in/hr0.0 mm/hr 0.00 in0.0 mm
05:14 AM 47.7°F8.7°C 41.1°F5.1°C 78% 1.5 mph NNW2.4 kmh NNW 3.2 mph5.1 kmh 30.25 in1024.4 mb 0.00 in0.0 mm 0.00 in/hr0.0 mm/hr 0.00 in0.0 mm
05:13 AM 47.7°F8.7°C 41.1°F5.1°C 78% 1.4 mph NNW2.3 kmh NNW 3.2 mph5.1 kmh 30.25 in1024.4 mb 0.00 in0.0 mm 0.00 in/hr0.0 mm/hr 0.00 in0.0 mm
05:12 AM 47.7°F8.7°C 41.1°F5.1°C 78% 1.3 mph NNW2.1 kmh NNW 3.2 mph5.1 kmh 30.25 in1024.4 mb 0.00 in0.0 mm 0.00 in/hr0.0 mm/hr 0.00 in0.0 mm
05:11 AM 47.7°F8.7°C 41.5°F5.3°C 79% 1.3 mph N2.1 kmh N 3.2 mph5.1 kmh 30.25 in1024.4 mb 0.00 in0.0 mm 0.00 in/hr0.0 mm/hr 0.00 in0.0 mm
05:10 AM 47.7°F8.7°C 41.1°F5.1°C 78% 1.1 mph N1.8 kmh N 2.4 mph3.9 kmh 30.25 in1024.4 mb 0.00 in0.0 mm 0.00 in/hr0.0 mm/hr 0.00 in0.0 mm
05:09 AM 47.8°F8.8°C 41.3°F5.2°C 78% 1.1 mph N1.8 kmh N 2.4 mph3.9 kmh 30.25 in1024.4 mb 0.00 in0.0 mm 0.00 in/hr0.0 mm/hr 0.00 in0.0 mm
05:08 AM 47.8°F8.8°C 41.3°F5.2°C 78% 1.1 mph N1.8 kmh N 2.4 mph3.9 kmh 30.25 in1024.4 mb 0.00 in0.0 mm 0.00 in/hr0.0 mm/hr 0.00 in0.0 mm
05:07 AM 47.8°F8.8°C 41.3°F5.2°C 78% 1.2 mph N1.9 kmh N 2.4 mph3.9 kmh 30.25 in1024.4 mb 0.00 in0.0 mm 0.00 in/hr0.0 mm/hr 0.00 in0.0 mm
05:06 AM 47.8°F8.8°C 41.3°F5.2°C 78% 1.2 mph N1.9 kmh N 2.4 mph3.9 kmh 30.25 in1024.4 mb 0.00 in0.0 mm 0.00 in/hr0.0 mm/hr 0.00 in0.0 mm
05:05 AM 48.2°F9.0°C 41.7°F5.4°C 78% 1.3 mph N2.1 kmh N 2.4 mph3.9 kmh 30.25 in1024.4 mb 0.00 in0.0 mm 0.00 in/hr0.0 mm/hr 0.00 in0.0 mm
05:04 AM 48.2°F9.0°C 41.7°F5.4°C 78% 1.5 mph N2.4 kmh N 2.4 mph3.9 kmh 30.25 in1024.4 mb 0.00 in0.0 mm 0.00 in/hr0.0 mm/hr 0.00 in0.0 mm
05:03 AM 48.2°F9.0°C 41.7°F5.4°C 78% 1.5 mph N2.4 kmh N 2.4 mph3.9 kmh 30.25 in1024.4 mb 0.00 in0.0 mm 0.00 in/hr0.0 mm/hr 0.00 in0.0 mm
05:02 AM 48.2°F9.0°C 41.7°F5.4°C 78% 1.6 mph N2.6 kmh N 2.4 mph3.9 kmh 30.25 in1024.4 mb 0.00 in0.0 mm 0.00 in/hr0.0 mm/hr 0.00 in0.0 mm
05:01 AM 48.4°F9.1°C 42.2°F5.7°C 79% 1.5 mph N2.4 kmh N 2.4 mph3.9 kmh 30.25 in1024.4 mb 0.00 in0.0 mm 0.00 in/hr0.0 mm/hr 0.00 in0.0 mm
05:00 AM 48.4°F9.1°C 42.5°F5.8°C 80% 1.7 mph N2.7 kmh N 2.4 mph3.9 kmh 30.24 in1024.0 mb 0.00 in0.0 mm 0.00 in/hr0.0 mm/hr 0.00 in0.0 mm
04:59 AM 48.4°F9.1°C 42.5°F5.8°C 80% 1.7 mph N2.7 kmh N 2.4 mph3.9 kmh 30.24 in1024.0 mb 0.00 in0.0 mm 0.00 in/hr0.0 mm/hr 0.00 in0.0 mm
04:58 AM 48.4°F9.1°C 42.8°F6.0°C 81% 1.7 mph N2.7 kmh N 2.4 mph3.9 kmh 30.24 in1024.0 mb 0.00 in0.0 mm 0.00 in/hr0.0 mm/hr 0.00 in0.0 mm
04:57 AM 48.4°F9.1°C 42.8°F6.0°C 81% 1.8 mph N2.9 kmh N 2.4 mph3.9 kmh 30.24 in1024.0 mb 0.00 in0.0 mm 0.00 in/hr0.0 mm/hr 0.00 in0.0 mm
04:56 AM 48.4°F9.1°C 42.8°F6.0°C 81% 1.7 mph N2.7 kmh N 2.4 mph3.9 kmh 30.24 in1024.0 mb 0.00 in0.0 mm 0.00 in/hr0.0 mm/hr 0.00 in0.0 mm
04:55 AM 48.4°F9.1°C 42.8°F6.0°C 81% 1.8 mph N2.9 kmh N 2.4 mph3.9 kmh 30.25 in1024.4 mb 0.00 in0.0 mm 0.00 in/hr0.0 mm/hr 0.00 in0.0 mm
04:54 AM 48.4°F9.1°C 42.8°F6.0°C 81% 1.8 mph N2.9 kmh N 2.4 mph3.9 kmh 30.25 in1024.4 mb 0.00 in0.0 mm 0.00 in/hr0.0 mm/hr 0.00 in0.0 mm
04:53 AM 48.4°F9.1°C 42.2°F5.7°C 79% 1.8 mph N2.9 kmh N 2.4 mph3.9 kmh 30.24 in1024.0 mb 0.00 in0.0 mm 0.00 in/hr0.0 mm/hr 0.00 in0.0 mm
04:52 AM 48.4°F9.1°C 42.5°F5.8°C 80% 1.7 mph N2.7 kmh N 2.4 mph3.9 kmh 30.23 in1023.7 mb 0.00 in0.0 mm 0.00 in/hr0.0 mm/hr 0.00 in0.0 mm
04:51 AM 48.4°F9.1°C 42.5°F5.8°C 80% 1.7 mph N2.7 kmh N 2.4 mph3.9 kmh 30.24 in1024.0 mb 0.00 in0.0 mm 0.00 in/hr0.0 mm/hr 0.00 in0.0 mm
04:50 AM 48.4°F9.1°C 42.8°F6.0°C 81% 1.8 mph N2.9 kmh N 2.4 mph3.9 kmh 30.24 in1024.0 mb 0.00 in0.0 mm 0.00 in/hr0.0 mm/hr 0.00 in0.0 mm
04:49 AM 48.6°F9.2°C 43.0°F6.1°C 81% 1.8 mph N2.9 kmh N 2.4 mph3.9 kmh 30.24 in1024.0 mb 0.00 in0.0 mm 0.00 in/hr0.0 mm/hr 0.00 in0.0 mm
04:48 AM 48.6°F9.2°C 43.0°F6.1°C 81% 1.9 mph N3.1 kmh N 2.4 mph3.9 kmh 30.24 in1024.0 mb 0.00 in0.0 mm 0.00 in/hr0.0 mm/hr 0.00 in0.0 mm
04:47 AM 48.4°F9.1°C 42.5°F5.8°C 80% 1.9 mph N3.1 kmh N 2.4 mph3.9 kmh 30.24 in1024.0 mb 0.00 in0.0 mm 0.00 in/hr0.0 mm/hr 0.00 in0.0 mm
04:46 AM 48.6°F9.2°C 42.7°F5.9°C 80% 2.0 mph N3.2 kmh N 2.4 mph3.9 kmh 30.23 in1023.7 mb 0.00 in0.0 mm 0.00 in/hr0.0 mm/hr 0.00 in0.0 mm
04:45 AM 48.6°F9.2°C 42.4°F5.8°C 79% 1.9 mph N3.1 kmh N 2.4 mph3.9 kmh 30.23 in1023.7 mb 0.00 in0.0 mm 0.00 in/hr0.0 mm/hr 0.00 in0.0 mm
04:44 AM 48.6°F9.2°C 42.4°F5.8°C 79% 2.0 mph N3.2 kmh N 3.2 mph5.1 kmh 30.24 in1024.0 mb 0.00 in0.0 mm 0.00 in/hr0.0 mm/hr 0.00 in0.0 mm
04:43 AM 48.6°F9.2°C 42.4°F5.8°C 79% 2.1 mph N3.4 kmh N 3.2 mph5.1 kmh 30.24 in1024.0 mb 0.00 in0.0 mm 0.00 in/hr0.0 mm/hr 0.00 in0.0 mm
04:42 AM 48.6°F9.2°C 42.4°F5.8°C 79% 2.3 mph N3.7 kmh N 3.2 mph5.1 kmh 30.23 in1023.7 mb 0.00 in0.0 mm 0.00 in/hr0.0 mm/hr 0.00 in0.0 mm
04:41 AM 48.6°F9.2°C 42.4°F5.8°C 79% 2.3 mph N3.7 kmh N 3.2 mph5.1 kmh 30.23 in1023.7 mb 0.00 in0.0 mm 0.00 in/hr0.0 mm/hr 0.00 in0.0 mm
04:40 AM 48.7°F9.3°C 42.5°F5.8°C 79% 2.2 mph N3.5 kmh N 3.2 mph5.1 kmh 30.23 in1023.7 mb 0.00 in0.0 mm 0.00 in/hr0.0 mm/hr 0.00 in0.0 mm
04:39 AM 48.7°F9.3°C 42.9°F6.1°C 80% 2.2 mph N3.5 kmh N 3.2 mph5.1 kmh 30.23 in1023.7 mb 0.00 in0.0 mm 0.00 in/hr0.0 mm/hr 0.00 in0.0 mm
04:38 AM 48.7°F9.3°C 42.5°F5.8°C 79% 2.1 mph N3.4 kmh N 3.2 mph5.1 kmh 30.23 in1023.7 mb 0.00 in0.0 mm 0.00 in/hr0.0 mm/hr 0.00 in0.0 mm
04:37 AM 48.7°F9.3°C 42.5°F5.8°C 79% 2.1 mph N3.4 kmh N 3.2 mph5.1 kmh 30.23 in1023.7 mb 0.00 in0.0 mm 0.00 in/hr0.0 mm/hr 0.00 in0.0 mm
04:36 AM 48.7°F9.3°C 42.5°F5.8°C 79% 2.1 mph N3.4 kmh N 3.2 mph5.1 kmh 30.23 in1023.7 mb 0.00 in0.0 mm 0.00 in/hr0.0 mm/hr 0.00 in0.0 mm
04:35 AM 48.9°F9.4°C 42.7°F5.9°C 79% 2.1 mph N3.4 kmh N 3.2 mph5.1 kmh 30.23 in1023.7 mb 0.00 in0.0 mm 0.00 in/hr0.0 mm/hr 0.00 in0.0 mm
04:34 AM 48.9°F9.4°C 42.7°F5.9°C 79% 2.1 mph N3.4 kmh N 3.2 mph5.1 kmh 30.23 in1023.7 mb 0.00 in0.0 mm 0.00 in/hr0.0 mm/hr 0.00 in0.0 mm
04:33 AM 48.9°F9.4°C 42.7°F5.9°C 79% 2.1 mph N3.4 kmh N 3.2 mph5.1 kmh 30.23 in1023.7 mb 0.00 in0.0 mm 0.00 in/hr0.0 mm/hr 0.00 in0.0 mm
04:32 AM 49.1°F9.5°C 43.2°F6.2°C 80% 2.1 mph N3.4 kmh N 3.2 mph5.1 kmh 30.23 in1023.7 mb 0.00 in0.0 mm 0.00 in/hr0.0 mm/hr 0.00 in0.0 mm
04:31 AM 49.1°F9.5°C 43.2°F6.2°C 80% 2.2 mph N3.5 kmh N 3.2 mph5.1 kmh 30.23 in1023.7 mb 0.00 in0.0 mm 0.00 in/hr0.0 mm/hr 0.00 in0.0 mm
04:30 AM 49.1°F9.5°C 43.2°F6.2°C 80% 2.2 mph N3.5 kmh N 3.2 mph5.1 kmh 30.22 in1023.4 mb 0.00 in0.0 mm 0.00 in/hr0.0 mm/hr 0.00 in0.0 mm
04:29 AM 49.1°F9.5°C 43.2°F6.2°C 80% 2.1 mph N3.4 kmh N 3.2 mph5.1 kmh 30.23 in1023.7 mb 0.00 in0.0 mm 0.00 in/hr0.0 mm/hr 0.00 in0.0 mm
04:28 AM 49.1°F9.5°C 43.2°F6.2°C 80% 2.2 mph N3.5 kmh N 3.2 mph5.1 kmh 30.23 in1023.7 mb 0.00 in0.0 mm 0.00 in/hr0.0 mm/hr 0.00 in0.0 mm
04:27 AM 49.1°F9.5°C 43.2°F6.2°C 80% 2.2 mph N3.5 kmh N 3.2 mph5.1 kmh 30.22 in1023.4 mb 0.00 in0.0 mm 0.00 in/hr0.0 mm/hr 0.00 in0.0 mm
04:26 AM 49.1°F9.5°C 43.5°F6.4°C 81% 2.2 mph N3.5 kmh N 3.2 mph5.1 kmh 30.22 in1023.4 mb 0.00 in0.0 mm 0.00 in/hr0.0 mm/hr 0.00 in0.0 mm
04:25 AM 49.1°F9.5°C 43.5°F6.4°C 81% 2.2 mph N3.5 kmh N 3.2 mph5.1 kmh 30.22 in1023.4 mb 0.00 in0.0 mm 0.00 in/hr0.0 mm/hr 0.00 in0.0 mm
04:24 AM 49.1°F9.5°C 43.5°F6.4°C 81% 2.1 mph N3.4 kmh N 3.2 mph5.1 kmh 30.23 in1023.7 mb 0.00 in0.0 mm 0.00 in/hr0.0 mm/hr 0.00 in0.0 mm
04:23 AM 49.1°F9.5°C 43.5°F6.4°C 81% 2.1 mph N3.4 kmh N 3.2 mph5.1 kmh 30.22 in1023.4 mb 0.00 in0.0 mm 0.00 in/hr0.0 mm/hr 0.00 in0.0 mm
04:22 AM 49.3°F9.6°C 44.0°F6.7°C 82% 2.2 mph N3.5 kmh N 3.2 mph5.1 kmh 30.23 in1023.7 mb 0.00 in0.0 mm 0.00 in/hr0.0 mm/hr 0.00 in0.0 mm
04:21 AM 49.3°F9.6°C 44.0°F6.7°C 82% 2.2 mph N3.5 kmh N 3.2 mph5.1 kmh 30.22 in1023.4 mb 0.00 in0.0 mm 0.00 in/hr0.0 mm/hr 0.00 in0.0 mm
04:20 AM 49.3°F9.6°C 44.0°F6.7°C 82% 2.2 mph N3.5 kmh N 3.2 mph5.1 kmh 30.23 in1023.7 mb 0.00 in0.0 mm 0.00 in/hr0.0 mm/hr 0.00 in0.0 mm
04:19 AM 49.3°F9.6°C 44.0°F6.7°C 82% 2.2 mph N3.5 kmh N 3.2 mph5.1 kmh 30.22 in1023.4 mb 0.00 in0.0 mm 0.00 in/hr0.0 mm/hr 0.00 in0.0 mm
04:18 AM 49.3°F9.6°C 44.0°F6.7°C 82% 2.1 mph N3.4 kmh N 3.2 mph5.1 kmh 30.22 in1023.4 mb 0.00 in0.0 mm 0.00 in/hr0.0 mm/hr 0.00 in0.0 mm
04:17 AM 49.3°F9.6°C 44.0°F6.7°C 82% 2.1 mph N3.4 kmh N 3.2 mph5.1 kmh 30.22 in1023.4 mb 0.00 in0.0 mm 0.00 in/hr0.0 mm/hr 0.00 in0.0 mm
04:16 AM 49.3°F9.6°C 44.3°F6.8°C 83% 2.0 mph N3.2 kmh N 3.2 mph5.1 kmh 30.21 in1023.0 mb 0.00 in0.0 mm 0.00 in/hr0.0 mm/hr 0.00 in0.0 mm
04:15 AM 49.3°F9.6°C 44.3°F6.8°C 83% 2.0 mph N3.2 kmh N 3.2 mph5.1 kmh 30.22 in1023.4 mb 0.00 in0.0 mm 0.00 in/hr0.0 mm/hr 0.00 in0.0 mm
04:14 AM 49.3°F9.6°C 44.3°F6.8°C 83% 2.0 mph N3.2 kmh N 3.2 mph5.1 kmh 30.21 in1023.0 mb 0.00 in0.0 mm 0.00 in/hr0.0 mm/hr 0.00 in0.0 mm
04:13 AM 49.5°F9.7°C 44.8°F7.1°C 84% 1.9 mph N3.1 kmh N 3.2 mph5.1 kmh 30.22 in1023.4 mb 0.00 in0.0 mm 0.00 in/hr0.0 mm/hr 0.00 in0.0 mm
04:12 AM 49.5°F9.7°C 44.8°F7.1°C 84% 1.8 mph N2.9 kmh N 2.4 mph3.9 kmh 30.22 in1023.4 mb 0.00 in0.0 mm 0.00 in/hr0.0 mm/hr 0.00 in0.0 mm
04:11 AM 49.5°F9.7°C 44.8°F7.1°C 84% 1.7 mph N2.7 kmh N 2.4 mph3.9 kmh 30.22 in1023.4 mb 0.00 in0.0 mm 0.00 in/hr0.0 mm/hr 0.00 in0.0 mm
04:10 AM 49.5°F9.7°C 44.8°F7.1°C 84% 1.6 mph N2.6 kmh N 2.4 mph3.9 kmh 30.22 in1023.4 mb 0.00 in0.0 mm 0.00 in/hr0.0 mm/hr 0.00 in0.0 mm
04:09 AM 49.8°F9.9°C 45.8°F7.7°C 86% 1.6 mph N2.6 kmh N 1.6 mph2.6 kmh 30.22 in1023.4 mb 0.00 in0.0 mm 0.00 in/hr0.0 mm/hr 0.00 in0.0 mm
04:08 AM 49.8°F9.9°C 45.8°F7.7°C 86% 1.5 mph N2.4 kmh N 1.6 mph2.6 kmh 30.21 in1023.0 mb 0.00 in0.0 mm 0.00 in/hr0.0 mm/hr 0.00 in0.0 mm
04:07 AM 49.8°F9.9°C 45.8°F7.7°C 86% 1.5 mph N2.4 kmh N 1.6 mph2.6 kmh 30.22 in1023.4 mb 0.00 in0.0 mm 0.00 in/hr0.0 mm/hr 0.00 in0.0 mm
04:06 AM 49.8°F9.9°C 45.8°F7.7°C 86% 1.5 mph N2.4 kmh N 1.6 mph2.6 kmh 30.21 in1023.0 mb 0.00 in0.0 mm 0.00 in/hr0.0 mm/hr 0.00 in0.0 mm
04:05 AM 49.8°F9.9°C 45.8°F7.7°C 86% 1.5 mph N2.4 kmh N 1.6 mph2.6 kmh 30.22 in1023.4 mb 0.00 in0.0 mm 0.00 in/hr0.0 mm/hr 0.00 in0.0 mm
04:04 AM 49.8°F9.9°C 45.8°F7.7°C 86% 1.4 mph N2.3 kmh N 1.6 mph2.6 kmh 30.21 in1023.0 mb 0.00 in0.0 mm 0.00 in/hr0.0 mm/hr 0.00 in0.0 mm
04:03 AM 49.8°F9.9°C 45.8°F7.7°C 86% 1.4 mph N2.3 kmh N 1.6 mph2.6 kmh 30.21 in1023.0 mb 0.00 in0.0 mm 0.00 in/hr0.0 mm/hr 0.00 in0.0 mm
04:02 AM 49.8°F9.9°C 45.8°F7.7°C 86% 1.3 mph N2.1 kmh N 1.6 mph2.6 kmh 30.21 in1023.0 mb 0.00 in0.0 mm 0.00 in/hr0.0 mm/hr 0.00 in0.0 mm
04:01 AM 49.8°F9.9°C 45.8°F7.7°C 86% 1.1 mph N1.8 kmh N 1.6 mph2.6 kmh 30.21 in1023.0 mb 0.00 in0.0 mm 0.00 in/hr0.0 mm/hr 0.00 in0.0 mm
04:00 AM 49.8°F9.9°C 45.8°F7.7°C 86% 1.0 mph N1.6 kmh N 1.6 mph2.6 kmh 30.21 in1023.0 mb 0.00 in0.0 mm 0.00 in/hr0.0 mm/hr 0.00 in0.0 mm
03:59 AM 49.8°F9.9°C 45.8°F7.7°C 86% 1.0 mph N1.6 kmh N 1.6 mph2.6 kmh 30.21 in1023.0 mb 0.00 in0.0 mm 0.00 in/hr0.0 mm/hr 0.00 in0.0 mm
03:58 AM 49.8°F9.9°C 45.8°F7.7°C 86% 1.0 mph N1.6 kmh N 1.6 mph2.6 kmh 30.21 in1023.0 mb 0.00 in0.0 mm 0.00 in/hr0.0 mm/hr 0.00 in0.0 mm
03:57 AM 49.8°F9.9°C 45.8°F7.7°C 86% 0.9 mph N1.4 kmh N 1.6 mph2.6 kmh 30.21 in1023.0 mb 0.00 in0.0 mm 0.00 in/hr0.0 mm/hr 0.00 in0.0 mm
03:56 AM 49.8°F9.9°C 45.8°F7.7°C 86% 0.9 mph N1.4 kmh N 1.6 mph2.6 kmh 30.21 in1023.0 mb 0.00 in0.0 mm 0.00 in/hr0.0 mm/hr 0.00 in0.0 mm
03:55 AM 50.0°F10.0°C 45.7°F7.6°C 85% 1.0 mph N1.6 kmh N 1.6 mph2.6 kmh 30.21 in1023.0 mb 0.00 in0.0 mm 0.00 in/hr0.0 mm/hr 0.00 in0.0 mm
03:54 AM 50.0°F10.0°C 45.7°F7.6°C 85% 1.1 mph N1.8 kmh N 1.6 mph2.6 kmh 30.21 in1023.0 mb 0.00 in0.0 mm 0.00 in/hr0.0 mm/hr 0.00 in0.0 mm
03:53 AM 50.0°F10.0°C 45.7°F7.6°C 85% 1.1 mph N1.8 kmh N 1.6 mph2.6 kmh 30.21 in1023.0 mb 0.00 in0.0 mm 0.00 in/hr0.0 mm/hr 0.00 in0.0 mm
03:52 AM 50.0°F10.0°C 45.7°F7.6°C 85% 1.2 mph N1.9 kmh N 1.6 mph2.6 kmh 30.21 in1023.0 mb 0.00 in0.0 mm 0.00 in/hr0.0 mm/hr 0.00 in0.0 mm
03:51 AM 50.0°F10.0°C 45.7°F7.6°C 85% 1.4 mph N2.3 kmh N 2.4 mph3.9 kmh 30.21 in1023.0 mb 0.00 in0.0 mm 0.00 in/hr0.0 mm/hr 0.00 in0.0 mm
03:50 AM 50.2°F10.1°C 45.9°F7.7°C 85% 1.5 mph N2.4 kmh N 2.4 mph3.9 kmh 30.21 in1023.0 mb 0.00 in0.0 mm 0.00 in/hr0.0 mm/hr 0.00 in0.0 mm
03:49 AM 50.2°F10.1°C 46.2°F7.9°C 86% 1.4 mph N2.3 kmh N 2.4 mph3.9 kmh 30.21 in1023.0 mb 0.00 in0.0 mm 0.00 in/hr0.0 mm/hr 0.00 in0.0 mm
03:48 AM 50.4°F10.2°C 46.3°F7.9°C 86% 1.4 mph N2.3 kmh N 2.4 mph3.9 kmh 30.21 in1023.0 mb 0.00 in0.0 mm 0.00 in/hr0.0 mm/hr 0.00 in0.0 mm
03:47 AM 50.4°F10.2°C 46.3°F7.9°C 86% 1.5 mph N2.4 kmh N 2.4 mph3.9 kmh 30.21 in1023.0 mb 0.00 in0.0 mm 0.00 in/hr0.0 mm/hr 0.00 in0.0 mm
03:46 AM 50.5°F10.3°C 46.5°F8.1°C 86% 1.5 mph N2.4 kmh N 2.4 mph3.9 kmh 30.21 in1023.0 mb 0.00 in0.0 mm 0.00 in/hr0.0 mm/hr 0.00 in0.0 mm
03:45 AM 50.5°F10.3°C 46.5°F8.1°C 86% 1.5 mph N2.4 kmh N 2.4 mph3.9 kmh 30.21 in1023.0 mb 0.00 in0.0 mm 0.00 in/hr0.0 mm/hr 0.00 in0.0 mm
03:44 AM 50.5°F10.3°C 46.5°F8.1°C 86% 1.4 mph N2.3 kmh N 2.4 mph3.9 kmh 30.21 in1023.0 mb 0.00 in0.0 mm 0.00 in/hr0.0 mm/hr 0.00 in0.0 mm
03:43 AM 50.5°F10.3°C 46.5°F8.1°C 86% 1.4 mph N2.3 kmh N 2.4 mph3.9 kmh 30.21 in1023.0 mb 0.00 in0.0 mm 0.00 in/hr0.0 mm/hr 0.00 in0.0 mm
03:42 AM 50.5°F10.3°C 46.5°F8.1°C 86% 1.4 mph N2.3 kmh N 2.4 mph3.9 kmh 30.21 in1023.0 mb 0.00 in0.0 mm 0.00 in/hr0.0 mm/hr 0.00 in0.0 mm
03:41 AM 50.7°F10.4°C 46.7°F8.2°C 86% 1.4 mph N2.3 kmh N 2.4 mph3.9 kmh 30.21 in1023.0 mb 0.00 in0.0 mm 0.00 in/hr0.0 mm/hr 0.00 in0.0 mm
03:40 AM 50.7°F10.4°C 46.7°F8.2°C 86% 1.4 mph N2.3 kmh N 2.4 mph3.9 kmh 30.21 in1023.0 mb 0.00 in0.0 mm 0.00 in/hr0.0 mm/hr 0.00 in0.0 mm
03:39 AM 50.7°F10.4°C 46.7°F8.2°C 86% 1.6 mph N2.6 kmh N 2.4 mph3.9 kmh 30.21 in1023.0 mb 0.00 in0.0 mm 0.00 in/hr0.0 mm/hr 0.00 in0.0 mm
03:38 AM 50.7°F10.4°C 46.7°F8.2°C 86% 1.6 mph N2.6 kmh N 2.4 mph3.9 kmh 30.21 in1023.0 mb 0.00 in0.0 mm 0.00 in/hr0.0 mm/hr 0.00 in0.0 mm
03:37 AM 50.9°F10.5°C 46.9°F8.3°C 86% 1.7 mph N2.7 kmh N 3.2 mph5.1 kmh 30.21 in1023.0 mb 0.00 in0.0 mm 0.00 in/hr0.0 mm/hr 0.00 in0.0 mm
03:36 AM 50.9°F10.5°C 46.9°F8.3°C 86% 1.7 mph N2.7 kmh N 3.2 mph5.1 kmh 30.21 in1023.0 mb 0.00 in0.0 mm 0.00 in/hr0.0 mm/hr 0.00 in0.0 mm
03:35 AM 50.9°F10.5°C 47.2°F8.4°C 87% 1.7 mph N2.7 kmh N 3.2 mph5.1 kmh 30.21 in1023.0 mb 0.00 in0.0 mm 0.00 in/hr0.0 mm/hr 0.00 in0.0 mm
03:34 AM 50.9°F10.5°C 47.2°F8.4°C 87% 1.8 mph N2.9 kmh N 3.2 mph5.1 kmh 30.21 in1023.0 mb 0.00 in0.0 mm 0.00 in/hr0.0 mm/hr 0.00 in0.0 mm
03:33 AM 51.1°F10.6°C 47.4°F8.6°C 87% 1.8 mph N2.9 kmh N 3.2 mph5.1 kmh 30.20 in1022.7 mb 0.00 in0.0 mm 0.00 in/hr0.0 mm/hr 0.00 in0.0 mm
03:32 AM 51.1°F10.6°C 47.4°F8.6°C 87% 1.8 mph N2.9 kmh N 3.2 mph5.1 kmh 30.20 in1022.7 mb 0.00 in0.0 mm 0.00 in/hr0.0 mm/hr 0.00 in0.0 mm
03:31 AM 51.1°F10.6°C 47.4°F8.6°C 87% 1.8 mph N2.9 kmh N 3.2 mph5.1 kmh 30.21 in1023.0 mb 0.00 in0.0 mm 0.00 in/hr0.0 mm/hr 0.00 in0.0 mm
03:30 AM 51.3°F10.7°C 47.8°F8.8°C 88% 1.8 mph N2.9 kmh N 3.2 mph5.1 kmh 30.20 in1022.7 mb 0.00 in0.0 mm 0.00 in/hr0.0 mm/hr 0.00 in0.0 mm
03:29 AM 51.3°F10.7°C 47.8°F8.8°C 88% 1.9 mph N3.1 kmh N 3.2 mph5.1 kmh 30.20 in1022.7 mb 0.00 in0.0 mm 0.00 in/hr0.0 mm/hr 0.00 in0.0 mm
03:28 AM 51.3°F10.7°C 47.8°F8.8°C 88% 2.0 mph N3.2 kmh N 3.2 mph5.1 kmh 30.20 in1022.7 mb 0.00 in0.0 mm 0.00 in/hr0.0 mm/hr 0.00 in0.0 mm
03:27 AM 51.3°F10.7°C 47.8°F8.8°C 88% 2.0 mph N3.2 kmh N 3.2 mph5.1 kmh 30.20 in1022.7 mb 0.00 in0.0 mm 0.00 in/hr0.0 mm/hr 0.00 in0.0 mm
03:26 AM 51.3°F10.7°C 47.8°F8.8°C 88% 2.1 mph N3.4 kmh N 3.2 mph5.1 kmh 30.20 in1022.7 mb 0.00 in0.0 mm 0.00 in/hr0.0 mm/hr 0.00 in0.0 mm
03:25 AM 51.3°F10.7°C 47.5°F8.6°C 87% 2.2 mph N3.5 kmh N 3.2 mph5.1 kmh 30.20 in1022.7 mb 0.00 in0.0 mm 0.00 in/hr0.0 mm/hr 0.00 in0.0 mm
03:24 AM 51.4°F10.8°C 48.0°F8.9°C 88% 2.2 mph N3.5 kmh N 3.2 mph5.1 kmh 30.20 in1022.7 mb 0.00 in0.0 mm 0.00 in/hr0.0 mm/hr 0.00 in0.0 mm
03:23 AM 51.4°F10.8°C 48.0°F8.9°C 88% 2.2 mph N3.5 kmh N 3.2 mph5.1 kmh 30.20 in1022.7 mb 0.00 in0.0 mm 0.00 in/hr0.0 mm/hr 0.00 in0.0 mm
03:22 AM 51.4°F10.8°C 48.0°F8.9°C 88% 2.0 mph N3.2 kmh N 3.2 mph5.1 kmh 30.20 in1022.7 mb 0.00 in0.0 mm 0.00 in/hr0.0 mm/hr 0.00 in0.0 mm
03:21 AM 51.4°F10.8°C 48.0°F8.9°C 88% 2.1 mph N3.4 kmh N 3.2 mph5.1 kmh 30.21 in1023.0 mb 0.00 in0.0 mm 0.00 in/hr0.0 mm/hr 0.00 in0.0 mm
03:20 AM 51.4°F10.8°C 48.3°F9.1°C 89% 2.2 mph N3.5 kmh N 3.2 mph5.1 kmh 30.20 in1022.7 mb 0.00 in0.0 mm 0.00 in/hr0.0 mm/hr 0.00 in0.0 mm
03:19 AM 51.4°F10.8°C 48.3°F9.1°C 89% 2.1 mph N3.4 kmh N 3.2 mph5.1 kmh 30.20 in1022.7 mb 0.00 in0.0 mm 0.00 in/hr0.0 mm/hr 0.00 in0.0 mm
03:18 AM 51.4°F10.8°C 48.3°F9.1°C 89% 2.0 mph N3.2 kmh N 3.2 mph5.1 kmh 30.20 in1022.7 mb 0.00 in0.0 mm 0.00 in/hr0.0 mm/hr 0.00 in0.0 mm
03:17 AM 51.6°F10.9°C 48.8°F9.3°C 90% 2.0 mph N3.2 kmh N 3.2 mph5.1 kmh 30.20 in1022.7 mb 0.00 in0.0 mm 0.00 in/hr0.0 mm/hr 0.00 in0.0 mm
03:16 AM 51.6°F10.9°C 48.8°F9.3°C 90% 1.9 mph N3.1 kmh N 2.4 mph3.9 kmh 30.20 in1022.7 mb 0.00 in0.0 mm 0.00 in/hr0.0 mm/hr 0.00 in0.0 mm
03:15 AM 51.6°F10.9°C 48.8°F9.3°C 90% 1.8 mph N2.9 kmh N 2.4 mph3.9 kmh 30.21 in1023.0 mb 0.00 in0.0 mm 0.00 in/hr0.0 mm/hr 0.00 in0.0 mm
03:14 AM 51.6°F10.9°C 48.8°F9.3°C 90% 1.6 mph N2.6 kmh N 2.4 mph3.9 kmh 30.21 in1023.0 mb 0.00 in0.0 mm 0.00 in/hr0.0 mm/hr 0.00 in0.0 mm
03:13 AM 51.6°F10.9°C 48.8°F9.3°C 90% 1.4 mph N2.3 kmh N 2.4 mph3.9 kmh 30.20 in1022.7 mb 0.00 in0.0 mm 0.00 in/hr0.0 mm/hr 0.00 in0.0 mm
03:12 AM 51.6°F10.9°C 48.8°F9.3°C 90% 1.5 mph N2.4 kmh N 2.4 mph3.9 kmh 30.20 in1022.7 mb 0.00 in0.0 mm 0.00 in/hr0.0 mm/hr 0.00 in0.0 mm
03:11 AM 51.6°F10.9°C 48.8°F9.3°C 90% 1.3 mph N2.1 kmh N 2.4 mph3.9 kmh 30.20 in1022.7 mb 0.00 in0.0 mm 0.00 in/hr0.0 mm/hr 0.00 in0.0 mm
03:10 AM 51.6°F10.9°C 48.8°F9.3°C 90% 1.0 mph N1.6 kmh N 2.4 mph3.9 kmh 30.20 in1022.7 mb 0.00 in0.0 mm 0.00 in/hr0.0 mm/hr 0.00 in0.0 mm
03:09 AM 51.8°F11.0°C 48.4°F9.1°C 88% 0.9 mph N1.4 kmh N 2.4 mph3.9 kmh 30.20 in1022.7 mb 0.00 in0.0 mm 0.00 in/hr0.0 mm/hr 0.00 in0.0 mm
03:08 AM 51.6°F10.9°C 48.5°F9.2°C 89% 0.7 mph N1.1 kmh N 2.4 mph3.9 kmh 30.20 in1022.7 mb 0.00 in0.0 mm 0.00 in/hr0.0 mm/hr 0.00 in0.0 mm
03:07 AM 51.8°F11.0°C 48.4°F9.1°C 88% 0.5 mph N0.8 kmh N 2.4 mph3.9 kmh 30.20 in1022.7 mb 0.00 in0.0 mm 0.00 in/hr0.0 mm/hr 0.00 in0.0 mm
03:06 AM 51.8°F11.0°C 48.4°F9.1°C 88% 0.3 mph N0.5 kmh N 2.4 mph3.9 kmh 30.19 in1022.4 mb 0.00 in0.0 mm 0.00 in/hr0.0 mm/hr 0.00 in0.0 mm
03:05 AM 51.8°F11.0°C 48.4°F9.1°C 88% 0.1 mph N0.2 kmh N 1.6 mph2.6 kmh 30.20 in1022.7 mb 0.00 in0.0 mm 0.00 in/hr0.0 mm/hr 0.00 in0.0 mm
03:04 AM 52.0°F11.1°C 48.5°F9.2°C 88% 0.1 mph N0.2 kmh N 1.6 mph2.6 kmh 30.20 in1022.7 mb 0.00 in0.0 mm 0.00 in/hr0.0 mm/hr 0.00 in0.0 mm
03:03 AM 52.0°F11.1°C 48.5°F9.2°C 88% 0.2 mph N0.3 kmh N 1.6 mph2.6 kmh 30.20 in1022.7 mb 0.00 in0.0 mm 0.00 in/hr0.0 mm/hr 0.00 in0.0 mm
03:02 AM 52.0°F11.1°C 48.2°F9.0°C 87% 0.3 mph N0.5 kmh N 2.4 mph3.9 kmh 30.20 in1022.7 mb 0.00 in0.0 mm 0.00 in/hr0.0 mm/hr 0.00 in0.0 mm
03:01 AM 52.3°F11.3°C 48.6°F9.2°C 87% 0.5 mph N0.8 kmh N 2.4 mph3.9 kmh 30.20 in1022.7 mb 0.00 in0.0 mm 0.00 in/hr0.0 mm/hr 0.00 in0.0 mm
03:00 AM 52.2°F11.2°C 48.4°F9.1°C 87% 0.6 mph N1.0 kmh N 2.4 mph3.9 kmh 30.20 in1022.7 mb 0.00 in0.0 mm 0.00 in/hr0.0 mm/hr 0.00 in0.0 mm
02:59 AM 52.3°F11.3°C 48.6°F9.2°C 87% 0.7 mph N1.1 kmh N 2.4 mph3.9 kmh 30.20 in1022.7 mb 0.00 in0.0 mm 0.00 in/hr0.0 mm/hr 0.00 in0.0 mm
02:58 AM 52.3°F11.3°C 48.6°F9.2°C 87% 0.9 mph N1.4 kmh N 2.4 mph3.9 kmh 30.20 in1022.7 mb 0.00 in0.0 mm 0.00 in/hr0.0 mm/hr 0.00 in0.0 mm
02:57 AM 52.3°F11.3°C 48.6°F9.2°C 87% 1.0 mph N1.6 kmh N 2.4 mph3.9 kmh 30.20 in1022.7 mb 0.00 in0.0 mm 0.00 in/hr0.0 mm/hr 0.00 in0.0 mm
02:56 AM 52.5°F11.4°C 48.8°F9.3°C 87% 1.0 mph N1.6 kmh N 2.4 mph3.9 kmh 30.20 in1022.7 mb 0.00 in0.0 mm 0.00 in/hr0.0 mm/hr 0.00 in0.0 mm
02:55 AM 52.5°F11.4°C 48.5°F9.2°C 86% 1.0 mph N1.6 kmh N 2.4 mph3.9 kmh 30.19 in1022.4 mb 0.00 in0.0 mm 0.00 in/hr0.0 mm/hr 0.00 in0.0 mm
02:54 AM 52.5°F11.4°C 48.5°F9.2°C 86% 1.0 mph N1.6 kmh N 2.4 mph3.9 kmh 30.20 in1022.7 mb 0.00 in0.0 mm 0.00 in/hr0.0 mm/hr 0.00 in0.0 mm
02:53 AM 52.7°F11.5°C 48.6°F9.2°C 86% 1.1 mph N1.8 kmh N 2.4 mph3.9 kmh 30.19 in1022.4 mb 0.00 in0.0 mm 0.00 in/hr0.0 mm/hr 0.00 in0.0 mm
02:52 AM 52.7°F11.5°C 48.6°F9.2°C 86% 1.2 mph N1.9 kmh N 3.2 mph5.1 kmh 30.19 in1022.4 mb 0.00 in0.0 mm 0.00 in/hr0.0 mm/hr 0.00 in0.0 mm
02:51 AM 52.7°F11.5°C 48.6°F9.2°C 86% 1.3 mph N2.1 kmh N 3.2 mph5.1 kmh 30.19 in1022.4 mb 0.00 in0.0 mm 0.00 in/hr0.0 mm/hr 0.00 in0.0 mm
02:50 AM 52.7°F11.5°C 48.6°F9.2°C 86% 1.4 mph N2.3 kmh N 3.2 mph5.1 kmh 30.20 in1022.7 mb 0.00 in0.0 mm 0.00 in/hr0.0 mm/hr 0.00 in0.0 mm
02:49 AM 52.9°F11.6°C 48.8°F9.3°C 86% 1.5 mph N2.4 kmh N 3.2 mph5.1 kmh 30.19 in1022.4 mb 0.00 in0.0 mm 0.00 in/hr0.0 mm/hr 0.00 in0.0 mm
02:48 AM 52.9°F11.6°C 48.8°F9.3°C 86% 1.5 mph N2.4 kmh N 3.2 mph5.1 kmh 30.19 in1022.4 mb 0.00 in0.0 mm 0.00 in/hr0.0 mm/hr 0.00 in0.0 mm
02:47 AM 52.9°F11.6°C 48.8°F9.3°C 86% 1.6 mph N2.6 kmh N 3.2 mph5.1 kmh 30.19 in1022.4 mb 0.00 in0.0 mm 0.00 in/hr0.0 mm/hr 0.00 in0.0 mm
02:46 AM 52.9°F11.6°C 48.8°F9.3°C 86% 1.8 mph N2.9 kmh N 3.2 mph5.1 kmh 30.19 in1022.4 mb 0.00 in0.0 mm 0.00 in/hr0.0 mm/hr 0.00 in0.0 mm
02:45 AM 53.1°F11.7°C 49.0°F9.4°C 86% 2.0 mph N3.2 kmh N 3.2 mph5.1 kmh 30.19 in1022.4 mb 0.00 in0.0 mm 0.00 in/hr0.0 mm/hr 0.00 in0.0 mm
02:44 AM 53.1°F11.7°C 49.0°F9.4°C 86% 2.1 mph N3.4 kmh N 3.2 mph5.1 kmh 30.19 in1022.4 mb 0.00 in0.0 mm 0.00 in/hr0.0 mm/hr 0.00 in0.0 mm
02:43 AM 53.1°F11.7°C 49.0°F9.4°C 86% 1.9 mph N3.1 kmh N 3.2 mph5.1 kmh 30.19 in1022.4 mb 0.00 in0.0 mm 0.00 in/hr0.0 mm/hr 0.00 in0.0 mm
02:42 AM 53.1°F11.7°C 49.0°F9.4°C 86% 1.6 mph N2.6 kmh N 3.2 mph5.1 kmh 30.19 in1022.4 mb 0.00 in0.0 mm 0.00 in/hr0.0 mm/hr 0.00 in0.0 mm
02:41 AM 53.1°F11.7°C 49.0°F9.4°C 86% 1.3 mph N2.1 kmh N 2.4 mph3.9 kmh 30.19 in1022.4 mb 0.00 in0.0 mm 0.00 in/hr0.0 mm/hr 0.00 in0.0 mm
02:40 AM 53.1°F11.7°C 49.0°F9.4°C 86% 1.2 mph N1.9 kmh N 2.4 mph3.9 kmh 30.19 in1022.4 mb 0.00 in0.0 mm 0.00 in/hr0.0 mm/hr 0.00 in0.0 mm
02:39 AM 53.1°F11.7°C 49.0°F9.4°C 86% 1.3 mph N2.1 kmh N 2.4 mph3.9 kmh 30.19 in1022.4 mb 0.00 in0.0 mm 0.00 in/hr0.0 mm/hr 0.00 in0.0 mm
02:38 AM 53.1°F11.7°C 49.0°F9.4°C 86% 1.0 mph N1.6 kmh N 2.4 mph3.9 kmh 30.19 in1022.4 mb 0.00 in0.0 mm 0.00 in/hr0.0 mm/hr 0.00 in0.0 mm
02:37 AM 53.2°F11.8°C 49.2°F9.6°C 86% 0.9 mph N1.4 kmh N 2.4 mph3.9 kmh 30.19 in1022.4 mb 0.00 in0.0 mm 0.00 in/hr0.0 mm/hr 0.00 in0.0 mm
02:36 AM 53.2°F11.8°C 49.2°F9.6°C 86% 0.8 mph N1.3 kmh N 2.4 mph3.9 kmh 30.19 in1022.4 mb 0.00 in0.0 mm 0.00 in/hr0.0 mm/hr 0.00 in0.0 mm
02:35 AM 53.2°F11.8°C 49.2°F9.6°C 86% 0.8 mph N1.3 kmh N 2.4 mph3.9 kmh 30.19 in1022.4 mb 0.00 in0.0 mm 0.00 in/hr0.0 mm/hr 0.00 in0.0 mm
02:34 AM 53.2°F11.8°C 49.2°F9.6°C 86% 0.9 mph N1.4 kmh N 2.4 mph3.9 kmh 30.19 in1022.4 mb 0.00 in0.0 mm 0.00 in/hr0.0 mm/hr 0.00 in0.0 mm
02:33 AM 53.2°F11.8°C 49.2°F9.6°C 86% 1.1 mph N1.8 kmh N 2.4 mph3.9 kmh 30.19 in1022.4 mb 0.00 in0.0 mm 0.00 in/hr0.0 mm/hr 0.00 in0.0 mm
02:32 AM 53.2°F11.8°C 49.2°F9.6°C 86% 1.4 mph N2.3 kmh N 3.2 mph5.1 kmh 30.19 in1022.4 mb 0.00 in0.0 mm 0.00 in/hr0.0 mm/hr 0.00 in0.0 mm
02:31 AM 53.2°F11.8°C 49.2°F9.6°C 86% 1.7 mph N2.7 kmh N 3.2 mph5.1 kmh 30.19 in1022.4 mb 0.00 in0.0 mm 0.00 in/hr0.0 mm/hr 0.00 in0.0 mm
02:30 AM 53.2°F11.8°C 49.2°F9.6°C 86% 1.9 mph N3.1 kmh N 3.2 mph5.1 kmh 30.19 in1022.4 mb 0.00 in0.0 mm 0.00 in/hr0.0 mm/hr 0.00 in0.0 mm
02:29 AM 53.2°F11.8°C 49.5°F9.7°C 87% 1.9 mph N3.1 kmh N 4.0 mph6.4 kmh 30.19 in1022.4 mb 0.00 in0.0 mm 0.00 in/hr0.0 mm/hr 0.00 in0.0 mm
02:28 AM 53.2°F11.8°C 49.5°F9.7°C 87% 2.3 mph N3.7 kmh N 4.0 mph6.4 kmh 30.19 in1022.4 mb 0.00 in0.0 mm 0.00 in/hr0.0 mm/hr 0.00 in0.0 mm
02:27 AM 53.4°F11.9°C 49.7°F9.8°C 87% 2.5 mph N4.0 kmh N 4.0 mph6.4 kmh 30.19 in1022.4 mb 0.00 in0.0 mm 0.00 in/hr0.0 mm/hr 0.00 in0.0 mm
02:26 AM 53.4°F11.9°C 49.7°F9.8°C 87% 2.6 mph N4.2 kmh N 4.0 mph6.4 kmh 30.18 in1022.0 mb 0.00 in0.0 mm 0.00 in/hr0.0 mm/hr 0.00 in0.0 mm
02:25 AM 53.4°F11.9°C 50.0°F10.0°C 88% 2.6 mph N4.2 kmh N 4.0 mph6.4 kmh 30.19 in1022.4 mb 0.00 in0.0 mm 0.00 in/hr0.0 mm/hr 0.00 in0.0 mm
02:24 AM 53.4°F11.9°C 50.0°F10.0°C 88% 2.6 mph N4.2 kmh N 4.0 mph6.4 kmh 30.18 in1022.0 mb 0.00 in0.0 mm 0.00 in/hr0.0 mm/hr 0.00 in0.0 mm
02:23 AM 53.4°F11.9°C 50.0°F10.0°C 88% 2.5 mph N4.0 kmh N 4.0 mph6.4 kmh 30.19 in1022.4 mb 0.00 in0.0 mm 0.00 in/hr0.0 mm/hr 0.00 in0.0 mm
02:22 AM 53.4°F11.9°C 50.0°F10.0°C 88% 2.5 mph N4.0 kmh N 4.0 mph6.4 kmh 30.19 in1022.4 mb 0.00 in0.0 mm 0.00 in/hr0.0 mm/hr 0.00 in0.0 mm
02:21 AM 53.2°F11.8°C 50.1°F10.1°C 89% 2.4 mph N3.9 kmh N 4.0 mph6.4 kmh 30.19 in1022.4 mb 0.00 in0.0 mm 0.00 in/hr0.0 mm/hr 0.00 in0.0 mm
02:20 AM 53.2°F11.8°C 50.1°F10.1°C 89% 2.3 mph N3.7 kmh N 4.0 mph6.4 kmh 30.19 in1022.4 mb 0.00 in0.0 mm 0.00 in/hr0.0 mm/hr 0.00 in0.0 mm
02:19 AM 53.4°F11.9°C 50.3°F10.2°C 89% 2.3 mph N3.7 kmh N 4.0 mph6.4 kmh 30.19 in1022.4 mb 0.00 in0.0 mm 0.00 in/hr0.0 mm/hr 0.00 in0.0 mm
02:18 AM 53.4°F11.9°C 50.3°F10.2°C 89% 2.1 mph N3.4 kmh N 3.2 mph5.1 kmh 30.19 in1022.4 mb 0.00 in0.0 mm 0.00 in/hr0.0 mm/hr 0.00 in0.0 mm
02:17 AM 53.4°F11.9°C 50.3°F10.2°C 89% 1.9 mph N3.1 kmh N 2.4 mph3.9 kmh 30.18 in1022.0 mb 0.00 in0.0 mm 0.00 in/hr0.0 mm/hr 0.00 in0.0 mm
02:16 AM 53.4°F11.9°C 50.3°F10.2°C 89% 1.6 mph N2.6 kmh N 2.4 mph3.9 kmh 30.19 in1022.4 mb 0.00 in0.0 mm 0.00 in/hr0.0 mm/hr 0.00 in0.0 mm
02:15 AM 53.4°F11.9°C 50.6°F10.3°C 90% 1.4 mph N2.3 kmh N 2.4 mph3.9 kmh 30.19 in1022.4 mb 0.00 in0.0 mm 0.00 in/hr0.0 mm/hr 0.00 in0.0 mm
02:14 AM 53.4°F11.9°C 50.6°F10.3°C 90% 1.3 mph N2.1 kmh N 2.4 mph3.9 kmh 30.18 in1022.0 mb 0.00 in0.0 mm 0.00 in/hr0.0 mm/hr 0.00 in0.0 mm
02:13 AM 53.4°F11.9°C 50.6°F10.3°C 90% 1.1 mph N1.8 kmh N 2.4 mph3.9 kmh 30.19 in1022.4 mb 0.00 in0.0 mm 0.00 in/hr0.0 mm/hr 0.00 in0.0 mm
02:12 AM 53.4°F11.9°C 50.6°F10.3°C 90% 0.9 mph N1.4 kmh N 2.4 mph3.9 kmh 30.18 in1022.0 mb 0.00 in0.0 mm 0.00 in/hr0.0 mm/hr 0.00 in0.0 mm
02:11 AM 53.4°F11.9°C 50.6°F10.3°C 90% 0.7 mph N1.1 kmh N 2.4 mph3.9 kmh 30.18 in1022.0 mb 0.00 in0.0 mm 0.00 in/hr0.0 mm/hr 0.00 in0.0 mm
02:10 AM 53.4°F11.9°C 50.6°F10.3°C 90% 0.4 mph N0.6 kmh N 2.4 mph3.9 kmh 30.18 in1022.0 mb 0.00 in0.0 mm 0.00 in/hr0.0 mm/hr 0.00 in0.0 mm
02:09 AM 53.4°F11.9°C 50.9°F10.5°C 91% 0.2 mph N0.3 kmh N 1.6 mph2.6 kmh 30.18 in1022.0 mb 0.00 in0.0 mm 0.00 in/hr0.0 mm/hr 0.00 in0.0 mm
02:08 AM 53.4°F11.9°C 50.9°F10.5°C 91% Calm Calm -- 30.19 in1022.4 mb 0.00 in0.0 mm 0.00 in/hr0.0 mm/hr 0.00 in0.0 mm
02:07 AM 53.4°F11.9°C 51.2°F10.7°C 92% Calm Calm -- 30.18 in1022.0 mb 0.00 in0.0 mm 0.00 in/hr0.0 mm/hr 0.00 in0.0 mm
02:06 AM 53.4°F11.9°C 51.2°F10.7°C 92% Calm Calm -- 30.18 in1022.0 mb 0.00 in0.0 mm 0.00 in/hr0.0 mm/hr 0.00 in0.0 mm
02:05 AM 53.4°F11.9°C 51.2°F10.7°C 92% Calm Calm -- 30.18 in1022.0 mb 0.00 in0.0 mm 0.00 in/hr0.0 mm/hr 0.00 in0.0 mm
02:04 AM 53.4°F11.9°C 51.2°F10.7°C 92% Calm Calm -- 30.18 in1022.0 mb 0.00 in0.0 mm 0.00 in/hr0.0 mm/hr 0.00 in0.0 mm
02:03 AM 53.4°F11.9°C 51.2°F10.7°C 92% Calm Calm -- 30.19 in1022.4 mb 0.00 in0.0 mm 0.00 in/hr0.0 mm/hr 0.00 in0.0 mm
02:02 AM 53.4°F11.9°C 51.2°F10.7°C 92% Calm Calm -- 30.18 in1022.0 mb 0.00 in0.0 mm 0.00 in/hr0.0 mm/hr 0.00 in0.0 mm
02:01 AM 53.4°F11.9°C 51.2°F10.7°C 92% Calm Calm -- 30.18 in1022.0 mb 0.00 in0.0 mm 0.00 in/hr0.0 mm/hr 0.00 in0.0 mm
02:00 AM 53.4°F11.9°C 51.2°F10.7°C 92% Calm Calm -- 30.18 in1022.0 mb 0.00 in0.0 mm 0.00 in/hr0.0 mm/hr 0.00 in0.0 mm
01:59 AM 53.4°F11.9°C 51.2°F10.7°C 92% Calm Calm -- 30.18 in1022.0 mb 0.00 in0.0 mm 0.00 in/hr0.0 mm/hr 0.00 in0.0 mm
01:58 AM 53.4°F11.9°C 51.2°F10.7°C 92% Calm Calm -- 30.18 in1022.0 mb 0.00 in0.0 mm 0.00 in/hr0.0 mm/hr 0.00 in0.0 mm
01:57 AM 53.8°F12.1°C 51.2°F10.7°C 91% Calm Calm -- 30.18 in1022.0 mb 0.00 in0.0 mm 0.00 in/hr0.0 mm/hr 0.00 in0.0 mm
01:56 AM 53.8°F12.1°C 51.2°F10.7°C 91% Calm Calm -- 30.18 in1022.0 mb 0.00 in0.0 mm 0.00 in/hr0.0 mm/hr 0.00 in0.0 mm
01:55 AM 53.8°F12.1°C 51.2°F10.7°C 91% Calm Calm -- 30.18 in1022.0 mb 0.00 in0.0 mm 0.00 in/hr0.0 mm/hr 0.00 in0.0 mm
01:54 AM 53.8°F12.1°C 51.2°F10.7°C 91% Calm Calm -- 30.18 in1022.0 mb 0.00 in0.0 mm 0.00 in/hr0.0 mm/hr 0.00 in0.0 mm
01:53 AM 54.0°F12.2°C 51.4°F10.8°C 91% Calm Calm -- 30.18 in1022.0 mb 0.00 in0.0 mm 0.00 in/hr0.0 mm/hr 0.00 in0.0 mm
01:52 AM 54.0°F12.2°C 51.4°F10.8°C 91% Calm Calm -- 30.18 in1022.0 mb 0.00 in0.0 mm 0.00 in/hr0.0 mm/hr 0.00 in0.0 mm
01:51 AM 54.0°F12.2°C 51.4°F10.8°C 91% Calm Calm -- 30.18 in1022.0 mb 0.00 in0.0 mm 0.00 in/hr0.0 mm/hr 0.00 in0.0 mm
01:50 AM 54.0°F12.2°C 51.4°F10.8°C 91% Calm Calm -- 30.18 in1022.0 mb 0.00 in0.0 mm 0.00 in/hr0.0 mm/hr 0.00 in0.0 mm
01:49 AM 54.0°F12.2°C 51.7°F10.9°C 92% Calm Calm -- 30.18 in1022.0 mb 0.00 in0.0 mm 0.00 in/hr0.0 mm/hr 0.00 in0.0 mm
01:48 AM 54.0°F12.2°C 51.7°F10.9°C 92% Calm Calm -- 30.17 in1021.7 mb 0.00 in0.0 mm 0.00 in/hr0.0 mm/hr 0.00 in0.0 mm
01:47 AM 54.1°F12.3°C 51.9°F11.1°C 92% Calm Calm -- 30.18 in1022.0 mb 0.00 in0.0 mm 0.00 in/hr0.0 mm/hr 0.00 in0.0 mm
01:46 AM 54.0°F12.2°C 51.7°F10.9°C 92% Calm Calm -- 30.18 in1022.0 mb 0.00 in0.0 mm 0.00 in/hr0.0 mm/hr 0.00 in0.0 mm
01:45 AM 54.0°F12.2°C 52.0°F11.1°C 93% Calm Calm -- 30.18 in1022.0 mb 0.00 in0.0 mm 0.00 in/hr0.0 mm/hr 0.00 in0.0 mm
01:44 AM 54.0°F12.2°C 52.0°F11.1°C 93% Calm Calm -- 30.17 in1021.7 mb 0.00 in0.0 mm 0.00 in/hr0.0 mm/hr 0.00 in0.0 mm
01:43 AM 54.0°F12.2°C 52.0°F11.1°C 93% Calm Calm -- 30.17 in1021.7 mb 0.00 in0.0 mm 0.00 in/hr0.0 mm/hr 0.00 in0.0 mm
01:42 AM 54.0°F12.2°C 52.0°F11.1°C 93% Calm Calm -- 30.17 in1021.7 mb 0.00 in0.0 mm 0.00 in/hr0.0 mm/hr 0.00 in0.0 mm
01:41 AM 54.0°F12.2°C 52.0°F11.1°C 93% Calm Calm -- 30.17 in1021.7 mb 0.00 in0.0 mm 0.00 in/hr0.0 mm/hr 0.00 in0.0 mm
01:40 AM 54.0°F12.2°C 52.0°F11.1°C 93% Calm Calm -- 30.17 in1021.7 mb 0.00 in0.0 mm 0.00 in/hr0.0 mm/hr 0.00 in0.0 mm
01:39 AM 54.0°F12.2°C 52.0°F11.1°C 93% Calm Calm -- 30.17 in1021.7 mb 0.00 in0.0 mm 0.00 in/hr0.0 mm/hr 0.00 in0.0 mm
01:38 AM 54.1°F12.3°C 52.2°F11.2°C 93% Calm Calm -- 30.17 in1021.7 mb 0.00 in0.0 mm 0.00 in/hr0.0 mm/hr 0.00 in0.0 mm
01:37 AM 54.1°F12.3°C 52.2°F11.2°C 93% Calm Calm -- 30.17 in1021.7 mb 0.00 in0.0 mm 0.00 in/hr0.0 mm/hr 0.00 in0.0 mm
01:36 AM 54.1°F12.3°C 52.2°F11.2°C 93% 0.1 mph N0.2 kmh N 1.6 mph2.6 kmh 30.17 in1021.7 mb 0.00 in0.0 mm 0.00 in/hr0.0 mm/hr 0.00 in0.0 mm
01:35 AM 54.1°F12.3°C 52.2°F11.2°C 93% 0.3 mph N0.5 kmh N 1.6 mph2.6 kmh 30.17 in1021.7 mb 0.00 in0.0 mm 0.00 in/hr0.0 mm/hr 0.00 in0.0 mm
01:34 AM 54.3°F12.4°C 52.3°F11.3°C 93% 0.3 mph N0.5 kmh N 1.6 mph2.6 kmh 30.17 in1021.7 mb 0.00 in0.0 mm 0.00 in/hr0.0 mm/hr 0.00 in0.0 mm
01:33 AM 54.3°F12.4°C 52.3°F11.3°C 93% 0.3 mph N0.5 kmh N 1.6 mph2.6 kmh 30.17 in1021.7 mb 0.00 in0.0 mm 0.00 in/hr0.0 mm/hr 0.00 in0.0 mm
01:32 AM 54.3°F12.4°C 52.3°F11.3°C 93% 0.4 mph N0.6 kmh N 1.6 mph2.6 kmh 30.17 in1021.7 mb 0.00 in0.0 mm 0.00 in/hr0.0 mm/hr 0.00 in0.0 mm
01:31 AM 54.3°F12.4°C 52.1°F11.2°C 92% 0.5 mph N0.8 kmh N 1.6 mph2.6 kmh 30.17 in1021.7 mb 0.00 in0.0 mm 0.00 in/hr0.0 mm/hr 0.00 in0.0 mm
01:30 AM 54.3°F12.4°C 52.1°F11.2°C 92% 0.5 mph N0.8 kmh N 1.6 mph2.6 kmh 30.17 in1021.7 mb 0.00 in0.0 mm 0.00 in/hr0.0 mm/hr 0.00 in0.0 mm
01:29 AM 54.3°F12.4°C 52.1°F11.2°C 92% 0.6 mph N1.0 kmh N 1.6 mph2.6 kmh 30.16 in1021.3 mb 0.00 in0.0 mm 0.00 in/hr0.0 mm/hr 0.00 in0.0 mm
01:28 AM 54.3°F12.4°C 52.1°F11.2°C 92% 0.7 mph N1.1 kmh N 1.6 mph2.6 kmh 30.16 in1021.3 mb 0.00 in0.0 mm 0.00 in/hr0.0 mm/hr 0.00 in0.0 mm
01:27 AM 54.3°F12.4°C 52.1°F11.2°C 92% 0.7 mph N1.1 kmh N 1.6 mph2.6 kmh 30.16 in1021.3 mb 0.00 in0.0 mm 0.00 in/hr0.0 mm/hr 0.00 in0.0 mm
01:26 AM 54.3°F12.4°C 52.1°F11.2°C 92% 0.6 mph N1.0 kmh N 1.6 mph2.6 kmh 30.17 in1021.7 mb 0.00 in0.0 mm 0.00 in/hr0.0 mm/hr 0.00 in0.0 mm
01:25 AM 54.5°F12.5°C 51.9°F11.1°C 91% 0.5 mph N0.8 kmh N 1.6 mph2.6 kmh 30.16 in1021.3 mb 0.00 in0.0 mm 0.00 in/hr0.0 mm/hr 0.00 in0.0 mm
01:24 AM 54.5°F12.5°C 51.9°F11.1°C 91% 0.6 mph N1.0 kmh N 1.6 mph2.6 kmh 30.16 in1021.3 mb 0.00 in0.0 mm 0.00 in/hr0.0 mm/hr 0.00 in0.0 mm
01:23 AM 54.5°F12.5°C 51.9°F11.1°C 91% 0.6 mph N1.0 kmh N 1.6 mph2.6 kmh 30.16 in1021.3 mb 0.00 in0.0 mm 0.00 in/hr0.0 mm/hr 0.00 in0.0 mm
01:22 AM 54.7°F12.6°C 52.1°F11.2°C 91% 0.5 mph N0.8 kmh N 1.6 mph2.6 kmh 30.16 in1021.3 mb 0.00 in0.0 mm 0.00 in/hr0.0 mm/hr 0.00 in0.0 mm
01:21 AM 54.7°F12.6°C 52.1°F11.2°C 91% 0.4 mph N0.6 kmh N 1.6 mph2.6 kmh 30.16 in1021.3 mb 0.00 in0.0 mm 0.00 in/hr0.0 mm/hr 0.00 in0.0 mm
01:20 AM 54.7°F12.6°C 52.1°F11.2°C 91% 0.4 mph N0.6 kmh N 1.6 mph2.6 kmh 30.16 in1021.3 mb 0.00 in0.0 mm 0.00 in/hr0.0 mm/hr 0.00 in0.0 mm
01:19 AM 54.7°F12.6°C 52.1°F11.2°C 91% 0.5 mph N0.8 kmh N 1.6 mph2.6 kmh 30.16 in1021.3 mb 0.00 in0.0 mm 0.00 in/hr0.0 mm/hr 0.00 in0.0 mm
01:18 AM 54.7°F12.6°C 51.8°F11.0°C 90% 0.4 mph N0.6 kmh N 1.6 mph2.6 kmh 30.16 in1021.3 mb 0.00 in0.0 mm 0.00 in/hr0.0 mm/hr 0.00 in0.0 mm
01:17 AM 54.9°F12.7°C 52.0°F11.1°C 90% 0.5 mph N0.8 kmh N 1.6 mph2.6 kmh 30.16 in1021.3 mb 0.00 in0.0 mm 0.00 in/hr0.0 mm/hr 0.00 in0.0 mm
01:16 AM 54.9°F12.7°C 52.0°F11.1°C 90% 0.6 mph N1.0 kmh N 1.6 mph2.6 kmh 30.16 in1021.3 mb 0.00 in0.0 mm 0.00 in/hr0.0 mm/hr 0.00 in0.0 mm
01:15 AM 54.9°F12.7°C 52.0°F11.1°C 90% 0.7 mph N1.1 kmh N 1.6 mph2.6 kmh 30.16 in1021.3 mb 0.00 in0.0 mm 0.00 in/hr0.0 mm/hr 0.00 in0.0 mm
01:14 AM 55.0°F12.8°C 52.2°F11.2°C 90% 0.8 mph N1.3 kmh N 1.6 mph2.6 kmh 30.16 in1021.3 mb 0.00 in0.0 mm 0.00 in/hr0.0 mm/hr 0.00 in0.0 mm
01:13 AM 55.0°F12.8°C 51.9°F11.1°C 89% 0.7 mph N1.1 kmh N 1.6 mph2.6 kmh 30.16 in1021.3 mb 0.00 in0.0 mm 0.00 in/hr0.0 mm/hr 0.00 in0.0 mm
01:12 AM 55.0°F12.8°C 51.9°F11.1°C 89% 0.7 mph N1.1 kmh N 1.6 mph2.6 kmh 30.16 in1021.3 mb 0.00 in0.0 mm 0.00 in/hr0.0 mm/hr 0.00 in0.0 mm
01:11 AM 55.0°F12.8°C 51.9°F11.1°C 89% 0.9 mph N1.4 kmh N 1.6 mph2.6 kmh 30.16 in1021.3 mb 0.00 in0.0 mm 0.00 in/hr0.0 mm/hr 0.00 in0.0 mm
01:10 AM 55.0°F12.8°C 51.9°F11.1°C 89% 1.0 mph N1.6 kmh N 1.6 mph2.6 kmh 30.16 in1021.3 mb 0.00 in0.0 mm 0.00 in/hr0.0 mm/hr 0.00 in0.0 mm
01:09 AM 55.0°F12.8°C 51.9°F11.1°C 89% 1.0 mph N1.6 kmh N 1.6 mph2.6 kmh 30.16 in1021.3 mb 0.00 in0.0 mm 0.00 in/hr0.0 mm/hr 0.00 in0.0 mm
01:08 AM 55.0°F12.8°C 51.9°F11.1°C 89% 0.9 mph N1.4 kmh N 1.6 mph2.6 kmh 30.16 in1021.3 mb 0.00 in0.0 mm 0.00 in/hr0.0 mm/hr 0.00 in0.0 mm
01:07 AM 55.0°F12.8°C 51.9°F11.1°C 89% 1.0 mph N1.6 kmh N 1.6 mph2.6 kmh 30.16 in1021.3 mb 0.00 in0.0 mm 0.00 in/hr0.0 mm/hr 0.00 in0.0 mm
01:06 AM 55.2°F12.9°C 52.0°F11.1°C 89% 1.1 mph N1.8 kmh N 1.6 mph2.6 kmh 30.16 in1021.3 mb 0.00 in0.0 mm 0.00 in/hr0.0 mm/hr 0.00 in0.0 mm
01:05 AM 55.2°F12.9°C 52.0°F11.1°C 89% 1.1 mph N1.8 kmh N 2.4 mph3.9 kmh 30.16 in1021.3 mb 0.00 in0.0 mm 0.00 in/hr0.0 mm/hr 0.00 in0.0 mm
01:04 AM 55.2°F12.9°C 52.0°F11.1°C 89% 1.2 mph N1.9 kmh N 2.4 mph3.9 kmh 30.15 in1021.0 mb 0.00 in0.0 mm 0.00 in/hr0.0 mm/hr 0.00 in0.0 mm
01:03 AM 55.2°F12.9°C 52.0°F11.1°C 89% 1.3 mph N2.1 kmh N 2.4 mph3.9 kmh 30.15 in1021.0 mb 0.00 in0.0 mm 0.00 in/hr0.0 mm/hr 0.00 in0.0 mm
01:02 AM 55.2°F12.9°C 52.3°F11.3°C 90% 1.4 mph N2.3 kmh N 2.4 mph3.9 kmh 30.16 in1021.3 mb 0.00 in0.0 mm 0.00 in/hr0.0 mm/hr 0.00 in0.0 mm
01:01 AM 55.2°F12.9°C 52.3°F11.3°C 90% 1.4 mph N2.3 kmh N 2.4 mph3.9 kmh 30.16 in1021.3 mb 0.00 in0.0 mm 0.00 in/hr0.0 mm/hr 0.00 in0.0 mm
01:00 AM 55.4°F13.0°C 52.5°F11.4°C 90% 1.3 mph N2.1 kmh N 2.4 mph3.9 kmh 30.16 in1021.3 mb 0.00 in0.0 mm 0.00 in/hr0.0 mm/hr 0.00 in0.0 mm
12:59 AM 55.4°F13.0°C 52.5°F11.4°C 90% 1.2 mph N1.9 kmh N 2.4 mph3.9 kmh 30.16 in1021.3 mb 0.00 in0.0 mm 0.00 in/hr0.0 mm/hr 0.00 in0.0 mm
12:58 AM 55.2°F12.9°C 52.3°F11.3°C 90% 1.1 mph N1.8 kmh N 2.4 mph3.9 kmh 30.15 in1021.0 mb 0.00 in0.0 mm 0.00 in/hr0.0 mm/hr 0.00 in0.0 mm
12:57 AM 55.2°F12.9°C 52.3°F11.3°C 90% 1.0 mph N1.6 kmh N 2.4 mph3.9 kmh 30.15 in1021.0 mb 0.00 in0.0 mm 0.00 in/hr0.0 mm/hr 0.00 in0.0 mm
12:56 AM 55.2°F12.9°C 52.3°F11.3°C 90% 0.8 mph N1.3 kmh N 2.4 mph3.9 kmh 30.15 in1021.0 mb 0.00 in0.0 mm 0.00 in/hr0.0 mm/hr 0.00 in0.0 mm
12:55 AM 55.2°F12.9°C 52.3°F11.3°C 90% 0.6 mph N1.0 kmh N 2.4 mph3.9 kmh 30.15 in1021.0 mb 0.00 in0.0 mm 0.00 in/hr0.0 mm/hr 0.00 in0.0 mm
12:54 AM 55.4°F13.0°C 52.2°F11.2°C 89% 0.4 mph N0.6 kmh N 1.6 mph2.6 kmh 30.15 in1021.0 mb 0.00 in0.0 mm 0.00 in/hr0.0 mm/hr 0.00 in0.0 mm
12:53 AM 55.4°F13.0°C 52.2°F11.2°C 89% 0.3 mph N0.5 kmh N 1.6 mph2.6 kmh 30.15 in1021.0 mb 0.00 in0.0 mm 0.00 in/hr0.0 mm/hr 0.00 in0.0 mm
12:52 AM 55.4°F13.0°C 52.2°F11.2°C 89% 0.1 mph N0.2 kmh N 1.6 mph2.6 kmh 30.15 in1021.0 mb 0.00 in0.0 mm 0.00 in/hr0.0 mm/hr 0.00 in0.0 mm
12:51 AM 55.4°F13.0°C 52.2°F11.2°C 89% 0.1 mph N0.2 kmh N 0.8 mph1.3 kmh 30.15 in1021.0 mb 0.00 in0.0 mm 0.00 in/hr0.0 mm/hr 0.00 in0.0 mm
12:50 AM 55.4°F13.0°C 52.2°F11.2°C 89% 0.1 mph N0.2 kmh N 1.6 mph2.6 kmh 30.15 in1021.0 mb 0.00 in0.0 mm 0.00 in/hr0.0 mm/hr 0.00 in0.0 mm
12:49 AM 55.4°F13.0°C 52.2°F11.2°C 89% 0.1 mph N0.2 kmh N 1.6 mph2.6 kmh 30.15 in1021.0 mb 0.00 in0.0 mm 0.00 in/hr0.0 mm/hr 0.00 in0.0 mm
12:48 AM 55.4°F13.0°C 52.2°F11.2°C 89% 0.1 mph N0.2 kmh N 1.6 mph2.6 kmh 30.15 in1021.0 mb 0.00 in0.0 mm 0.00 in/hr0.0 mm/hr 0.00 in0.0 mm
12:47 AM 55.6°F13.1°C 52.4°F11.3°C 89% 0.2 mph N0.3 kmh N 1.6 mph2.6 kmh 30.15 in1021.0 mb 0.00 in0.0 mm 0.00 in/hr0.0 mm/hr 0.00 in0.0 mm
12:46 AM 55.6°F13.1°C 52.1°F11.2°C 88% 0.4 mph N0.6 kmh N 1.6 mph2.6 kmh 30.15 in1021.0 mb 0.00 in0.0 mm 0.00 in/hr0.0 mm/hr 0.00 in0.0 mm
12:45 AM 55.6°F13.1°C 52.4°F11.3°C 89% 0.5 mph N0.8 kmh N 1.6 mph2.6 kmh 30.15 in1021.0 mb 0.00 in0.0 mm 0.00 in/hr0.0 mm/hr 0.00 in0.0 mm
12:44 AM 55.6°F13.1°C 52.4°F11.3°C 89% 0.6 mph N1.0 kmh N 1.6 mph2.6 kmh 30.15 in1021.0 mb 0.00 in0.0 mm 0.00 in/hr0.0 mm/hr 0.00 in0.0 mm
12:43 AM 55.6°F13.1°C 52.4°F11.3°C 89% 0.8 mph N1.3 kmh N 1.6 mph2.6 kmh 30.15 in1021.0 mb 0.00 in0.0 mm 0.00 in/hr0.0 mm/hr 0.00 in0.0 mm
12:42 AM 55.6°F13.1°C 52.4°F11.3°C 89% 0.9 mph N1.4 kmh N 1.6 mph2.6 kmh 30.15 in1021.0 mb 0.00 in0.0 mm 0.00 in/hr0.0 mm/hr 0.00 in0.0 mm
12:41 AM 55.8°F13.2°C 52.6°F11.4°C 89% 0.9 mph N1.4 kmh N 1.6 mph2.6 kmh 30.15 in1021.0 mb 0.00 in0.0 mm 0.00 in/hr0.0 mm/hr 0.00 in0.0 mm
12:40 AM 55.8°F13.2°C 52.6°F11.4°C 89% 0.9 mph N1.4 kmh N 1.6 mph2.6 kmh 30.15 in1021.0 mb 0.00 in0.0 mm 0.00 in/hr0.0 mm/hr 0.00 in0.0 mm
12:39 AM 55.8°F13.2°C 52.6°F11.4°C 89% 1.0 mph N1.6 kmh N 1.6 mph2.6 kmh 30.15 in1021.0 mb 0.00 in0.0 mm 0.00 in/hr0.0 mm/hr 0.00 in0.0 mm
12:38 AM 55.8°F13.2°C 52.6°F11.4°C 89% 1.1 mph N1.8 kmh N 1.6 mph2.6 kmh 30.15 in1021.0 mb 0.00 in0.0 mm 0.00 in/hr0.0 mm/hr 0.00 in0.0 mm
12:37 AM 55.8°F13.2°C 52.6°F11.4°C 89% 1.1 mph N1.8 kmh N 1.6 mph2.6 kmh 30.15 in1021.0 mb 0.00 in0.0 mm 0.00 in/hr0.0 mm/hr 0.00 in0.0 mm
12:36 AM 55.8°F13.2°C 52.6°F11.4°C 89% 0.9 mph N1.4 kmh N 1.6 mph2.6 kmh 30.15 in1021.0 mb 0.00 in0.0 mm 0.00 in/hr0.0 mm/hr 0.00 in0.0 mm
12:35 AM 55.8°F13.2°C 52.6°F11.4°C 89% 1.0 mph N1.6 kmh N 2.4 mph3.9 kmh 30.14 in1020.7 mb 0.00 in0.0 mm 0.00 in/hr0.0 mm/hr 0.00 in0.0 mm
12:34 AM 55.8°F13.2°C 52.6°F11.4°C 89% 0.9 mph N1.4 kmh N 2.4 mph3.9 kmh 30.14 in1020.7 mb 0.00 in0.0 mm 0.00 in/hr0.0 mm/hr 0.00 in0.0 mm
12:33 AM 55.8°F13.2°C 52.6°F11.4°C 89% 0.9 mph N1.4 kmh N 2.4 mph3.9 kmh 30.14 in1020.7 mb 0.00 in0.0 mm 0.00 in/hr0.0 mm/hr 0.00 in0.0 mm
12:32 AM 55.8°F13.2°C 52.9°F11.6°C 90% 0.9 mph N1.4 kmh N 2.4 mph3.9 kmh 30.14 in1020.7 mb 0.00 in0.0 mm 0.00 in/hr0.0 mm/hr 0.00 in0.0 mm
12:31 AM 55.8°F13.2°C 52.9°F11.6°C 90% 1.0 mph N1.6 kmh N 2.4 mph3.9 kmh 30.14 in1020.7 mb 0.00 in0.0 mm 0.00 in/hr0.0 mm/hr 0.00 in0.0 mm
12:30 AM 55.8°F13.2°C 52.9°F11.6°C 90% 1.1 mph N1.8 kmh N 2.4 mph3.9 kmh 30.14 in1020.7 mb 0.00 in0.0 mm 0.00 in/hr0.0 mm/hr 0.00 in0.0 mm
12:29 AM 55.8°F13.2°C 52.9°F11.6°C 90% 1.2 mph N1.9 kmh N 2.4 mph3.9 kmh 30.15 in1021.0 mb 0.00 in0.0 mm 0.00 in/hr0.0 mm/hr 0.00 in0.0 mm
12:28 AM 55.8°F13.2°C 52.9°F11.6°C 90% 1.1 mph N1.8 kmh N 2.4 mph3.9 kmh 30.14 in1020.7 mb 0.00 in0.0 mm 0.00 in/hr0.0 mm/hr 0.00 in0.0 mm
12:27 AM 55.9°F13.3°C 53.1°F11.7°C 90% 1.2 mph N1.9 kmh N 2.4 mph3.9 kmh 30.14 in1020.7 mb 0.00 in0.0 mm 0.00 in/hr0.0 mm/hr 0.00 in0.0 mm
12:26 AM 55.9°F13.3°C 53.1°F11.7°C 90% 1.1 mph N1.8 kmh N 2.4 mph3.9 kmh 30.14 in1020.7 mb 0.00 in0.0 mm 0.00 in/hr0.0 mm/hr 0.00 in0.0 mm
12:25 AM 55.9°F13.3°C 53.1°F11.7°C 90% 0.9 mph N1.4 kmh N 2.4 mph3.9 kmh 30.14 in1020.7 mb 0.00 in0.0 mm 0.00 in/hr0.0 mm/hr 0.00 in0.0 mm
12:24 AM 55.9°F13.3°C 53.1°F11.7°C 90% 1.0 mph N1.6 kmh N 2.4 mph3.9 kmh 30.14 in1020.7 mb 0.00 in0.0 mm 0.00 in/hr0.0 mm/hr 0.00 in0.0 mm
12:23 AM 55.9°F13.3°C 53.4°F11.9°C 91% 1.0 mph N1.6 kmh N 2.4 mph3.9 kmh 30.14 in1020.7 mb 0.00 in0.0 mm 0.00 in/hr0.0 mm/hr 0.00 in0.0 mm
12:22 AM 55.9°F13.3°C 53.4°F11.9°C 91% 0.9 mph N1.4 kmh N 2.4 mph3.9 kmh 30.14 in1020.7 mb 0.00 in0.0 mm 0.00 in/hr0.0 mm/hr 0.00 in0.0 mm
12:21 AM 55.9°F13.3°C 53.4°F11.9°C 91% 0.8 mph N1.3 kmh N 1.6 mph2.6 kmh 30.14 in1020.7 mb 0.00 in0.0 mm 0.00 in/hr0.0 mm/hr 0.00 in0.0 mm
12:20 AM 55.9°F13.3°C 53.4°F11.9°C 91% 0.7 mph N1.1 kmh N 1.6 mph2.6 kmh 30.14 in1020.7 mb 0.00 in0.0 mm 0.00 in/hr0.0 mm/hr 0.00 in0.0 mm
12:19 AM 55.8°F13.2°C 53.2°F11.8°C 91% 0.5 mph N0.8 kmh N 1.6 mph2.6 kmh 30.14 in1020.7 mb 0.00 in0.0 mm 0.00 in/hr0.0 mm/hr 0.00 in0.0 mm
12:18 AM 55.8°F13.2°C 53.2°F11.8°C 91% 0.4 mph N0.6 kmh N 1.6 mph2.6 kmh 30.14 in1020.7 mb 0.00 in0.0 mm 0.00 in/hr0.0 mm/hr 0.00 in0.0 mm
12:17 AM 55.9°F13.3°C 53.4°F11.9°C 91% 0.4 mph N0.6 kmh N 1.6 mph2.6 kmh 30.13 in1020.3 mb 0.00 in0.0 mm 0.00 in/hr0.0 mm/hr 0.00 in0.0 mm
12:16 AM 55.9°F13.3°C 53.4°F11.9°C 91% 0.4 mph N0.6 kmh N 1.6 mph2.6 kmh 30.14 in1020.7 mb 0.00 in0.0 mm 0.00 in/hr0.0 mm/hr 0.00 in0.0 mm
12:15 AM 55.9°F13.3°C 53.4°F11.9°C 91% 0.4 mph N0.6 kmh N 1.6 mph2.6 kmh 30.14 in1020.7 mb 0.00 in0.0 mm 0.00 in/hr0.0 mm/hr 0.00 in0.0 mm
12:14 AM 55.9°F13.3°C 53.4°F11.9°C 91% 0.3 mph N0.5 kmh N 1.6 mph2.6 kmh 30.14 in1020.7 mb 0.00 in0.0 mm 0.00 in/hr0.0 mm/hr 0.00 in0.0 mm
12:13 AM 55.9°F13.3°C 53.4°F11.9°C 91% 0.2 mph N0.3 kmh N 1.6 mph2.6 kmh 30.14 in1020.7 mb 0.00 in0.0 mm 0.00 in/hr0.0 mm/hr 0.00 in0.0 mm
12:12 AM 55.9°F13.3°C 53.4°F11.9°C 91% 0.2 mph N0.3 kmh N 1.6 mph2.6 kmh 30.14 in1020.7 mb 0.00 in0.0 mm 0.00 in/hr0.0 mm/hr 0.00 in0.0 mm
12:11 AM 55.9°F13.3°C 53.4°F11.9°C 91% 0.1 mph N0.2 kmh N 1.6 mph2.6 kmh 30.14 in1020.7 mb 0.00 in0.0 mm 0.00 in/hr0.0 mm/hr 0.00 in0.0 mm
12:10 AM 55.9°F13.3°C 53.4°F11.9°C 91% Calm Calm -- 30.13 in1020.3 mb 0.00 in0.0 mm 0.00 in/hr0.0 mm/hr 0.00 in0.0 mm
12:09 AM 55.9°F13.3°C 53.7°F12.1°C 92% Calm Calm -- 30.14 in1020.7 mb 0.00 in0.0 mm 0.00 in/hr0.0 mm/hr 0.00 in0.0 mm
12:08 AM 55.9°F13.3°C 53.7°F12.1°C 92% Calm Calm -- 30.13 in1020.3 mb 0.00 in0.0 mm 0.00 in/hr0.0 mm/hr 0.00 in0.0 mm
12:07 AM 56.3°F13.5°C 54.0°F12.2°C 92% Calm Calm -- 30.14 in1020.7 mb 0.00 in0.0 mm 0.00 in/hr0.0 mm/hr 0.00 in0.0 mm
12:06 AM 56.3°F13.5°C 54.0°F12.2°C 92% Calm Calm -- 30.14 in1020.7 mb 0.00 in0.0 mm 0.00 in/hr0.0 mm/hr 0.00 in0.0 mm
12:05 AM 56.3°F13.5°C 54.0°F12.2°C 92% Calm Calm -- 30.13 in1020.3 mb 0.00 in0.0 mm 0.00 in/hr0.0 mm/hr 0.00 in0.0 mm
12:04 AM 56.3°F13.5°C 54.0°F12.2°C 92% Calm Calm -- 30.13 in1020.3 mb 0.00 in0.0 mm 0.00 in/hr0.0 mm/hr 0.00 in0.0 mm
12:03 AM 56.3°F13.5°C 54.0°F12.2°C 92% Calm Calm -- 30.14 in1020.7 mb 0.00 in0.0 mm 0.00 in/hr0.0 mm/hr 0.00 in0.0 mm
12:02 AM 56.3°F13.5°C 54.0°F12.2°C 92% Calm Calm -- 30.13 in1020.3 mb 0.00 in0.0 mm 0.00 in/hr0.0 mm/hr 0.00 in0.0 mm
12:01 AM 56.3°F13.5°C 54.0°F12.2°C 92% Calm Calm -- 30.14 in1020.7 mb 0.00 in0.0 mm 0.00 in/hr0.0 mm/hr 0.00 in0.0 mm
12:00 AM 56.3°F13.5°C 54.0°F12.2°C 92% Calm Calm 0.8 mph1.3 kmh 30.14 in1020.7 mb 0.00 in0.0 mm 0.00 in/hr0.0 mm/hr 0.00 in0.0 mm